<?xml version="1.0" encoding="UTF-8" standalone="no" ?>
<gpx xmlns="http://www.topografix.com/GPX/1/1" xmlns:xsi="http://www.w3.org/2001/XMLSchema-instance" xsi:schemaLocation="http://www.topografix.com/GPX/1/1 http://www.topografix.com/GPX/1/1/gpx.xsd" version="1.1" creator="VisuGPX - https://www.visugpx.com">
  <metadata>
    <name>2016-05-22 13h24 Trajectoires</name>
    <desc><![CDATA[2016-05-22 13h24 Trajectoires]]></desc>
  </metadata>
  <trk>
    <name><![CDATA[2016-05-22 13:24]]></name>
    <trkseg>
      <trkpt lat="43.532" lon="3.92737">
        <ele>2.06</ele>
        <time>2016-05-22T11:24:59Z</time>
      </trkpt>
      <trkpt lat="43.53199" lon="3.92737">
        <ele>2.54</ele>
        <time>2016-05-22T11:25:16Z</time>
      </trkpt>
      <trkpt lat="43.53201" lon="3.92745">
        <ele>3.02</ele>
        <time>2016-05-22T11:25:19Z</time>
      </trkpt>
      <trkpt lat="43.53209" lon="3.92745">
        <ele>3.02</ele>
        <time>2016-05-22T11:25:28Z</time>
      </trkpt>
      <trkpt lat="43.53214" lon="3.92728">
        <ele>3.5</ele>
        <time>2016-05-22T11:26:23Z</time>
      </trkpt>
      <trkpt lat="43.53221" lon="3.92714">
        <ele>3.5</ele>
        <time>2016-05-22T11:26:33Z</time>
      </trkpt>
      <trkpt lat="43.53221" lon="3.92709">
        <ele>3.5</ele>
        <time>2016-05-22T11:26:34Z</time>
      </trkpt>
      <trkpt lat="43.53219" lon="3.92705">
        <ele>3.5</ele>
        <time>2016-05-22T11:26:35Z</time>
      </trkpt>
      <trkpt lat="43.53216" lon="3.92701">
        <ele>3.5</ele>
        <time>2016-05-22T11:26:36Z</time>
      </trkpt>
      <trkpt lat="43.53212" lon="3.92697">
        <ele>3.98</ele>
        <time>2016-05-22T11:26:37Z</time>
      </trkpt>
      <trkpt lat="43.53203" lon="3.92678">
        <ele>3.98</ele>
        <time>2016-05-22T11:26:46Z</time>
      </trkpt>
      <trkpt lat="43.53205" lon="3.9267">
        <ele>4.46</ele>
        <time>2016-05-22T11:26:48Z</time>
      </trkpt>
      <trkpt lat="43.53208" lon="3.92664">
        <ele>4.46</ele>
        <time>2016-05-22T11:26:49Z</time>
      </trkpt>
      <trkpt lat="43.53211" lon="3.92659">
        <ele>4.46</ele>
        <time>2016-05-22T11:26:50Z</time>
      </trkpt>
      <trkpt lat="43.53215" lon="3.92655">
        <ele>4.46</ele>
        <time>2016-05-22T11:26:51Z</time>
      </trkpt>
      <trkpt lat="43.53217" lon="3.92654">
        <ele>4.46</ele>
        <time>2016-05-22T11:26:52Z</time>
      </trkpt>
      <trkpt lat="43.53219" lon="3.92653">
        <ele>4.46</ele>
        <time>2016-05-22T11:26:53Z</time>
      </trkpt>
      <trkpt lat="43.53224" lon="3.92654">
        <ele>3.98</ele>
        <time>2016-05-22T11:26:54Z</time>
      </trkpt>
      <trkpt lat="43.53232" lon="3.92654">
        <ele>3.98</ele>
        <time>2016-05-22T11:26:55Z</time>
      </trkpt>
      <trkpt lat="43.53243" lon="3.92652">
        <ele>3.98</ele>
        <time>2016-05-22T11:26:56Z</time>
      </trkpt>
      <trkpt lat="43.53255" lon="3.92644">
        <ele>3.5</ele>
        <time>2016-05-22T11:26:57Z</time>
      </trkpt>
      <trkpt lat="43.53262" lon="3.92632">
        <ele>3.5</ele>
        <time>2016-05-22T11:26:58Z</time>
      </trkpt>
      <trkpt lat="43.53265" lon="3.92617">
        <ele>3.5</ele>
        <time>2016-05-22T11:26:59Z</time>
      </trkpt>
      <trkpt lat="43.53264" lon="3.92602">
        <ele>3.5</ele>
        <time>2016-05-22T11:27:00Z</time>
      </trkpt>
      <trkpt lat="43.53258" lon="3.92591">
        <ele>3.5</ele>
        <time>2016-05-22T11:27:01Z</time>
      </trkpt>
      <trkpt lat="43.53249" lon="3.92582">
        <ele>3.5</ele>
        <time>2016-05-22T11:27:02Z</time>
      </trkpt>
      <trkpt lat="43.53238" lon="3.92576">
        <ele>3.98</ele>
        <time>2016-05-22T11:27:03Z</time>
      </trkpt>
      <trkpt lat="43.53225" lon="3.92568">
        <ele>3.98</ele>
        <time>2016-05-22T11:27:04Z</time>
      </trkpt>
      <trkpt lat="43.53213" lon="3.92557">
        <ele>4.46</ele>
        <time>2016-05-22T11:27:05Z</time>
      </trkpt>
      <trkpt lat="43.53097" lon="3.92437">
        <ele>9.75</ele>
        <time>2016-05-22T11:27:15Z</time>
      </trkpt>
      <trkpt lat="43.5305" lon="3.92385">
        <ele>6.87</ele>
        <time>2016-05-22T11:27:20Z</time>
      </trkpt>
      <trkpt lat="43.53042" lon="3.92368">
        <ele>6.39</ele>
        <time>2016-05-22T11:27:21Z</time>
      </trkpt>
      <trkpt lat="43.53035" lon="3.92346">
        <ele>5.42</ele>
        <time>2016-05-22T11:27:22Z</time>
      </trkpt>
      <trkpt lat="43.53032" lon="3.92323">
        <ele>4.46</ele>
        <time>2016-05-22T11:27:23Z</time>
      </trkpt>
      <trkpt lat="43.53029" lon="3.92301">
        <ele>4.46</ele>
        <time>2016-05-22T11:27:24Z</time>
      </trkpt>
      <trkpt lat="43.53032" lon="3.92279">
        <ele>3.98</ele>
        <time>2016-05-22T11:27:25Z</time>
      </trkpt>
      <trkpt lat="43.53037" lon="3.92258">
        <ele>3.98</ele>
        <time>2016-05-22T11:27:26Z</time>
      </trkpt>
      <trkpt lat="43.53044" lon="3.92237">
        <ele>3.5</ele>
        <time>2016-05-22T11:27:27Z</time>
      </trkpt>
      <trkpt lat="43.53054" lon="3.92218">
        <ele>3.5</ele>
        <time>2016-05-22T11:27:28Z</time>
      </trkpt>
      <trkpt lat="43.53066" lon="3.92198">
        <ele>3.5</ele>
        <time>2016-05-22T11:27:29Z</time>
      </trkpt>
      <trkpt lat="43.5308" lon="3.92177">
        <ele>3.5</ele>
        <time>2016-05-22T11:27:30Z</time>
      </trkpt>
      <trkpt lat="43.53189" lon="3.92013">
        <ele>4.46</ele>
        <time>2016-05-22T11:27:38Z</time>
      </trkpt>
      <trkpt lat="43.53324" lon="3.9181">
        <ele>8.31</ele>
        <time>2016-05-22T11:27:47Z</time>
      </trkpt>
      <trkpt lat="43.53426" lon="3.91586">
        <ele>10.71</ele>
        <time>2016-05-22T11:27:55Z</time>
      </trkpt>
      <trkpt lat="43.53484" lon="3.91331">
        <ele>5.91</ele>
        <time>2016-05-22T11:28:02Z</time>
      </trkpt>
      <trkpt lat="43.53487" lon="3.9107">
        <ele>5.42</ele>
        <time>2016-05-22T11:28:09Z</time>
      </trkpt>
      <trkpt lat="43.53448" lon="3.90766">
        <ele>6.39</ele>
        <time>2016-05-22T11:28:18Z</time>
      </trkpt>
      <trkpt lat="43.53445" lon="3.90732">
        <ele>6.39</ele>
        <time>2016-05-22T11:28:19Z</time>
      </trkpt>
      <trkpt lat="43.53443" lon="3.90696">
        <ele>6.39</ele>
        <time>2016-05-22T11:28:20Z</time>
      </trkpt>
      <trkpt lat="43.53445" lon="3.9066">
        <ele>6.39</ele>
        <time>2016-05-22T11:28:21Z</time>
      </trkpt>
      <trkpt lat="43.53453" lon="3.90627">
        <ele>5.91</ele>
        <time>2016-05-22T11:28:22Z</time>
      </trkpt>
      <trkpt lat="43.53464" lon="3.90596">
        <ele>5.91</ele>
        <time>2016-05-22T11:28:23Z</time>
      </trkpt>
      <trkpt lat="43.5348" lon="3.90566">
        <ele>5.42</ele>
        <time>2016-05-22T11:28:24Z</time>
      </trkpt>
      <trkpt lat="43.53501" lon="3.90535">
        <ele>6.39</ele>
        <time>2016-05-22T11:28:25Z</time>
      </trkpt>
      <trkpt lat="43.53521" lon="3.90504">
        <ele>6.39</ele>
        <time>2016-05-22T11:28:26Z</time>
      </trkpt>
      <trkpt lat="43.5371" lon="3.90221">
        <ele>6.87</ele>
        <time>2016-05-22T11:28:36Z</time>
      </trkpt>
      <trkpt lat="43.53882" lon="3.89962">
        <ele>6.39</ele>
        <time>2016-05-22T11:28:46Z</time>
      </trkpt>
      <trkpt lat="43.53955" lon="3.89844">
        <ele>6.87</ele>
        <time>2016-05-22T11:28:52Z</time>
      </trkpt>
      <trkpt lat="43.53963" lon="3.89831">
        <ele>6.87</ele>
        <time>2016-05-22T11:28:53Z</time>
      </trkpt>
      <trkpt lat="43.53969" lon="3.89826">
        <ele>6.87</ele>
        <time>2016-05-22T11:28:54Z</time>
      </trkpt>
      <trkpt lat="43.53977" lon="3.89822">
        <ele>6.87</ele>
        <time>2016-05-22T11:28:55Z</time>
      </trkpt>
      <trkpt lat="43.53985" lon="3.89823">
        <ele>6.87</ele>
        <time>2016-05-22T11:28:56Z</time>
      </trkpt>
      <trkpt lat="43.53994" lon="3.89824">
        <ele>6.87</ele>
        <time>2016-05-22T11:28:57Z</time>
      </trkpt>
      <trkpt lat="43.54005" lon="3.89824">
        <ele>6.87</ele>
        <time>2016-05-22T11:28:58Z</time>
      </trkpt>
      <trkpt lat="43.54016" lon="3.89818">
        <ele>6.87</ele>
        <time>2016-05-22T11:28:59Z</time>
      </trkpt>
      <trkpt lat="43.54026" lon="3.89807">
        <ele>6.87</ele>
        <time>2016-05-22T11:29:00Z</time>
      </trkpt>
      <trkpt lat="43.54033" lon="3.89793">
        <ele>6.87</ele>
        <time>2016-05-22T11:29:01Z</time>
      </trkpt>
      <trkpt lat="43.54036" lon="3.89777">
        <ele>6.87</ele>
        <time>2016-05-22T11:29:02Z</time>
      </trkpt>
      <trkpt lat="43.54036" lon="3.8976">
        <ele>6.87</ele>
        <time>2016-05-22T11:29:03Z</time>
      </trkpt>
      <trkpt lat="43.54033" lon="3.89746">
        <ele>6.87</ele>
        <time>2016-05-22T11:29:04Z</time>
      </trkpt>
      <trkpt lat="43.54028" lon="3.89733">
        <ele>6.87</ele>
        <time>2016-05-22T11:29:05Z</time>
      </trkpt>
      <trkpt lat="43.54022" lon="3.89722">
        <ele>6.39</ele>
        <time>2016-05-22T11:29:06Z</time>
      </trkpt>
      <trkpt lat="43.54014" lon="3.89714">
        <ele>5.91</ele>
        <time>2016-05-22T11:29:07Z</time>
      </trkpt>
      <trkpt lat="43.54004" lon="3.89709">
        <ele>5.91</ele>
        <time>2016-05-22T11:29:08Z</time>
      </trkpt>
      <trkpt lat="43.53993" lon="3.89706">
        <ele>5.42</ele>
        <time>2016-05-22T11:29:09Z</time>
      </trkpt>
      <trkpt lat="43.53983" lon="3.89704">
        <ele>5.42</ele>
        <time>2016-05-22T11:29:10Z</time>
      </trkpt>
      <trkpt lat="43.53972" lon="3.89698">
        <ele>5.42</ele>
        <time>2016-05-22T11:29:11Z</time>
      </trkpt>
      <trkpt lat="43.53964" lon="3.89687">
        <ele>5.42</ele>
        <time>2016-05-22T11:29:12Z</time>
      </trkpt>
      <trkpt lat="43.53959" lon="3.89671">
        <ele>5.42</ele>
        <time>2016-05-22T11:29:13Z</time>
      </trkpt>
      <trkpt lat="43.53958" lon="3.89653">
        <ele>5.42</ele>
        <time>2016-05-22T11:29:14Z</time>
      </trkpt>
      <trkpt lat="43.53962" lon="3.89634">
        <ele>4.94</ele>
        <time>2016-05-22T11:29:15Z</time>
      </trkpt>
      <trkpt lat="43.53968" lon="3.89616">
        <ele>4.46</ele>
        <time>2016-05-22T11:29:16Z</time>
      </trkpt>
      <trkpt lat="43.53973" lon="3.89598">
        <ele>4.94</ele>
        <time>2016-05-22T11:29:17Z</time>
      </trkpt>
      <trkpt lat="43.53977" lon="3.89579">
        <ele>4.46</ele>
        <time>2016-05-22T11:29:18Z</time>
      </trkpt>
      <trkpt lat="43.5398" lon="3.8956">
        <ele>4.46</ele>
        <time>2016-05-22T11:29:19Z</time>
      </trkpt>
      <trkpt lat="43.53981" lon="3.89538">
        <ele>4.46</ele>
        <time>2016-05-22T11:29:20Z</time>
      </trkpt>
      <trkpt lat="43.53981" lon="3.89516">
        <ele>4.94</ele>
        <time>2016-05-22T11:29:21Z</time>
      </trkpt>
      <trkpt lat="43.5398" lon="3.89492">
        <ele>4.94</ele>
        <time>2016-05-22T11:29:22Z</time>
      </trkpt>
      <trkpt lat="43.53966" lon="3.89193">
        <ele>4.94</ele>
        <time>2016-05-22T11:29:33Z</time>
      </trkpt>
      <trkpt lat="43.53952" lon="3.88892">
        <ele>5.42</ele>
        <time>2016-05-22T11:29:44Z</time>
      </trkpt>
      <trkpt lat="43.53939" lon="3.88634">
        <ele>6.39</ele>
        <time>2016-05-22T11:29:55Z</time>
      </trkpt>
      <trkpt lat="43.53928" lon="3.88437">
        <ele>6.39</ele>
        <time>2016-05-22T11:30:01Z</time>
      </trkpt>
      <trkpt lat="43.5392" lon="3.8821">
        <ele>5.91</ele>
        <time>2016-05-22T11:30:07Z</time>
      </trkpt>
      <trkpt lat="43.53904" lon="3.87986">
        <ele>7.83</ele>
        <time>2016-05-22T11:30:14Z</time>
      </trkpt>
      <trkpt lat="43.53893" lon="3.87771">
        <ele>7.35</ele>
        <time>2016-05-22T11:30:21Z</time>
      </trkpt>
      <trkpt lat="43.5389" lon="3.87547">
        <ele>5.91</ele>
        <time>2016-05-22T11:30:27Z</time>
      </trkpt>
      <trkpt lat="43.53873" lon="3.87281">
        <ele>7.35</ele>
        <time>2016-05-22T11:30:35Z</time>
      </trkpt>
      <trkpt lat="43.53863" lon="3.87115">
        <ele>8.31</ele>
        <time>2016-05-22T11:30:42Z</time>
      </trkpt>
      <trkpt lat="43.53852" lon="3.87009">
        <ele>8.79</ele>
        <time>2016-05-22T11:30:49Z</time>
      </trkpt>
      <trkpt lat="43.53852" lon="3.86994">
        <ele>9.27</ele>
        <time>2016-05-22T11:30:51Z</time>
      </trkpt>
      <trkpt lat="43.53852" lon="3.86987">
        <ele>9.75</ele>
        <time>2016-05-22T11:30:52Z</time>
      </trkpt>
      <trkpt lat="43.53853" lon="3.86981">
        <ele>9.27</ele>
        <time>2016-05-22T11:30:53Z</time>
      </trkpt>
      <trkpt lat="43.53855" lon="3.86974">
        <ele>9.27</ele>
        <time>2016-05-22T11:30:54Z</time>
      </trkpt>
      <trkpt lat="43.53858" lon="3.86964">
        <ele>9.27</ele>
        <time>2016-05-22T11:30:55Z</time>
      </trkpt>
      <trkpt lat="43.53861" lon="3.86954">
        <ele>8.79</ele>
        <time>2016-05-22T11:30:56Z</time>
      </trkpt>
      <trkpt lat="43.53861" lon="3.86943">
        <ele>8.79</ele>
        <time>2016-05-22T11:30:57Z</time>
      </trkpt>
      <trkpt lat="43.53857" lon="3.86934">
        <ele>8.79</ele>
        <time>2016-05-22T11:30:58Z</time>
      </trkpt>
      <trkpt lat="43.53852" lon="3.86926">
        <ele>8.79</ele>
        <time>2016-05-22T11:30:59Z</time>
      </trkpt>
      <trkpt lat="43.53847" lon="3.86916">
        <ele>8.31</ele>
        <time>2016-05-22T11:31:00Z</time>
      </trkpt>
      <trkpt lat="43.53843" lon="3.86904">
        <ele>8.31</ele>
        <time>2016-05-22T11:31:01Z</time>
      </trkpt>
      <trkpt lat="43.53841" lon="3.86889">
        <ele>8.31</ele>
        <time>2016-05-22T11:31:02Z</time>
      </trkpt>
      <trkpt lat="43.53839" lon="3.86872">
        <ele>8.31</ele>
        <time>2016-05-22T11:31:03Z</time>
      </trkpt>
      <trkpt lat="43.53822" lon="3.8672">
        <ele>7.83</ele>
        <time>2016-05-22T11:31:10Z</time>
      </trkpt>
      <trkpt lat="43.53804" lon="3.86547">
        <ele>7.83</ele>
        <time>2016-05-22T11:31:18Z</time>
      </trkpt>
      <trkpt lat="43.53779" lon="3.86323">
        <ele>8.31</ele>
        <time>2016-05-22T11:31:27Z</time>
      </trkpt>
      <trkpt lat="43.53758" lon="3.86078">
        <ele>9.75</ele>
        <time>2016-05-22T11:31:37Z</time>
      </trkpt>
      <trkpt lat="43.53783" lon="3.85877">
        <ele>11.19</ele>
        <time>2016-05-22T11:31:46Z</time>
      </trkpt>
      <trkpt lat="43.53822" lon="3.85708">
        <ele>13.6</ele>
        <time>2016-05-22T11:31:56Z</time>
      </trkpt>
      <trkpt lat="43.5384" lon="3.85651">
        <ele>15.52</ele>
        <time>2016-05-22T11:32:03Z</time>
      </trkpt>
      <trkpt lat="43.53844" lon="3.85646">
        <ele>15.52</ele>
        <time>2016-05-22T11:32:04Z</time>
      </trkpt>
      <trkpt lat="43.53856" lon="3.85633">
        <ele>15.52</ele>
        <time>2016-05-22T11:32:06Z</time>
      </trkpt>
      <trkpt lat="43.53861" lon="3.85623">
        <ele>16</ele>
        <time>2016-05-22T11:32:07Z</time>
      </trkpt>
      <trkpt lat="43.53861" lon="3.8561">
        <ele>16</ele>
        <time>2016-05-22T11:32:08Z</time>
      </trkpt>
      <trkpt lat="43.53859" lon="3.85597">
        <ele>16.48</ele>
        <time>2016-05-22T11:32:09Z</time>
      </trkpt>
      <trkpt lat="43.53856" lon="3.85584">
        <ele>16.48</ele>
        <time>2016-05-22T11:32:10Z</time>
      </trkpt>
      <trkpt lat="43.53855" lon="3.85569">
        <ele>16.48</ele>
        <time>2016-05-22T11:32:11Z</time>
      </trkpt>
      <trkpt lat="43.53859" lon="3.85552">
        <ele>16.48</ele>
        <time>2016-05-22T11:32:12Z</time>
      </trkpt>
      <trkpt lat="43.53864" lon="3.85534">
        <ele>16.96</ele>
        <time>2016-05-22T11:32:13Z</time>
      </trkpt>
      <trkpt lat="43.5387" lon="3.85514">
        <ele>16.96</ele>
        <time>2016-05-22T11:32:14Z</time>
      </trkpt>
      <trkpt lat="43.5392" lon="3.85386">
        <ele>17.44</ele>
        <time>2016-05-22T11:32:20Z</time>
      </trkpt>
      <trkpt lat="43.53998" lon="3.85237">
        <ele>17.92</ele>
        <time>2016-05-22T11:32:27Z</time>
      </trkpt>
      <trkpt lat="43.54076" lon="3.85087">
        <ele>16.96</ele>
        <time>2016-05-22T11:32:33Z</time>
      </trkpt>
      <trkpt lat="43.54166" lon="3.84924">
        <ele>16.48</ele>
        <time>2016-05-22T11:32:39Z</time>
      </trkpt>
      <trkpt lat="43.543" lon="3.84639">
        <ele>18.4</ele>
        <time>2016-05-22T11:32:50Z</time>
      </trkpt>
      <trkpt lat="43.54381" lon="3.84346">
        <ele>18.88</ele>
        <time>2016-05-22T11:33:01Z</time>
      </trkpt>
      <trkpt lat="43.54374" lon="3.84165">
        <ele>15.52</ele>
        <time>2016-05-22T11:33:06Z</time>
      </trkpt>
      <trkpt lat="43.5436" lon="3.83849">
        <ele>11.19</ele>
        <time>2016-05-22T11:33:14Z</time>
      </trkpt>
      <trkpt lat="43.54374" lon="3.83615">
        <ele>12.15</ele>
        <time>2016-05-22T11:33:21Z</time>
      </trkpt>
      <trkpt lat="43.54454" lon="3.83182">
        <ele>16.96</ele>
        <time>2016-05-22T11:33:34Z</time>
      </trkpt>
      <trkpt lat="43.54487" lon="3.82884">
        <ele>25.61</ele>
        <time>2016-05-22T11:33:43Z</time>
      </trkpt>
      <trkpt lat="43.54485" lon="3.82628">
        <ele>38.59</ele>
        <time>2016-05-22T11:33:51Z</time>
      </trkpt>
      <trkpt lat="43.54509" lon="3.82366">
        <ele>50.13</ele>
        <time>2016-05-22T11:33:59Z</time>
      </trkpt>
      <trkpt lat="43.54562" lon="3.82032">
        <ele>43.88</ele>
        <time>2016-05-22T11:34:09Z</time>
      </trkpt>
      <trkpt lat="43.54625" lon="3.81816">
        <ele>43.88</ele>
        <time>2016-05-22T11:34:16Z</time>
      </trkpt>
      <trkpt lat="43.54647" lon="3.81732">
        <ele>45.8</ele>
        <time>2016-05-22T11:34:20Z</time>
      </trkpt>
      <trkpt lat="43.54656" lon="3.81715">
        <ele>45.8</ele>
        <time>2016-05-22T11:34:21Z</time>
      </trkpt>
      <trkpt lat="43.54667" lon="3.81698">
        <ele>46.28</ele>
        <time>2016-05-22T11:34:22Z</time>
      </trkpt>
      <trkpt lat="43.54691" lon="3.81662">
        <ele>47.24</ele>
        <time>2016-05-22T11:34:24Z</time>
      </trkpt>
      <trkpt lat="43.54701" lon="3.81641">
        <ele>48.2</ele>
        <time>2016-05-22T11:34:25Z</time>
      </trkpt>
      <trkpt lat="43.54752" lon="3.81512">
        <ele>49.16</ele>
        <time>2016-05-22T11:34:31Z</time>
      </trkpt>
      <trkpt lat="43.54757" lon="3.81484">
        <ele>48.68</ele>
        <time>2016-05-22T11:34:32Z</time>
      </trkpt>
      <trkpt lat="43.5476" lon="3.81453">
        <ele>48.2</ele>
        <time>2016-05-22T11:34:33Z</time>
      </trkpt>
      <trkpt lat="43.5479" lon="3.81153">
        <ele>48.68</ele>
        <time>2016-05-22T11:34:44Z</time>
      </trkpt>
      <trkpt lat="43.54791" lon="3.81128">
        <ele>48.2</ele>
        <time>2016-05-22T11:34:45Z</time>
      </trkpt>
      <trkpt lat="43.5479" lon="3.81102">
        <ele>48.2</ele>
        <time>2016-05-22T11:34:46Z</time>
      </trkpt>
      <trkpt lat="43.54788" lon="3.81047">
        <ele>46.76</ele>
        <time>2016-05-22T11:34:48Z</time>
      </trkpt>
      <trkpt lat="43.54791" lon="3.80928">
        <ele>43.4</ele>
        <time>2016-05-22T11:34:53Z</time>
      </trkpt>
      <trkpt lat="43.54785" lon="3.8091">
        <ele>42.92</ele>
        <time>2016-05-22T11:34:54Z</time>
      </trkpt>
      <trkpt lat="43.54776" lon="3.80892">
        <ele>42.44</ele>
        <time>2016-05-22T11:34:55Z</time>
      </trkpt>
      <trkpt lat="43.54769" lon="3.80875">
        <ele>41.47</ele>
        <time>2016-05-22T11:34:56Z</time>
      </trkpt>
      <trkpt lat="43.54763" lon="3.80857">
        <ele>41.47</ele>
        <time>2016-05-22T11:34:57Z</time>
      </trkpt>
      <trkpt lat="43.54764" lon="3.80837">
        <ele>40.99</ele>
        <time>2016-05-22T11:34:58Z</time>
      </trkpt>
      <trkpt lat="43.54768" lon="3.80817">
        <ele>40.51</ele>
        <time>2016-05-22T11:34:59Z</time>
      </trkpt>
      <trkpt lat="43.54778" lon="3.80794">
        <ele>41.47</ele>
        <time>2016-05-22T11:35:00Z</time>
      </trkpt>
      <trkpt lat="43.54788" lon="3.80772">
        <ele>42.44</ele>
        <time>2016-05-22T11:35:01Z</time>
      </trkpt>
      <trkpt lat="43.548" lon="3.80749">
        <ele>43.4</ele>
        <time>2016-05-22T11:35:02Z</time>
      </trkpt>
      <trkpt lat="43.54873" lon="3.8059">
        <ele>50.61</ele>
        <time>2016-05-22T11:35:09Z</time>
      </trkpt>
      <trkpt lat="43.54949" lon="3.80419">
        <ele>46.28</ele>
        <time>2016-05-22T11:35:18Z</time>
      </trkpt>
      <trkpt lat="43.55052" lon="3.80229">
        <ele>39.07</ele>
        <time>2016-05-22T11:35:29Z</time>
      </trkpt>
      <trkpt lat="43.5513" lon="3.80114">
        <ele>34.74</ele>
        <time>2016-05-22T11:35:34Z</time>
      </trkpt>
      <trkpt lat="43.5519" lon="3.80026">
        <ele>35.23</ele>
        <time>2016-05-22T11:35:39Z</time>
      </trkpt>
      <trkpt lat="43.55205" lon="3.80012">
        <ele>35.23</ele>
        <time>2016-05-22T11:35:40Z</time>
      </trkpt>
      <trkpt lat="43.55224" lon="3.79999">
        <ele>35.71</ele>
        <time>2016-05-22T11:35:41Z</time>
      </trkpt>
      <trkpt lat="43.55244" lon="3.79988">
        <ele>35.23</ele>
        <time>2016-05-22T11:35:42Z</time>
      </trkpt>
      <trkpt lat="43.55265" lon="3.7998">
        <ele>34.74</ele>
        <time>2016-05-22T11:35:43Z</time>
      </trkpt>
      <trkpt lat="43.55287" lon="3.79977">
        <ele>34.74</ele>
        <time>2016-05-22T11:35:44Z</time>
      </trkpt>
      <trkpt lat="43.55311" lon="3.7998">
        <ele>33.78</ele>
        <time>2016-05-22T11:35:45Z</time>
      </trkpt>
      <trkpt lat="43.55335" lon="3.79984">
        <ele>32.34</ele>
        <time>2016-05-22T11:35:46Z</time>
      </trkpt>
      <trkpt lat="43.55359" lon="3.79989">
        <ele>30.42</ele>
        <time>2016-05-22T11:35:47Z</time>
      </trkpt>
      <trkpt lat="43.55382" lon="3.79995">
        <ele>28.98</ele>
        <time>2016-05-22T11:35:48Z</time>
      </trkpt>
      <trkpt lat="43.55474" lon="3.80012">
        <ele>23.69</ele>
        <time>2016-05-22T11:35:52Z</time>
      </trkpt>
      <trkpt lat="43.55499" lon="3.80006">
        <ele>22.25</ele>
        <time>2016-05-22T11:35:53Z</time>
      </trkpt>
      <trkpt lat="43.55523" lon="3.79995">
        <ele>20.32</ele>
        <time>2016-05-22T11:35:54Z</time>
      </trkpt>
      <trkpt lat="43.55546" lon="3.79981">
        <ele>19.36</ele>
        <time>2016-05-22T11:35:55Z</time>
      </trkpt>
      <trkpt lat="43.55568" lon="3.79966">
        <ele>18.88</ele>
        <time>2016-05-22T11:35:56Z</time>
      </trkpt>
      <trkpt lat="43.55727" lon="3.79873">
        <ele>20.32</ele>
        <time>2016-05-22T11:36:04Z</time>
      </trkpt>
      <trkpt lat="43.55746" lon="3.79876">
        <ele>20.81</ele>
        <time>2016-05-22T11:36:05Z</time>
      </trkpt>
      <trkpt lat="43.55764" lon="3.79878">
        <ele>21.77</ele>
        <time>2016-05-22T11:36:06Z</time>
      </trkpt>
      <trkpt lat="43.55791" lon="3.79882">
        <ele>23.69</ele>
        <time>2016-05-22T11:36:08Z</time>
      </trkpt>
      <trkpt lat="43.55812" lon="3.79882">
        <ele>24.65</ele>
        <time>2016-05-22T11:36:10Z</time>
      </trkpt>
      <trkpt lat="43.55823" lon="3.79882">
        <ele>25.13</ele>
        <time>2016-05-22T11:36:11Z</time>
      </trkpt>
      <trkpt lat="43.55834" lon="3.79877">
        <ele>25.61</ele>
        <time>2016-05-22T11:36:12Z</time>
      </trkpt>
      <trkpt lat="43.55844" lon="3.79867">
        <ele>26.09</ele>
        <time>2016-05-22T11:36:13Z</time>
      </trkpt>
      <trkpt lat="43.55854" lon="3.79856">
        <ele>26.57</ele>
        <time>2016-05-22T11:36:14Z</time>
      </trkpt>
      <trkpt lat="43.55863" lon="3.79846">
        <ele>27.05</ele>
        <time>2016-05-22T11:36:15Z</time>
      </trkpt>
      <trkpt lat="43.55892" lon="3.79817">
        <ele>29.94</ele>
        <time>2016-05-22T11:36:18Z</time>
      </trkpt>
      <trkpt lat="43.55904" lon="3.79814">
        <ele>30.9</ele>
        <time>2016-05-22T11:36:19Z</time>
      </trkpt>
      <trkpt lat="43.55917" lon="3.79813">
        <ele>30.9</ele>
        <time>2016-05-22T11:36:20Z</time>
      </trkpt>
      <trkpt lat="43.55929" lon="3.7981">
        <ele>31.38</ele>
        <time>2016-05-22T11:36:21Z</time>
      </trkpt>
      <trkpt lat="43.5594" lon="3.79802">
        <ele>31.38</ele>
        <time>2016-05-22T11:36:22Z</time>
      </trkpt>
      <trkpt lat="43.5595" lon="3.79788">
        <ele>32.34</ele>
        <time>2016-05-22T11:36:23Z</time>
      </trkpt>
      <trkpt lat="43.5596" lon="3.79773">
        <ele>32.82</ele>
        <time>2016-05-22T11:36:24Z</time>
      </trkpt>
      <trkpt lat="43.5597" lon="3.79755">
        <ele>32.82</ele>
        <time>2016-05-22T11:36:25Z</time>
      </trkpt>
      <trkpt lat="43.56012" lon="3.79689">
        <ele>31.86</ele>
        <time>2016-05-22T11:36:30Z</time>
      </trkpt>
      <trkpt lat="43.5602" lon="3.79682">
        <ele>31.38</ele>
        <time>2016-05-22T11:36:31Z</time>
      </trkpt>
      <trkpt lat="43.56029" lon="3.79678">
        <ele>31.38</ele>
        <time>2016-05-22T11:36:32Z</time>
      </trkpt>
      <trkpt lat="43.5605" lon="3.79669">
        <ele>30.9</ele>
        <time>2016-05-22T11:36:34Z</time>
      </trkpt>
      <trkpt lat="43.56059" lon="3.79658">
        <ele>30.42</ele>
        <time>2016-05-22T11:36:35Z</time>
      </trkpt>
      <trkpt lat="43.56063" lon="3.79644">
        <ele>29.94</ele>
        <time>2016-05-22T11:36:36Z</time>
      </trkpt>
      <trkpt lat="43.56065" lon="3.79625">
        <ele>29.46</ele>
        <time>2016-05-22T11:36:37Z</time>
      </trkpt>
      <trkpt lat="43.56068" lon="3.79606">
        <ele>28.98</ele>
        <time>2016-05-22T11:36:38Z</time>
      </trkpt>
      <trkpt lat="43.56076" lon="3.79584">
        <ele>28.5</ele>
        <time>2016-05-22T11:36:39Z</time>
      </trkpt>
      <trkpt lat="43.56089" lon="3.79562">
        <ele>27.53</ele>
        <time>2016-05-22T11:36:40Z</time>
      </trkpt>
      <trkpt lat="43.56106" lon="3.79539">
        <ele>27.05</ele>
        <time>2016-05-22T11:36:41Z</time>
      </trkpt>
      <trkpt lat="43.56123" lon="3.79514">
        <ele>26.57</ele>
        <time>2016-05-22T11:36:42Z</time>
      </trkpt>
      <trkpt lat="43.56268" lon="3.79297">
        <ele>23.21</ele>
        <time>2016-05-22T11:36:51Z</time>
      </trkpt>
      <trkpt lat="43.56451" lon="3.79003">
        <ele>24.17</ele>
        <time>2016-05-22T11:37:04Z</time>
      </trkpt>
      <trkpt lat="43.56593" lon="3.78843">
        <ele>24.17</ele>
        <time>2016-05-22T11:37:12Z</time>
      </trkpt>
      <trkpt lat="43.56742" lon="3.78648">
        <ele>23.69</ele>
        <time>2016-05-22T11:37:21Z</time>
      </trkpt>
      <trkpt lat="43.56838" lon="3.78484">
        <ele>24.17</ele>
        <time>2016-05-22T11:37:29Z</time>
      </trkpt>
      <trkpt lat="43.56862" lon="3.78443">
        <ele>24.17</ele>
        <time>2016-05-22T11:37:33Z</time>
      </trkpt>
      <trkpt lat="43.56866" lon="3.78439">
        <ele>24.17</ele>
        <time>2016-05-22T11:37:34Z</time>
      </trkpt>
      <trkpt lat="43.56873" lon="3.78433">
        <ele>24.65</ele>
        <time>2016-05-22T11:37:43Z</time>
      </trkpt>
      <trkpt lat="43.56881" lon="3.78423">
        <ele>24.65</ele>
        <time>2016-05-22T11:38:12Z</time>
      </trkpt>
      <trkpt lat="43.5688" lon="3.78415">
        <ele>24.65</ele>
        <time>2016-05-22T11:38:13Z</time>
      </trkpt>
      <trkpt lat="43.56878" lon="3.78402">
        <ele>24.65</ele>
        <time>2016-05-22T11:38:14Z</time>
      </trkpt>
      <trkpt lat="43.56873" lon="3.78366">
        <ele>24.65</ele>
        <time>2016-05-22T11:38:16Z</time>
      </trkpt>
      <trkpt lat="43.56875" lon="3.78343">
        <ele>24.17</ele>
        <time>2016-05-22T11:38:17Z</time>
      </trkpt>
      <trkpt lat="43.56879" lon="3.78316">
        <ele>23.69</ele>
        <time>2016-05-22T11:38:18Z</time>
      </trkpt>
      <trkpt lat="43.5689" lon="3.78285">
        <ele>24.17</ele>
        <time>2016-05-22T11:38:19Z</time>
      </trkpt>
      <trkpt lat="43.569" lon="3.78254">
        <ele>24.65</ele>
        <time>2016-05-22T11:38:20Z</time>
      </trkpt>
      <trkpt lat="43.56963" lon="3.78017">
        <ele>26.09</ele>
        <time>2016-05-22T11:38:27Z</time>
      </trkpt>
      <trkpt lat="43.57003" lon="3.77883">
        <ele>26.57</ele>
        <time>2016-05-22T11:38:33Z</time>
      </trkpt>
      <trkpt lat="43.57034" lon="3.77778">
        <ele>27.53</ele>
        <time>2016-05-22T11:38:41Z</time>
      </trkpt>
      <trkpt lat="43.57061" lon="3.7765">
        <ele>28.5</ele>
        <time>2016-05-22T11:38:49Z</time>
      </trkpt>
      <trkpt lat="43.57067" lon="3.77636">
        <ele>28.98</ele>
        <time>2016-05-22T11:38:50Z</time>
      </trkpt>
      <trkpt lat="43.57073" lon="3.77623">
        <ele>29.46</ele>
        <time>2016-05-22T11:38:51Z</time>
      </trkpt>
      <trkpt lat="43.57079" lon="3.77612">
        <ele>29.94</ele>
        <time>2016-05-22T11:38:52Z</time>
      </trkpt>
      <trkpt lat="43.57086" lon="3.77601">
        <ele>30.42</ele>
        <time>2016-05-22T11:38:53Z</time>
      </trkpt>
      <trkpt lat="43.57141" lon="3.77505">
        <ele>36.19</ele>
        <time>2016-05-22T11:39:02Z</time>
      </trkpt>
      <trkpt lat="43.57155" lon="3.77485">
        <ele>38.59</ele>
        <time>2016-05-22T11:39:04Z</time>
      </trkpt>
      <trkpt lat="43.57158" lon="3.77479">
        <ele>39.07</ele>
        <time>2016-05-22T11:39:05Z</time>
      </trkpt>
      <trkpt lat="43.57159" lon="3.77476">
        <ele>39.55</ele>
        <time>2016-05-22T11:39:06Z</time>
      </trkpt>
      <trkpt lat="43.57164" lon="3.77467">
        <ele>41.95</ele>
        <time>2016-05-22T11:39:13Z</time>
      </trkpt>
      <trkpt lat="43.57175" lon="3.77463">
        <ele>41.47</ele>
        <time>2016-05-22T11:39:16Z</time>
      </trkpt>
      <trkpt lat="43.57184" lon="3.77464">
        <ele>40.99</ele>
        <time>2016-05-22T11:39:17Z</time>
      </trkpt>
      <trkpt lat="43.57213" lon="3.77465">
        <ele>40.51</ele>
        <time>2016-05-22T11:39:20Z</time>
      </trkpt>
      <trkpt lat="43.5722" lon="3.7746">
        <ele>40.99</ele>
        <time>2016-05-22T11:39:21Z</time>
      </trkpt>
      <trkpt lat="43.57225" lon="3.77452">
        <ele>41.95</ele>
        <time>2016-05-22T11:39:22Z</time>
      </trkpt>
      <trkpt lat="43.57241" lon="3.77431">
        <ele>42.92</ele>
        <time>2016-05-22T11:39:25Z</time>
      </trkpt>
      <trkpt lat="43.57245" lon="3.77424">
        <ele>43.4</ele>
        <time>2016-05-22T11:39:26Z</time>
      </trkpt>
      <trkpt lat="43.57247" lon="3.77412">
        <ele>43.88</ele>
        <time>2016-05-22T11:39:27Z</time>
      </trkpt>
      <trkpt lat="43.57246" lon="3.774">
        <ele>43.4</ele>
        <time>2016-05-22T11:39:28Z</time>
      </trkpt>
      <trkpt lat="43.57246" lon="3.77388">
        <ele>43.88</ele>
        <time>2016-05-22T11:39:29Z</time>
      </trkpt>
      <trkpt lat="43.57245" lon="3.77377">
        <ele>44.84</ele>
        <time>2016-05-22T11:39:30Z</time>
      </trkpt>
      <trkpt lat="43.57243" lon="3.77349">
        <ele>50.61</ele>
        <time>2016-05-22T11:39:35Z</time>
      </trkpt>
      <trkpt lat="43.57245" lon="3.7734">
        <ele>50.13</ele>
        <time>2016-05-22T11:39:36Z</time>
      </trkpt>
      <trkpt lat="43.57252" lon="3.77284">
        <ele>49.16</ele>
        <time>2016-05-22T11:39:45Z</time>
      </trkpt>
      <trkpt lat="43.57253" lon="3.77279">
        <ele>48.2</ele>
        <time>2016-05-22T11:39:47Z</time>
      </trkpt>
      <trkpt lat="43.57255" lon="3.77273">
        <ele>47.24</ele>
        <time>2016-05-22T11:39:48Z</time>
      </trkpt>
      <trkpt lat="43.57259" lon="3.77266">
        <ele>46.76</ele>
        <time>2016-05-22T11:39:49Z</time>
      </trkpt>
      <trkpt lat="43.57276" lon="3.7724">
        <ele>44.84</ele>
        <time>2016-05-22T11:39:52Z</time>
      </trkpt>
      <trkpt lat="43.57284" lon="3.77228">
        <ele>44.36</ele>
        <time>2016-05-22T11:39:53Z</time>
      </trkpt>
      <trkpt lat="43.57295" lon="3.77216">
        <ele>43.88</ele>
        <time>2016-05-22T11:39:54Z</time>
      </trkpt>
      <trkpt lat="43.57308" lon="3.77202">
        <ele>42.92</ele>
        <time>2016-05-22T11:39:55Z</time>
      </trkpt>
      <trkpt lat="43.57325" lon="3.7719">
        <ele>42.92</ele>
        <time>2016-05-22T11:39:56Z</time>
      </trkpt>
      <trkpt lat="43.57345" lon="3.77181">
        <ele>42.44</ele>
        <time>2016-05-22T11:39:57Z</time>
      </trkpt>
      <trkpt lat="43.57367" lon="3.77173">
        <ele>41.47</ele>
        <time>2016-05-22T11:39:58Z</time>
      </trkpt>
      <trkpt lat="43.57395" lon="3.7717">
        <ele>39.55</ele>
        <time>2016-05-22T11:39:59Z</time>
      </trkpt>
      <trkpt lat="43.57557" lon="3.77108">
        <ele>34.74</ele>
        <time>2016-05-22T11:40:05Z</time>
      </trkpt>
      <trkpt lat="43.577" lon="3.77001">
        <ele>35.23</ele>
        <time>2016-05-22T11:40:11Z</time>
      </trkpt>
      <trkpt lat="43.57817" lon="3.76848">
        <ele>37.63</ele>
        <time>2016-05-22T11:40:18Z</time>
      </trkpt>
      <trkpt lat="43.57855" lon="3.76804">
        <ele>38.59</ele>
        <time>2016-05-22T11:40:21Z</time>
      </trkpt>
      <trkpt lat="43.57867" lon="3.76798">
        <ele>39.55</ele>
        <time>2016-05-22T11:40:22Z</time>
      </trkpt>
      <trkpt lat="43.57881" lon="3.768">
        <ele>40.51</ele>
        <time>2016-05-22T11:40:23Z</time>
      </trkpt>
      <trkpt lat="43.57895" lon="3.76803">
        <ele>40.99</ele>
        <time>2016-05-22T11:40:24Z</time>
      </trkpt>
      <trkpt lat="43.57909" lon="3.76807">
        <ele>40.99</ele>
        <time>2016-05-22T11:40:25Z</time>
      </trkpt>
      <trkpt lat="43.57944" lon="3.76813">
        <ele>40.03</ele>
        <time>2016-05-22T11:40:28Z</time>
      </trkpt>
      <trkpt lat="43.57953" lon="3.76821">
        <ele>40.03</ele>
        <time>2016-05-22T11:40:29Z</time>
      </trkpt>
      <trkpt lat="43.57962" lon="3.7683">
        <ele>40.03</ele>
        <time>2016-05-22T11:40:30Z</time>
      </trkpt>
      <trkpt lat="43.57972" lon="3.76837">
        <ele>40.03</ele>
        <time>2016-05-22T11:40:31Z</time>
      </trkpt>
      <trkpt lat="43.57984" lon="3.76838">
        <ele>40.03</ele>
        <time>2016-05-22T11:40:32Z</time>
      </trkpt>
      <trkpt lat="43.57995" lon="3.76832">
        <ele>40.03</ele>
        <time>2016-05-22T11:40:33Z</time>
      </trkpt>
      <trkpt lat="43.58004" lon="3.7682">
        <ele>39.55</ele>
        <time>2016-05-22T11:40:34Z</time>
      </trkpt>
      <trkpt lat="43.58009" lon="3.76805">
        <ele>39.55</ele>
        <time>2016-05-22T11:40:35Z</time>
      </trkpt>
      <trkpt lat="43.58013" lon="3.76789">
        <ele>39.55</ele>
        <time>2016-05-22T11:40:36Z</time>
      </trkpt>
      <trkpt lat="43.58017" lon="3.76772">
        <ele>39.07</ele>
        <time>2016-05-22T11:40:37Z</time>
      </trkpt>
      <trkpt lat="43.58022" lon="3.76757">
        <ele>39.07</ele>
        <time>2016-05-22T11:40:38Z</time>
      </trkpt>
      <trkpt lat="43.58027" lon="3.76744">
        <ele>38.59</ele>
        <time>2016-05-22T11:40:39Z</time>
      </trkpt>
      <trkpt lat="43.58032" lon="3.76733">
        <ele>38.11</ele>
        <time>2016-05-22T11:40:40Z</time>
      </trkpt>
      <trkpt lat="43.58037" lon="3.76723">
        <ele>38.11</ele>
        <time>2016-05-22T11:40:41Z</time>
      </trkpt>
      <trkpt lat="43.58069" lon="3.7665">
        <ele>39.55</ele>
        <time>2016-05-22T11:40:50Z</time>
      </trkpt>
      <trkpt lat="43.58136" lon="3.76524">
        <ele>40.51</ele>
        <time>2016-05-22T11:41:04Z</time>
      </trkpt>
      <trkpt lat="43.58183" lon="3.76438">
        <ele>42.44</ele>
        <time>2016-05-22T11:41:14Z</time>
      </trkpt>
      <trkpt lat="43.58211" lon="3.76393">
        <ele>42.92</ele>
        <time>2016-05-22T11:41:20Z</time>
      </trkpt>
      <trkpt lat="43.5822" lon="3.76381">
        <ele>43.4</ele>
        <time>2016-05-22T11:41:22Z</time>
      </trkpt>
      <trkpt lat="43.58225" lon="3.76375">
        <ele>43.4</ele>
        <time>2016-05-22T11:41:23Z</time>
      </trkpt>
      <trkpt lat="43.58228" lon="3.7637">
        <ele>43.4</ele>
        <time>2016-05-22T11:41:24Z</time>
      </trkpt>
      <trkpt lat="43.58231" lon="3.76366">
        <ele>43.88</ele>
        <time>2016-05-22T11:41:25Z</time>
      </trkpt>
      <trkpt lat="43.58235" lon="3.76363">
        <ele>44.84</ele>
        <time>2016-05-22T11:41:26Z</time>
      </trkpt>
      <trkpt lat="43.58241" lon="3.76365">
        <ele>45.8</ele>
        <time>2016-05-22T11:41:27Z</time>
      </trkpt>
      <trkpt lat="43.58245" lon="3.76367">
        <ele>47.24</ele>
        <time>2016-05-22T11:41:28Z</time>
      </trkpt>
      <trkpt lat="43.58249" lon="3.76372">
        <ele>48.68</ele>
        <time>2016-05-22T11:41:29Z</time>
      </trkpt>
      <trkpt lat="43.58251" lon="3.76373">
        <ele>49.65</ele>
        <time>2016-05-22T11:41:30Z</time>
      </trkpt>
      <trkpt lat="43.58257" lon="3.76367">
        <ele>49.16</ele>
        <time>2016-05-22T11:41:31Z</time>
      </trkpt>
      <trkpt lat="43.58265" lon="3.76361">
        <ele>49.16</ele>
        <time>2016-05-22T11:41:32Z</time>
      </trkpt>
      <trkpt lat="43.58272" lon="3.76354">
        <ele>49.16</ele>
        <time>2016-05-22T11:41:33Z</time>
      </trkpt>
      <trkpt lat="43.58323" lon="3.76276">
        <ele>49.65</ele>
        <time>2016-05-22T11:41:41Z</time>
      </trkpt>
      <trkpt lat="43.58328" lon="3.76265">
        <ele>50.13</ele>
        <time>2016-05-22T11:41:42Z</time>
      </trkpt>
      <trkpt lat="43.58331" lon="3.76252">
        <ele>50.13</ele>
        <time>2016-05-22T11:41:43Z</time>
      </trkpt>
      <trkpt lat="43.58354" lon="3.76187">
        <ele>52.05</ele>
        <time>2016-05-22T11:41:50Z</time>
      </trkpt>
      <trkpt lat="43.58357" lon="3.76167">
        <ele>53.49</ele>
        <time>2016-05-22T11:41:52Z</time>
      </trkpt>
      <trkpt lat="43.58354" lon="3.76161">
        <ele>53.97</ele>
        <time>2016-05-22T11:41:53Z</time>
      </trkpt>
      <trkpt lat="43.58351" lon="3.76153">
        <ele>53.97</ele>
        <time>2016-05-22T11:41:54Z</time>
      </trkpt>
      <trkpt lat="43.58345" lon="3.76148">
        <ele>53.97</ele>
        <time>2016-05-22T11:41:55Z</time>
      </trkpt>
      <trkpt lat="43.5834" lon="3.76145">
        <ele>54.45</ele>
        <time>2016-05-22T11:41:56Z</time>
      </trkpt>
      <trkpt lat="43.58335" lon="3.76142">
        <ele>54.93</ele>
        <time>2016-05-22T11:41:57Z</time>
      </trkpt>
      <trkpt lat="43.58335" lon="3.76135">
        <ele>54.45</ele>
        <time>2016-05-22T11:41:58Z</time>
      </trkpt>
      <trkpt lat="43.58337" lon="3.76126">
        <ele>54.45</ele>
        <time>2016-05-22T11:41:59Z</time>
      </trkpt>
      <trkpt lat="43.5834" lon="3.76116">
        <ele>53.49</ele>
        <time>2016-05-22T11:42:00Z</time>
      </trkpt>
      <trkpt lat="43.58343" lon="3.76104">
        <ele>53.97</ele>
        <time>2016-05-22T11:42:01Z</time>
      </trkpt>
      <trkpt lat="43.58384" lon="3.75981">
        <ele>54.45</ele>
        <time>2016-05-22T11:42:12Z</time>
      </trkpt>
      <trkpt lat="43.58429" lon="3.75866">
        <ele>55.41</ele>
        <time>2016-05-22T11:42:22Z</time>
      </trkpt>
      <trkpt lat="43.58461" lon="3.75788">
        <ele>58.3</ele>
        <time>2016-05-22T11:42:31Z</time>
      </trkpt>
      <trkpt lat="43.58465" lon="3.75783">
        <ele>58.3</ele>
        <time>2016-05-22T11:42:32Z</time>
      </trkpt>
      <trkpt lat="43.58469" lon="3.75777">
        <ele>58.78</ele>
        <time>2016-05-22T11:42:33Z</time>
      </trkpt>
      <trkpt lat="43.58473" lon="3.75768">
        <ele>58.78</ele>
        <time>2016-05-22T11:42:34Z</time>
      </trkpt>
      <trkpt lat="43.58477" lon="3.75758">
        <ele>58.78</ele>
        <time>2016-05-22T11:42:35Z</time>
      </trkpt>
      <trkpt lat="43.5848" lon="3.75746">
        <ele>59.26</ele>
        <time>2016-05-22T11:42:36Z</time>
      </trkpt>
      <trkpt lat="43.5851" lon="3.75637">
        <ele>63.1</ele>
        <time>2016-05-22T11:42:44Z</time>
      </trkpt>
      <trkpt lat="43.58516" lon="3.75625">
        <ele>63.58</ele>
        <time>2016-05-22T11:42:45Z</time>
      </trkpt>
      <trkpt lat="43.58525" lon="3.75613">
        <ele>64.55</ele>
        <time>2016-05-22T11:42:46Z</time>
      </trkpt>
      <trkpt lat="43.58535" lon="3.75602">
        <ele>65.03</ele>
        <time>2016-05-22T11:42:47Z</time>
      </trkpt>
      <trkpt lat="43.58547" lon="3.75592">
        <ele>65.99</ele>
        <time>2016-05-22T11:42:48Z</time>
      </trkpt>
      <trkpt lat="43.58561" lon="3.75582">
        <ele>66.47</ele>
        <time>2016-05-22T11:42:49Z</time>
      </trkpt>
      <trkpt lat="43.58637" lon="3.75534">
        <ele>71.76</ele>
        <time>2016-05-22T11:42:54Z</time>
      </trkpt>
      <trkpt lat="43.58654" lon="3.75516">
        <ele>72.72</ele>
        <time>2016-05-22T11:42:55Z</time>
      </trkpt>
      <trkpt lat="43.58669" lon="3.75496">
        <ele>73.68</ele>
        <time>2016-05-22T11:42:56Z</time>
      </trkpt>
      <trkpt lat="43.58683" lon="3.75473">
        <ele>74.64</ele>
        <time>2016-05-22T11:42:57Z</time>
      </trkpt>
      <trkpt lat="43.58694" lon="3.75447">
        <ele>75.6</ele>
        <time>2016-05-22T11:42:58Z</time>
      </trkpt>
      <trkpt lat="43.58701" lon="3.75419">
        <ele>77.04</ele>
        <time>2016-05-22T11:42:59Z</time>
      </trkpt>
      <trkpt lat="43.58705" lon="3.75392">
        <ele>77.52</ele>
        <time>2016-05-22T11:43:00Z</time>
      </trkpt>
      <trkpt lat="43.58707" lon="3.75366">
        <ele>78.97</ele>
        <time>2016-05-22T11:43:01Z</time>
      </trkpt>
      <trkpt lat="43.58709" lon="3.75344">
        <ele>79.93</ele>
        <time>2016-05-22T11:43:02Z</time>
      </trkpt>
      <trkpt lat="43.58714" lon="3.75324">
        <ele>80.41</ele>
        <time>2016-05-22T11:43:03Z</time>
      </trkpt>
      <trkpt lat="43.58721" lon="3.75307">
        <ele>80.89</ele>
        <time>2016-05-22T11:43:04Z</time>
      </trkpt>
      <trkpt lat="43.58736" lon="3.75295">
        <ele>81.85</ele>
        <time>2016-05-22T11:43:05Z</time>
      </trkpt>
      <trkpt lat="43.58751" lon="3.75281">
        <ele>83.29</ele>
        <time>2016-05-22T11:43:06Z</time>
      </trkpt>
      <trkpt lat="43.58769" lon="3.75271">
        <ele>84.73</ele>
        <time>2016-05-22T11:43:07Z</time>
      </trkpt>
      <trkpt lat="43.58786" lon="3.75264">
        <ele>86.18</ele>
        <time>2016-05-22T11:43:08Z</time>
      </trkpt>
      <trkpt lat="43.58802" lon="3.75259">
        <ele>87.14</ele>
        <time>2016-05-22T11:43:09Z</time>
      </trkpt>
      <trkpt lat="43.58834" lon="3.75255">
        <ele>89.54</ele>
        <time>2016-05-22T11:43:11Z</time>
      </trkpt>
      <trkpt lat="43.58852" lon="3.75265">
        <ele>89.54</ele>
        <time>2016-05-22T11:43:12Z</time>
      </trkpt>
      <trkpt lat="43.58866" lon="3.75281">
        <ele>90.5</ele>
        <time>2016-05-22T11:43:13Z</time>
      </trkpt>
      <trkpt lat="43.58881" lon="3.75298">
        <ele>91.46</ele>
        <time>2016-05-22T11:43:14Z</time>
      </trkpt>
      <trkpt lat="43.58894" lon="3.75315">
        <ele>91.94</ele>
        <time>2016-05-22T11:43:15Z</time>
      </trkpt>
      <trkpt lat="43.58906" lon="3.7533">
        <ele>92.9</ele>
        <time>2016-05-22T11:43:16Z</time>
      </trkpt>
      <trkpt lat="43.58928" lon="3.75355">
        <ele>93.87</ele>
        <time>2016-05-22T11:43:18Z</time>
      </trkpt>
      <trkpt lat="43.5894" lon="3.75359">
        <ele>94.35</ele>
        <time>2016-05-22T11:43:19Z</time>
      </trkpt>
      <trkpt lat="43.58952" lon="3.75355">
        <ele>94.35</ele>
        <time>2016-05-22T11:43:20Z</time>
      </trkpt>
      <trkpt lat="43.58964" lon="3.75343">
        <ele>94.83</ele>
        <time>2016-05-22T11:43:21Z</time>
      </trkpt>
      <trkpt lat="43.58976" lon="3.75324">
        <ele>95.79</ele>
        <time>2016-05-22T11:43:22Z</time>
      </trkpt>
      <trkpt lat="43.58989" lon="3.75305">
        <ele>96.75</ele>
        <time>2016-05-22T11:43:23Z</time>
      </trkpt>
      <trkpt lat="43.59085" lon="3.75178">
        <ele>98.67</ele>
        <time>2016-05-22T11:43:30Z</time>
      </trkpt>
      <trkpt lat="43.59126" lon="3.75137">
        <ele>98.19</ele>
        <time>2016-05-22T11:43:33Z</time>
      </trkpt>
      <trkpt lat="43.59144" lon="3.75126">
        <ele>98.19</ele>
        <time>2016-05-22T11:43:34Z</time>
      </trkpt>
      <trkpt lat="43.59292" lon="3.75046">
        <ele>99.15</ele>
        <time>2016-05-22T11:43:43Z</time>
      </trkpt>
      <trkpt lat="43.59308" lon="3.75031">
        <ele>99.63</ele>
        <time>2016-05-22T11:43:44Z</time>
      </trkpt>
      <trkpt lat="43.59324" lon="3.75014">
        <ele>100.6</ele>
        <time>2016-05-22T11:43:45Z</time>
      </trkpt>
      <trkpt lat="43.59449" lon="3.7486">
        <ele>104.44</ele>
        <time>2016-05-22T11:43:54Z</time>
      </trkpt>
      <trkpt lat="43.59579" lon="3.74703">
        <ele>110.69</ele>
        <time>2016-05-22T11:44:04Z</time>
      </trkpt>
      <trkpt lat="43.59605" lon="3.74668">
        <ele>112.61</ele>
        <time>2016-05-22T11:44:06Z</time>
      </trkpt>
      <trkpt lat="43.59616" lon="3.74649">
        <ele>113.57</ele>
        <time>2016-05-22T11:44:07Z</time>
      </trkpt>
      <trkpt lat="43.59626" lon="3.74628">
        <ele>114.05</ele>
        <time>2016-05-22T11:44:08Z</time>
      </trkpt>
      <trkpt lat="43.59647" lon="3.74586">
        <ele>115.5</ele>
        <time>2016-05-22T11:44:10Z</time>
      </trkpt>
      <trkpt lat="43.59662" lon="3.74564">
        <ele>115.5</ele>
        <time>2016-05-22T11:44:11Z</time>
      </trkpt>
      <trkpt lat="43.59679" lon="3.74546">
        <ele>115.5</ele>
        <time>2016-05-22T11:44:12Z</time>
      </trkpt>
      <trkpt lat="43.59805" lon="3.74423">
        <ele>117.9</ele>
        <time>2016-05-22T11:44:20Z</time>
      </trkpt>
      <trkpt lat="43.59882" lon="3.74348">
        <ele>121.26</ele>
        <time>2016-05-22T11:44:26Z</time>
      </trkpt>
      <trkpt lat="43.59893" lon="3.74329">
        <ele>121.74</ele>
        <time>2016-05-22T11:44:27Z</time>
      </trkpt>
      <trkpt lat="43.59983" lon="3.74155">
        <ele>125.59</ele>
        <time>2016-05-22T11:44:36Z</time>
      </trkpt>
      <trkpt lat="43.60023" lon="3.74031">
        <ele>124.63</ele>
        <time>2016-05-22T11:44:42Z</time>
      </trkpt>
      <trkpt lat="43.60034" lon="3.74002">
        <ele>124.15</ele>
        <time>2016-05-22T11:44:44Z</time>
      </trkpt>
      <trkpt lat="43.60041" lon="3.7399">
        <ele>123.19</ele>
        <time>2016-05-22T11:44:45Z</time>
      </trkpt>
      <trkpt lat="43.60049" lon="3.7398">
        <ele>122.71</ele>
        <time>2016-05-22T11:44:46Z</time>
      </trkpt>
      <trkpt lat="43.60058" lon="3.73972">
        <ele>122.22</ele>
        <time>2016-05-22T11:44:47Z</time>
      </trkpt>
      <trkpt lat="43.60067" lon="3.73966">
        <ele>121.74</ele>
        <time>2016-05-22T11:44:48Z</time>
      </trkpt>
      <trkpt lat="43.60077" lon="3.73961">
        <ele>121.26</ele>
        <time>2016-05-22T11:44:49Z</time>
      </trkpt>
      <trkpt lat="43.60086" lon="3.73956">
        <ele>120.78</ele>
        <time>2016-05-22T11:44:50Z</time>
      </trkpt>
      <trkpt lat="43.60169" lon="3.73918">
        <ele>115.98</ele>
        <time>2016-05-22T11:44:58Z</time>
      </trkpt>
      <trkpt lat="43.60221" lon="3.73903">
        <ele>114.05</ele>
        <time>2016-05-22T11:45:06Z</time>
      </trkpt>
      <trkpt lat="43.6023" lon="3.73903">
        <ele>114.53</ele>
        <time>2016-05-22T11:45:07Z</time>
      </trkpt>
      <trkpt lat="43.60239" lon="3.73905">
        <ele>114.53</ele>
        <time>2016-05-22T11:45:08Z</time>
      </trkpt>
      <trkpt lat="43.60247" lon="3.73908">
        <ele>115.01</ele>
        <time>2016-05-22T11:45:09Z</time>
      </trkpt>
      <trkpt lat="43.60254" lon="3.73911">
        <ele>115.01</ele>
        <time>2016-05-22T11:45:10Z</time>
      </trkpt>
      <trkpt lat="43.60322" lon="3.73945">
        <ele>119.34</ele>
        <time>2016-05-22T11:45:21Z</time>
      </trkpt>
      <trkpt lat="43.60344" lon="3.73955">
        <ele>120.78</ele>
        <time>2016-05-22T11:45:24Z</time>
      </trkpt>
      <trkpt lat="43.60352" lon="3.73956">
        <ele>121.26</ele>
        <time>2016-05-22T11:45:25Z</time>
      </trkpt>
      <trkpt lat="43.60361" lon="3.73956">
        <ele>121.26</ele>
        <time>2016-05-22T11:45:26Z</time>
      </trkpt>
      <trkpt lat="43.604" lon="3.73949">
        <ele>122.71</ele>
        <time>2016-05-22T11:45:33Z</time>
      </trkpt>
      <trkpt lat="43.60416" lon="3.73953">
        <ele>121.74</ele>
        <time>2016-05-22T11:45:38Z</time>
      </trkpt>
      <trkpt lat="43.6042" lon="3.73958">
        <ele>121.26</ele>
        <time>2016-05-22T11:45:39Z</time>
      </trkpt>
      <trkpt lat="43.60424" lon="3.73963">
        <ele>120.78</ele>
        <time>2016-05-22T11:45:40Z</time>
      </trkpt>
      <trkpt lat="43.6043" lon="3.73966">
        <ele>120.3</ele>
        <time>2016-05-22T11:45:41Z</time>
      </trkpt>
      <trkpt lat="43.60436" lon="3.73963">
        <ele>119.82</ele>
        <time>2016-05-22T11:45:42Z</time>
      </trkpt>
      <trkpt lat="43.60443" lon="3.73954">
        <ele>119.34</ele>
        <time>2016-05-22T11:45:43Z</time>
      </trkpt>
      <trkpt lat="43.60449" lon="3.73944">
        <ele>118.38</ele>
        <time>2016-05-22T11:45:44Z</time>
      </trkpt>
      <trkpt lat="43.60457" lon="3.73932">
        <ele>118.38</ele>
        <time>2016-05-22T11:45:45Z</time>
      </trkpt>
      <trkpt lat="43.60464" lon="3.73919">
        <ele>118.38</ele>
        <time>2016-05-22T11:45:46Z</time>
      </trkpt>
      <trkpt lat="43.60479" lon="3.73876">
        <ele>117.9</ele>
        <time>2016-05-22T11:45:49Z</time>
      </trkpt>
      <trkpt lat="43.6048" lon="3.73862">
        <ele>118.38</ele>
        <time>2016-05-22T11:45:50Z</time>
      </trkpt>
      <trkpt lat="43.60481" lon="3.73849">
        <ele>118.38</ele>
        <time>2016-05-22T11:45:51Z</time>
      </trkpt>
      <trkpt lat="43.60494" lon="3.73748">
        <ele>124.63</ele>
        <time>2016-05-22T11:46:00Z</time>
      </trkpt>
      <trkpt lat="43.60499" lon="3.73708">
        <ele>128.95</ele>
        <time>2016-05-22T11:46:07Z</time>
      </trkpt>
      <trkpt lat="43.60502" lon="3.73683">
        <ele>131.36</ele>
        <time>2016-05-22T11:46:16Z</time>
      </trkpt>
      <trkpt lat="43.60503" lon="3.73673">
        <ele>132.8</ele>
        <time>2016-05-22T11:46:26Z</time>
      </trkpt>
      <trkpt lat="43.605" lon="3.73645">
        <ele>133.28</ele>
        <time>2016-05-22T11:46:30Z</time>
      </trkpt>
      <trkpt lat="43.60499" lon="3.7363">
        <ele>133.28</ele>
        <time>2016-05-22T11:46:31Z</time>
      </trkpt>
      <trkpt lat="43.605" lon="3.73617">
        <ele>133.76</ele>
        <time>2016-05-22T11:46:32Z</time>
      </trkpt>
      <trkpt lat="43.60501" lon="3.73554">
        <ele>133.28</ele>
        <time>2016-05-22T11:46:40Z</time>
      </trkpt>
      <trkpt lat="43.60504" lon="3.73533">
        <ele>133.28</ele>
        <time>2016-05-22T11:46:45Z</time>
      </trkpt>
      <trkpt lat="43.60519" lon="3.73458">
        <ele>133.28</ele>
        <time>2016-05-22T11:46:51Z</time>
      </trkpt>
      <trkpt lat="43.60525" lon="3.73447">
        <ele>133.28</ele>
        <time>2016-05-22T11:46:52Z</time>
      </trkpt>
      <trkpt lat="43.60533" lon="3.73442">
        <ele>132.8</ele>
        <time>2016-05-22T11:46:53Z</time>
      </trkpt>
      <trkpt lat="43.60542" lon="3.73443">
        <ele>133.76</ele>
        <time>2016-05-22T11:46:54Z</time>
      </trkpt>
      <trkpt lat="43.60551" lon="3.73444">
        <ele>134.24</ele>
        <time>2016-05-22T11:46:55Z</time>
      </trkpt>
      <trkpt lat="43.6056" lon="3.73446">
        <ele>134.72</ele>
        <time>2016-05-22T11:46:56Z</time>
      </trkpt>
      <trkpt lat="43.60569" lon="3.73449">
        <ele>136.16</ele>
        <time>2016-05-22T11:46:57Z</time>
      </trkpt>
      <trkpt lat="43.60577" lon="3.73451">
        <ele>137.13</ele>
        <time>2016-05-22T11:46:58Z</time>
      </trkpt>
      <trkpt lat="43.60583" lon="3.73452">
        <ele>137.61</ele>
        <time>2016-05-22T11:46:59Z</time>
      </trkpt>
      <trkpt lat="43.60589" lon="3.73453">
        <ele>138.09</ele>
        <time>2016-05-22T11:47:00Z</time>
      </trkpt>
      <trkpt lat="43.60596" lon="3.73455">
        <ele>138.57</ele>
        <time>2016-05-22T11:47:01Z</time>
      </trkpt>
      <trkpt lat="43.60611" lon="3.7346">
        <ele>139.05</ele>
        <time>2016-05-22T11:47:03Z</time>
      </trkpt>
      <trkpt lat="43.60618" lon="3.7346">
        <ele>139.05</ele>
        <time>2016-05-22T11:47:04Z</time>
      </trkpt>
      <trkpt lat="43.60626" lon="3.73454">
        <ele>139.05</ele>
        <time>2016-05-22T11:47:05Z</time>
      </trkpt>
      <trkpt lat="43.60631" lon="3.73447">
        <ele>139.53</ele>
        <time>2016-05-22T11:47:06Z</time>
      </trkpt>
      <trkpt lat="43.60635" lon="3.7344">
        <ele>139.53</ele>
        <time>2016-05-22T11:47:07Z</time>
      </trkpt>
      <trkpt lat="43.60638" lon="3.73433">
        <ele>140.01</ele>
        <time>2016-05-22T11:47:08Z</time>
      </trkpt>
      <trkpt lat="43.60639" lon="3.73427">
        <ele>140.01</ele>
        <time>2016-05-22T11:47:09Z</time>
      </trkpt>
      <trkpt lat="43.6064" lon="3.73422">
        <ele>140.49</ele>
        <time>2016-05-22T11:47:10Z</time>
      </trkpt>
      <trkpt lat="43.60642" lon="3.73416">
        <ele>140.49</ele>
        <time>2016-05-22T11:47:11Z</time>
      </trkpt>
      <trkpt lat="43.60659" lon="3.73343">
        <ele>142.89</ele>
        <time>2016-05-22T11:47:17Z</time>
      </trkpt>
      <trkpt lat="43.60702" lon="3.7317">
        <ele>150.1</ele>
        <time>2016-05-22T11:47:29Z</time>
      </trkpt>
      <trkpt lat="43.60718" lon="3.73036">
        <ele>153.47</ele>
        <time>2016-05-22T11:47:41Z</time>
      </trkpt>
      <trkpt lat="43.6074" lon="3.72848">
        <ele>159.24</ele>
        <time>2016-05-22T11:47:56Z</time>
      </trkpt>
      <trkpt lat="43.60768" lon="3.72696">
        <ele>164.04</ele>
        <time>2016-05-22T11:48:03Z</time>
      </trkpt>
      <trkpt lat="43.6077" lon="3.72642">
        <ele>165</ele>
        <time>2016-05-22T11:48:05Z</time>
      </trkpt>
      <trkpt lat="43.60759" lon="3.72558">
        <ele>167.41</ele>
        <time>2016-05-22T11:48:08Z</time>
      </trkpt>
      <trkpt lat="43.60749" lon="3.7253">
        <ele>167.89</ele>
        <time>2016-05-22T11:48:09Z</time>
      </trkpt>
      <trkpt lat="43.60706" lon="3.72369">
        <ele>171.73</ele>
        <time>2016-05-22T11:48:15Z</time>
      </trkpt>
      <trkpt lat="43.60706" lon="3.72341">
        <ele>173.17</ele>
        <time>2016-05-22T11:48:16Z</time>
      </trkpt>
      <trkpt lat="43.60708" lon="3.72314">
        <ele>174.14</ele>
        <time>2016-05-22T11:48:17Z</time>
      </trkpt>
      <trkpt lat="43.60712" lon="3.72289">
        <ele>174.62</ele>
        <time>2016-05-22T11:48:18Z</time>
      </trkpt>
      <trkpt lat="43.60718" lon="3.72265">
        <ele>175.58</ele>
        <time>2016-05-22T11:48:19Z</time>
      </trkpt>
      <trkpt lat="43.60728" lon="3.72244">
        <ele>176.54</ele>
        <time>2016-05-22T11:48:20Z</time>
      </trkpt>
      <trkpt lat="43.60741" lon="3.72229">
        <ele>177.5</ele>
        <time>2016-05-22T11:48:21Z</time>
      </trkpt>
      <trkpt lat="43.60755" lon="3.72212">
        <ele>178.46</ele>
        <time>2016-05-22T11:48:22Z</time>
      </trkpt>
      <trkpt lat="43.60774" lon="3.722">
        <ele>179.42</ele>
        <time>2016-05-22T11:48:23Z</time>
      </trkpt>
      <trkpt lat="43.60793" lon="3.72196">
        <ele>180.87</ele>
        <time>2016-05-22T11:48:24Z</time>
      </trkpt>
      <trkpt lat="43.60812" lon="3.722">
        <ele>181.35</ele>
        <time>2016-05-22T11:48:25Z</time>
      </trkpt>
      <trkpt lat="43.60833" lon="3.72208">
        <ele>181.83</ele>
        <time>2016-05-22T11:48:26Z</time>
      </trkpt>
      <trkpt lat="43.60854" lon="3.72226">
        <ele>183.27</ele>
        <time>2016-05-22T11:48:27Z</time>
      </trkpt>
      <trkpt lat="43.60868" lon="3.72243">
        <ele>184.71</ele>
        <time>2016-05-22T11:48:28Z</time>
      </trkpt>
      <trkpt lat="43.60881" lon="3.72259">
        <ele>186.15</ele>
        <time>2016-05-22T11:48:29Z</time>
      </trkpt>
      <trkpt lat="43.60895" lon="3.72273">
        <ele>188.08</ele>
        <time>2016-05-22T11:48:30Z</time>
      </trkpt>
      <trkpt lat="43.60906" lon="3.72277">
        <ele>188.56</ele>
        <time>2016-05-22T11:48:31Z</time>
      </trkpt>
      <trkpt lat="43.6092" lon="3.72272">
        <ele>188.56</ele>
        <time>2016-05-22T11:48:32Z</time>
      </trkpt>
      <trkpt lat="43.60936" lon="3.72266">
        <ele>189.04</ele>
        <time>2016-05-22T11:48:33Z</time>
      </trkpt>
      <trkpt lat="43.6095" lon="3.72255">
        <ele>190.48</ele>
        <time>2016-05-22T11:48:34Z</time>
      </trkpt>
      <trkpt lat="43.60962" lon="3.72241">
        <ele>190.48</ele>
        <time>2016-05-22T11:48:35Z</time>
      </trkpt>
      <trkpt lat="43.60972" lon="3.72221">
        <ele>190.96</ele>
        <time>2016-05-22T11:48:36Z</time>
      </trkpt>
      <trkpt lat="43.60977" lon="3.72195">
        <ele>191.44</ele>
        <time>2016-05-22T11:48:37Z</time>
      </trkpt>
      <trkpt lat="43.60984" lon="3.72165">
        <ele>191.44</ele>
        <time>2016-05-22T11:48:38Z</time>
      </trkpt>
      <trkpt lat="43.60989" lon="3.72133">
        <ele>191.92</ele>
        <time>2016-05-22T11:48:39Z</time>
      </trkpt>
      <trkpt lat="43.60995" lon="3.721">
        <ele>192.4</ele>
        <time>2016-05-22T11:48:40Z</time>
      </trkpt>
      <trkpt lat="43.61019" lon="3.71865">
        <ele>196.25</ele>
        <time>2016-05-22T11:48:47Z</time>
      </trkpt>
      <trkpt lat="43.61015" lon="3.71835">
        <ele>198.65</ele>
        <time>2016-05-22T11:48:48Z</time>
      </trkpt>
      <trkpt lat="43.61011" lon="3.71781">
        <ele>200.09</ele>
        <time>2016-05-22T11:48:50Z</time>
      </trkpt>
      <trkpt lat="43.61013" lon="3.71753">
        <ele>200.09</ele>
        <time>2016-05-22T11:48:51Z</time>
      </trkpt>
      <trkpt lat="43.61017" lon="3.71725">
        <ele>199.13</ele>
        <time>2016-05-22T11:48:52Z</time>
      </trkpt>
      <trkpt lat="43.61029" lon="3.71672">
        <ele>198.17</ele>
        <time>2016-05-22T11:48:54Z</time>
      </trkpt>
      <trkpt lat="43.61038" lon="3.71652">
        <ele>197.69</ele>
        <time>2016-05-22T11:48:55Z</time>
      </trkpt>
      <trkpt lat="43.61048" lon="3.71638">
        <ele>196.73</ele>
        <time>2016-05-22T11:48:56Z</time>
      </trkpt>
      <trkpt lat="43.61061" lon="3.71627">
        <ele>196.25</ele>
        <time>2016-05-22T11:48:57Z</time>
      </trkpt>
      <trkpt lat="43.6108" lon="3.71618">
        <ele>196.73</ele>
        <time>2016-05-22T11:48:58Z</time>
      </trkpt>
      <trkpt lat="43.61096" lon="3.71603">
        <ele>196.73</ele>
        <time>2016-05-22T11:48:59Z</time>
      </trkpt>
      <trkpt lat="43.61111" lon="3.71582">
        <ele>196.25</ele>
        <time>2016-05-22T11:49:00Z</time>
      </trkpt>
      <trkpt lat="43.61125" lon="3.71556">
        <ele>196.25</ele>
        <time>2016-05-22T11:49:01Z</time>
      </trkpt>
      <trkpt lat="43.61137" lon="3.71526">
        <ele>195.77</ele>
        <time>2016-05-22T11:49:02Z</time>
      </trkpt>
      <trkpt lat="43.61146" lon="3.71494">
        <ele>195.77</ele>
        <time>2016-05-22T11:49:03Z</time>
      </trkpt>
      <trkpt lat="43.61155" lon="3.71461">
        <ele>195.28</ele>
        <time>2016-05-22T11:49:04Z</time>
      </trkpt>
      <trkpt lat="43.61201" lon="3.71291">
        <ele>194.32</ele>
        <time>2016-05-22T11:49:10Z</time>
      </trkpt>
      <trkpt lat="43.61213" lon="3.7127">
        <ele>193.84</ele>
        <time>2016-05-22T11:49:11Z</time>
      </trkpt>
      <trkpt lat="43.61229" lon="3.71253">
        <ele>193.36</ele>
        <time>2016-05-22T11:49:12Z</time>
      </trkpt>
      <trkpt lat="43.61358" lon="3.7112">
        <ele>190.48</ele>
        <time>2016-05-22T11:49:19Z</time>
      </trkpt>
      <trkpt lat="43.61414" lon="3.71068">
        <ele>189.04</ele>
        <time>2016-05-22T11:49:22Z</time>
      </trkpt>
      <trkpt lat="43.61437" lon="3.71054">
        <ele>189.04</ele>
        <time>2016-05-22T11:49:23Z</time>
      </trkpt>
      <trkpt lat="43.61662" lon="3.70929">
        <ele>181.35</ele>
        <time>2016-05-22T11:49:33Z</time>
      </trkpt>
      <trkpt lat="43.61704" lon="3.70912">
        <ele>179.42</ele>
        <time>2016-05-22T11:49:35Z</time>
      </trkpt>
      <trkpt lat="43.61725" lon="3.70911">
        <ele>178.94</ele>
        <time>2016-05-22T11:49:36Z</time>
      </trkpt>
      <trkpt lat="43.61748" lon="3.70914">
        <ele>177.98</ele>
        <time>2016-05-22T11:49:37Z</time>
      </trkpt>
      <trkpt lat="43.61921" lon="3.70939">
        <ele>171.25</ele>
        <time>2016-05-22T11:49:45Z</time>
      </trkpt>
      <trkpt lat="43.61946" lon="3.70937">
        <ele>170.29</ele>
        <time>2016-05-22T11:49:46Z</time>
      </trkpt>
      <trkpt lat="43.62117" lon="3.70884">
        <ele>163.08</ele>
        <time>2016-05-22T11:49:53Z</time>
      </trkpt>
      <trkpt lat="43.62137" lon="3.70865">
        <ele>162.12</ele>
        <time>2016-05-22T11:49:54Z</time>
      </trkpt>
      <trkpt lat="43.62155" lon="3.70839">
        <ele>161.16</ele>
        <time>2016-05-22T11:49:55Z</time>
      </trkpt>
      <trkpt lat="43.62173" lon="3.7081">
        <ele>160.2</ele>
        <time>2016-05-22T11:49:56Z</time>
      </trkpt>
      <trkpt lat="43.62309" lon="3.70589">
        <ele>156.35</ele>
        <time>2016-05-22T11:50:04Z</time>
      </trkpt>
      <trkpt lat="43.62327" lon="3.70574">
        <ele>155.39</ele>
        <time>2016-05-22T11:50:05Z</time>
      </trkpt>
      <trkpt lat="43.62347" lon="3.70563">
        <ele>154.91</ele>
        <time>2016-05-22T11:50:06Z</time>
      </trkpt>
      <trkpt lat="43.62371" lon="3.70553">
        <ele>155.39</ele>
        <time>2016-05-22T11:50:07Z</time>
      </trkpt>
      <trkpt lat="43.62398" lon="3.70547">
        <ele>154.43</ele>
        <time>2016-05-22T11:50:08Z</time>
      </trkpt>
      <trkpt lat="43.62427" lon="3.70542">
        <ele>153.95</ele>
        <time>2016-05-22T11:50:09Z</time>
      </trkpt>
      <trkpt lat="43.62457" lon="3.70537">
        <ele>153.47</ele>
        <time>2016-05-22T11:50:10Z</time>
      </trkpt>
      <trkpt lat="43.62574" lon="3.70516">
        <ele>152.51</ele>
        <time>2016-05-22T11:50:15Z</time>
      </trkpt>
      <trkpt lat="43.62707" lon="3.7045">
        <ele>151.06</ele>
        <time>2016-05-22T11:50:21Z</time>
      </trkpt>
      <trkpt lat="43.62913" lon="3.70328">
        <ele>145.3</ele>
        <time>2016-05-22T11:50:30Z</time>
      </trkpt>
      <trkpt lat="43.63025" lon="3.70305">
        <ele>138.57</ele>
        <time>2016-05-22T11:50:36Z</time>
      </trkpt>
      <trkpt lat="43.63102" lon="3.70307">
        <ele>136.16</ele>
        <time>2016-05-22T11:50:42Z</time>
      </trkpt>
      <trkpt lat="43.63122" lon="3.70308">
        <ele>136.16</ele>
        <time>2016-05-22T11:50:48Z</time>
      </trkpt>
      <trkpt lat="43.63121" lon="3.70309">
        <ele>135.2</ele>
        <time>2016-05-22T11:51:10Z</time>
      </trkpt>
      <trkpt lat="43.63122" lon="3.70308">
        <ele>135.68</ele>
        <time>2016-05-22T11:51:11Z</time>
      </trkpt>
      <trkpt lat="43.63123" lon="3.70307">
        <ele>136.16</ele>
        <time>2016-05-22T11:51:12Z</time>
      </trkpt>
      <trkpt lat="43.63125" lon="3.70303">
        <ele>136.16</ele>
        <time>2016-05-22T11:51:13Z</time>
      </trkpt>
      <trkpt lat="43.63125" lon="3.70297">
        <ele>135.68</ele>
        <time>2016-05-22T11:51:14Z</time>
      </trkpt>
      <trkpt lat="43.63122" lon="3.70285">
        <ele>135.2</ele>
        <time>2016-05-22T11:51:15Z</time>
      </trkpt>
      <trkpt lat="43.63117" lon="3.70263">
        <ele>135.2</ele>
        <time>2016-05-22T11:51:16Z</time>
      </trkpt>
      <trkpt lat="43.63111" lon="3.70237">
        <ele>134.72</ele>
        <time>2016-05-22T11:51:17Z</time>
      </trkpt>
      <trkpt lat="43.63085" lon="3.70132">
        <ele>134.24</ele>
        <time>2016-05-22T11:51:20Z</time>
      </trkpt>
      <trkpt lat="43.63024" lon="3.69876">
        <ele>133.76</ele>
        <time>2016-05-22T11:51:28Z</time>
      </trkpt>
      <trkpt lat="43.62987" lon="3.69704">
        <ele>133.76</ele>
        <time>2016-05-22T11:51:34Z</time>
      </trkpt>
      <trkpt lat="43.62986" lon="3.69677">
        <ele>133.28</ele>
        <time>2016-05-22T11:51:35Z</time>
      </trkpt>
      <trkpt lat="43.62986" lon="3.69651">
        <ele>132.8</ele>
        <time>2016-05-22T11:51:36Z</time>
      </trkpt>
      <trkpt lat="43.62989" lon="3.69625">
        <ele>132.32</ele>
        <time>2016-05-22T11:51:37Z</time>
      </trkpt>
      <trkpt lat="43.62994" lon="3.69599">
        <ele>131.36</ele>
        <time>2016-05-22T11:51:38Z</time>
      </trkpt>
      <trkpt lat="43.63001" lon="3.69574">
        <ele>130.88</ele>
        <time>2016-05-22T11:51:39Z</time>
      </trkpt>
      <trkpt lat="43.63008" lon="3.69551">
        <ele>130.4</ele>
        <time>2016-05-22T11:51:40Z</time>
      </trkpt>
      <trkpt lat="43.63035" lon="3.69467">
        <ele>129.43</ele>
        <time>2016-05-22T11:51:44Z</time>
      </trkpt>
      <trkpt lat="43.63038" lon="3.69447">
        <ele>128.95</ele>
        <time>2016-05-22T11:51:45Z</time>
      </trkpt>
      <trkpt lat="43.6304" lon="3.69427">
        <ele>128.95</ele>
        <time>2016-05-22T11:51:46Z</time>
      </trkpt>
      <trkpt lat="43.63041" lon="3.69409">
        <ele>129.43</ele>
        <time>2016-05-22T11:51:47Z</time>
      </trkpt>
      <trkpt lat="43.63045" lon="3.6939">
        <ele>129.43</ele>
        <time>2016-05-22T11:51:48Z</time>
      </trkpt>
      <trkpt lat="43.63052" lon="3.69374">
        <ele>129.43</ele>
        <time>2016-05-22T11:51:49Z</time>
      </trkpt>
      <trkpt lat="43.63062" lon="3.6936">
        <ele>128.95</ele>
        <time>2016-05-22T11:51:50Z</time>
      </trkpt>
      <trkpt lat="43.63074" lon="3.69352">
        <ele>128.95</ele>
        <time>2016-05-22T11:51:51Z</time>
      </trkpt>
      <trkpt lat="43.63091" lon="3.69347">
        <ele>128.95</ele>
        <time>2016-05-22T11:51:52Z</time>
      </trkpt>
      <trkpt lat="43.63108" lon="3.69346">
        <ele>128.47</ele>
        <time>2016-05-22T11:51:53Z</time>
      </trkpt>
      <trkpt lat="43.63126" lon="3.69346">
        <ele>127.99</ele>
        <time>2016-05-22T11:51:54Z</time>
      </trkpt>
      <trkpt lat="43.63145" lon="3.69344">
        <ele>127.51</ele>
        <time>2016-05-22T11:51:55Z</time>
      </trkpt>
      <trkpt lat="43.63294" lon="3.69314">
        <ele>127.51</ele>
        <time>2016-05-22T11:52:02Z</time>
      </trkpt>
      <trkpt lat="43.63444" lon="3.69288">
        <ele>127.03</ele>
        <time>2016-05-22T11:52:09Z</time>
      </trkpt>
      <trkpt lat="43.63463" lon="3.69294">
        <ele>127.03</ele>
        <time>2016-05-22T11:52:10Z</time>
      </trkpt>
      <trkpt lat="43.63483" lon="3.69305">
        <ele>127.03</ele>
        <time>2016-05-22T11:52:11Z</time>
      </trkpt>
      <trkpt lat="43.63503" lon="3.69321">
        <ele>127.03</ele>
        <time>2016-05-22T11:52:12Z</time>
      </trkpt>
      <trkpt lat="43.63522" lon="3.69338">
        <ele>127.03</ele>
        <time>2016-05-22T11:52:13Z</time>
      </trkpt>
      <trkpt lat="43.6354" lon="3.69355">
        <ele>127.03</ele>
        <time>2016-05-22T11:52:14Z</time>
      </trkpt>
      <trkpt lat="43.63693" lon="3.69438">
        <ele>121.26</ele>
        <time>2016-05-22T11:52:21Z</time>
      </trkpt>
      <trkpt lat="43.6386" lon="3.695">
        <ele>123.67</ele>
        <time>2016-05-22T11:52:29Z</time>
      </trkpt>
      <trkpt lat="43.63966" lon="3.69533">
        <ele>122.71</ele>
        <time>2016-05-22T11:52:34Z</time>
      </trkpt>
      <trkpt lat="43.63987" lon="3.69534">
        <ele>122.71</ele>
        <time>2016-05-22T11:52:35Z</time>
      </trkpt>
      <trkpt lat="43.6408" lon="3.69532">
        <ele>123.67</ele>
        <time>2016-05-22T11:52:41Z</time>
      </trkpt>
      <trkpt lat="43.64088" lon="3.69535">
        <ele>124.15</ele>
        <time>2016-05-22T11:52:42Z</time>
      </trkpt>
      <trkpt lat="43.64097" lon="3.6954">
        <ele>123.67</ele>
        <time>2016-05-22T11:52:43Z</time>
      </trkpt>
      <trkpt lat="43.64106" lon="3.69545">
        <ele>124.15</ele>
        <time>2016-05-22T11:52:44Z</time>
      </trkpt>
      <trkpt lat="43.64115" lon="3.69543">
        <ele>124.15</ele>
        <time>2016-05-22T11:52:45Z</time>
      </trkpt>
      <trkpt lat="43.64126" lon="3.69542">
        <ele>123.67</ele>
        <time>2016-05-22T11:52:46Z</time>
      </trkpt>
      <trkpt lat="43.64138" lon="3.69544">
        <ele>123.19</ele>
        <time>2016-05-22T11:52:47Z</time>
      </trkpt>
      <trkpt lat="43.64151" lon="3.69548">
        <ele>123.19</ele>
        <time>2016-05-22T11:52:48Z</time>
      </trkpt>
      <trkpt lat="43.64165" lon="3.69554">
        <ele>122.71</ele>
        <time>2016-05-22T11:52:49Z</time>
      </trkpt>
      <trkpt lat="43.64285" lon="3.69603">
        <ele>118.38</ele>
        <time>2016-05-22T11:52:59Z</time>
      </trkpt>
      <trkpt lat="43.64301" lon="3.69613">
        <ele>118.38</ele>
        <time>2016-05-22T11:53:01Z</time>
      </trkpt>
      <trkpt lat="43.6431" lon="3.69612">
        <ele>117.9</ele>
        <time>2016-05-22T11:53:02Z</time>
      </trkpt>
      <trkpt lat="43.6432" lon="3.69612">
        <ele>117.9</ele>
        <time>2016-05-22T11:53:03Z</time>
      </trkpt>
      <trkpt lat="43.6433" lon="3.69613">
        <ele>117.9</ele>
        <time>2016-05-22T11:53:04Z</time>
      </trkpt>
      <trkpt lat="43.64339" lon="3.69614">
        <ele>117.9</ele>
        <time>2016-05-22T11:53:05Z</time>
      </trkpt>
      <trkpt lat="43.64431" lon="3.69636">
        <ele>118.38</ele>
        <time>2016-05-22T11:53:15Z</time>
      </trkpt>
      <trkpt lat="43.64531" lon="3.69672">
        <ele>120.3</ele>
        <time>2016-05-22T11:53:25Z</time>
      </trkpt>
      <trkpt lat="43.64636" lon="3.69705">
        <ele>120.3</ele>
        <time>2016-05-22T11:53:36Z</time>
      </trkpt>
      <trkpt lat="43.6472" lon="3.69735">
        <ele>121.26</ele>
        <time>2016-05-22T11:53:46Z</time>
      </trkpt>
      <trkpt lat="43.64725" lon="3.6973">
        <ele>121.26</ele>
        <time>2016-05-22T11:53:47Z</time>
      </trkpt>
      <trkpt lat="43.64731" lon="3.69721">
        <ele>121.74</ele>
        <time>2016-05-22T11:53:48Z</time>
      </trkpt>
      <trkpt lat="43.64783" lon="3.69669">
        <ele>124.15</ele>
        <time>2016-05-22T11:53:54Z</time>
      </trkpt>
      <trkpt lat="43.64791" lon="3.69669">
        <ele>125.11</ele>
        <time>2016-05-22T11:53:55Z</time>
      </trkpt>
      <trkpt lat="43.64799" lon="3.69675">
        <ele>125.59</ele>
        <time>2016-05-22T11:53:56Z</time>
      </trkpt>
      <trkpt lat="43.64806" lon="3.69683">
        <ele>126.07</ele>
        <time>2016-05-22T11:53:57Z</time>
      </trkpt>
      <trkpt lat="43.64812" lon="3.69691">
        <ele>127.03</ele>
        <time>2016-05-22T11:53:58Z</time>
      </trkpt>
      <trkpt lat="43.64818" lon="3.69696">
        <ele>127.51</ele>
        <time>2016-05-22T11:53:59Z</time>
      </trkpt>
      <trkpt lat="43.64825" lon="3.69698">
        <ele>127.99</ele>
        <time>2016-05-22T11:54:00Z</time>
      </trkpt>
      <trkpt lat="43.64831" lon="3.69698">
        <ele>128.47</ele>
        <time>2016-05-22T11:54:01Z</time>
      </trkpt>
      <trkpt lat="43.64842" lon="3.69695">
        <ele>128.47</ele>
        <time>2016-05-22T11:54:03Z</time>
      </trkpt>
      <trkpt lat="43.64848" lon="3.69697">
        <ele>128.47</ele>
        <time>2016-05-22T11:54:04Z</time>
      </trkpt>
      <trkpt lat="43.64854" lon="3.69703">
        <ele>128.47</ele>
        <time>2016-05-22T11:54:05Z</time>
      </trkpt>
      <trkpt lat="43.64859" lon="3.6971">
        <ele>128.47</ele>
        <time>2016-05-22T11:54:06Z</time>
      </trkpt>
      <trkpt lat="43.64866" lon="3.69719">
        <ele>128.47</ele>
        <time>2016-05-22T11:54:07Z</time>
      </trkpt>
      <trkpt lat="43.6492" lon="3.69806">
        <ele>125.59</ele>
        <time>2016-05-22T11:54:15Z</time>
      </trkpt>
      <trkpt lat="43.64931" lon="3.69829">
        <ele>126.55</ele>
        <time>2016-05-22T11:54:21Z</time>
      </trkpt>
      <trkpt lat="43.64937" lon="3.69848">
        <ele>126.07</ele>
        <time>2016-05-22T11:54:26Z</time>
      </trkpt>
      <trkpt lat="43.64946" lon="3.69846">
        <ele>126.07</ele>
        <time>2016-05-22T11:54:27Z</time>
      </trkpt>
      <trkpt lat="43.64954" lon="3.6984">
        <ele>126.07</ele>
        <time>2016-05-22T11:54:28Z</time>
      </trkpt>
      <trkpt lat="43.64965" lon="3.69832">
        <ele>124.63</ele>
        <time>2016-05-22T11:54:29Z</time>
      </trkpt>
      <trkpt lat="43.64976" lon="3.69822">
        <ele>124.15</ele>
        <time>2016-05-22T11:54:30Z</time>
      </trkpt>
      <trkpt lat="43.64986" lon="3.69813">
        <ele>123.67</ele>
        <time>2016-05-22T11:54:31Z</time>
      </trkpt>
      <trkpt lat="43.64997" lon="3.69806">
        <ele>124.15</ele>
        <time>2016-05-22T11:54:32Z</time>
      </trkpt>
      <trkpt lat="43.65103" lon="3.69718">
        <ele>129.43</ele>
        <time>2016-05-22T11:54:43Z</time>
      </trkpt>
      <trkpt lat="43.65112" lon="3.69713">
        <ele>129.92</ele>
        <time>2016-05-22T11:54:44Z</time>
      </trkpt>
      <trkpt lat="43.65122" lon="3.69711">
        <ele>130.4</ele>
        <time>2016-05-22T11:54:45Z</time>
      </trkpt>
      <trkpt lat="43.65131" lon="3.69712">
        <ele>130.88</ele>
        <time>2016-05-22T11:54:46Z</time>
      </trkpt>
      <trkpt lat="43.6514" lon="3.69715">
        <ele>130.88</ele>
        <time>2016-05-22T11:54:47Z</time>
      </trkpt>
      <trkpt lat="43.65149" lon="3.69717">
        <ele>130.88</ele>
        <time>2016-05-22T11:54:48Z</time>
      </trkpt>
      <trkpt lat="43.65158" lon="3.69721">
        <ele>130.4</ele>
        <time>2016-05-22T11:54:49Z</time>
      </trkpt>
      <trkpt lat="43.65167" lon="3.69724">
        <ele>130.4</ele>
        <time>2016-05-22T11:54:50Z</time>
      </trkpt>
      <trkpt lat="43.65177" lon="3.6973">
        <ele>129.92</ele>
        <time>2016-05-22T11:54:51Z</time>
      </trkpt>
      <trkpt lat="43.65188" lon="3.69737">
        <ele>129.92</ele>
        <time>2016-05-22T11:54:52Z</time>
      </trkpt>
      <trkpt lat="43.65274" lon="3.69791">
        <ele>127.51</ele>
        <time>2016-05-22T11:55:01Z</time>
      </trkpt>
      <trkpt lat="43.65372" lon="3.69856">
        <ele>122.22</ele>
        <time>2016-05-22T11:55:12Z</time>
      </trkpt>
      <trkpt lat="43.65379" lon="3.69863">
        <ele>121.74</ele>
        <time>2016-05-22T11:55:13Z</time>
      </trkpt>
      <trkpt lat="43.65383" lon="3.69874">
        <ele>121.26</ele>
        <time>2016-05-22T11:55:14Z</time>
      </trkpt>
      <trkpt lat="43.65383" lon="3.69889">
        <ele>120.78</ele>
        <time>2016-05-22T11:55:15Z</time>
      </trkpt>
      <trkpt lat="43.65381" lon="3.69905">
        <ele>120.78</ele>
        <time>2016-05-22T11:55:16Z</time>
      </trkpt>
      <trkpt lat="43.65379" lon="3.69924">
        <ele>120.78</ele>
        <time>2016-05-22T11:55:17Z</time>
      </trkpt>
      <trkpt lat="43.65379" lon="3.69943">
        <ele>120.3</ele>
        <time>2016-05-22T11:55:18Z</time>
      </trkpt>
      <trkpt lat="43.65381" lon="3.69962">
        <ele>119.82</ele>
        <time>2016-05-22T11:55:19Z</time>
      </trkpt>
      <trkpt lat="43.65387" lon="3.69981">
        <ele>118.86</ele>
        <time>2016-05-22T11:55:20Z</time>
      </trkpt>
      <trkpt lat="43.65396" lon="3.69998">
        <ele>117.9</ele>
        <time>2016-05-22T11:55:21Z</time>
      </trkpt>
      <trkpt lat="43.65408" lon="3.70015">
        <ele>116.94</ele>
        <time>2016-05-22T11:55:22Z</time>
      </trkpt>
      <trkpt lat="43.65419" lon="3.70032">
        <ele>115.98</ele>
        <time>2016-05-22T11:55:23Z</time>
      </trkpt>
      <trkpt lat="43.65429" lon="3.70052">
        <ele>115.01</ele>
        <time>2016-05-22T11:55:24Z</time>
      </trkpt>
      <trkpt lat="43.65438" lon="3.70073">
        <ele>114.53</ele>
        <time>2016-05-22T11:55:25Z</time>
      </trkpt>
      <trkpt lat="43.65446" lon="3.70095">
        <ele>113.57</ele>
        <time>2016-05-22T11:55:26Z</time>
      </trkpt>
      <trkpt lat="43.65456" lon="3.70116">
        <ele>113.09</ele>
        <time>2016-05-22T11:55:27Z</time>
      </trkpt>
      <trkpt lat="43.65469" lon="3.70135">
        <ele>112.13</ele>
        <time>2016-05-22T11:55:28Z</time>
      </trkpt>
      <trkpt lat="43.65533" lon="3.70214">
        <ele>108.29</ele>
        <time>2016-05-22T11:55:33Z</time>
      </trkpt>
      <trkpt lat="43.65565" lon="3.70241">
        <ele>107.32</ele>
        <time>2016-05-22T11:55:35Z</time>
      </trkpt>
      <trkpt lat="43.65581" lon="3.70259">
        <ele>107.81</ele>
        <time>2016-05-22T11:55:36Z</time>
      </trkpt>
      <trkpt lat="43.65595" lon="3.70279">
        <ele>107.81</ele>
        <time>2016-05-22T11:55:37Z</time>
      </trkpt>
      <trkpt lat="43.65607" lon="3.703">
        <ele>108.29</ele>
        <time>2016-05-22T11:55:38Z</time>
      </trkpt>
      <trkpt lat="43.65616" lon="3.70322">
        <ele>109.25</ele>
        <time>2016-05-22T11:55:39Z</time>
      </trkpt>
      <trkpt lat="43.65623" lon="3.70344">
        <ele>110.21</ele>
        <time>2016-05-22T11:55:40Z</time>
      </trkpt>
      <trkpt lat="43.65643" lon="3.70386">
        <ele>111.17</ele>
        <time>2016-05-22T11:55:42Z</time>
      </trkpt>
      <trkpt lat="43.65657" lon="3.70407">
        <ele>111.17</ele>
        <time>2016-05-22T11:55:43Z</time>
      </trkpt>
      <trkpt lat="43.65675" lon="3.70425">
        <ele>111.65</ele>
        <time>2016-05-22T11:55:44Z</time>
      </trkpt>
      <trkpt lat="43.65694" lon="3.70441">
        <ele>112.61</ele>
        <time>2016-05-22T11:55:45Z</time>
      </trkpt>
      <trkpt lat="43.65713" lon="3.70456">
        <ele>113.09</ele>
        <time>2016-05-22T11:55:46Z</time>
      </trkpt>
      <trkpt lat="43.65783" lon="3.70527">
        <ele>117.42</ele>
        <time>2016-05-22T11:55:50Z</time>
      </trkpt>
      <trkpt lat="43.65798" lon="3.7055">
        <ele>118.38</ele>
        <time>2016-05-22T11:55:51Z</time>
      </trkpt>
      <trkpt lat="43.65826" lon="3.70595">
        <ele>120.78</ele>
        <time>2016-05-22T11:55:53Z</time>
      </trkpt>
      <trkpt lat="43.65843" lon="3.70613">
        <ele>122.22</ele>
        <time>2016-05-22T11:55:54Z</time>
      </trkpt>
      <trkpt lat="43.65864" lon="3.70629">
        <ele>123.67</ele>
        <time>2016-05-22T11:55:55Z</time>
      </trkpt>
      <trkpt lat="43.65939" lon="3.70689">
        <ele>127.03</ele>
        <time>2016-05-22T11:55:59Z</time>
      </trkpt>
      <trkpt lat="43.65951" lon="3.70709">
        <ele>127.99</ele>
        <time>2016-05-22T11:56:00Z</time>
      </trkpt>
      <trkpt lat="43.6596" lon="3.7073">
        <ele>128.47</ele>
        <time>2016-05-22T11:56:01Z</time>
      </trkpt>
      <trkpt lat="43.6597" lon="3.70753">
        <ele>128.95</ele>
        <time>2016-05-22T11:56:02Z</time>
      </trkpt>
      <trkpt lat="43.65984" lon="3.70775">
        <ele>128.95</ele>
        <time>2016-05-22T11:56:03Z</time>
      </trkpt>
      <trkpt lat="43.66002" lon="3.70793">
        <ele>129.43</ele>
        <time>2016-05-22T11:56:04Z</time>
      </trkpt>
      <trkpt lat="43.66023" lon="3.70809">
        <ele>129.43</ele>
        <time>2016-05-22T11:56:05Z</time>
      </trkpt>
      <trkpt lat="43.66045" lon="3.70824">
        <ele>128.95</ele>
        <time>2016-05-22T11:56:06Z</time>
      </trkpt>
      <trkpt lat="43.66069" lon="3.70839">
        <ele>128.47</ele>
        <time>2016-05-22T11:56:07Z</time>
      </trkpt>
      <trkpt lat="43.66271" lon="3.70943">
        <ele>126.55</ele>
        <time>2016-05-22T11:56:16Z</time>
      </trkpt>
      <trkpt lat="43.66341" lon="3.70989">
        <ele>127.99</ele>
        <time>2016-05-22T11:56:20Z</time>
      </trkpt>
      <trkpt lat="43.66354" lon="3.71004">
        <ele>128.47</ele>
        <time>2016-05-22T11:56:21Z</time>
      </trkpt>
      <trkpt lat="43.66365" lon="3.71019">
        <ele>129.43</ele>
        <time>2016-05-22T11:56:22Z</time>
      </trkpt>
      <trkpt lat="43.66375" lon="3.71034">
        <ele>129.92</ele>
        <time>2016-05-22T11:56:23Z</time>
      </trkpt>
      <trkpt lat="43.66383" lon="3.7105">
        <ele>130.4</ele>
        <time>2016-05-22T11:56:24Z</time>
      </trkpt>
      <trkpt lat="43.66437" lon="3.71165">
        <ele>131.36</ele>
        <time>2016-05-22T11:56:32Z</time>
      </trkpt>
      <trkpt lat="43.66473" lon="3.71246">
        <ele>130.88</ele>
        <time>2016-05-22T11:56:37Z</time>
      </trkpt>
      <trkpt lat="43.66483" lon="3.7126">
        <ele>130.4</ele>
        <time>2016-05-22T11:56:38Z</time>
      </trkpt>
      <trkpt lat="43.66493" lon="3.71272">
        <ele>129.92</ele>
        <time>2016-05-22T11:56:39Z</time>
      </trkpt>
      <trkpt lat="43.66504" lon="3.71282">
        <ele>129.43</ele>
        <time>2016-05-22T11:56:40Z</time>
      </trkpt>
      <trkpt lat="43.66515" lon="3.71292">
        <ele>128.95</ele>
        <time>2016-05-22T11:56:41Z</time>
      </trkpt>
      <trkpt lat="43.6663" lon="3.71389">
        <ele>123.19</ele>
        <time>2016-05-22T11:56:50Z</time>
      </trkpt>
      <trkpt lat="43.66727" lon="3.71457">
        <ele>120.78</ele>
        <time>2016-05-22T11:56:58Z</time>
      </trkpt>
      <trkpt lat="43.66822" lon="3.71507">
        <ele>124.63</ele>
        <time>2016-05-22T11:57:06Z</time>
      </trkpt>
      <trkpt lat="43.66879" lon="3.71547">
        <ele>126.55</ele>
        <time>2016-05-22T11:57:12Z</time>
      </trkpt>
      <trkpt lat="43.66884" lon="3.71554">
        <ele>126.55</ele>
        <time>2016-05-22T11:57:13Z</time>
      </trkpt>
      <trkpt lat="43.66884" lon="3.71562">
        <ele>126.55</ele>
        <time>2016-05-22T11:57:14Z</time>
      </trkpt>
      <trkpt lat="43.6688" lon="3.71573">
        <ele>126.07</ele>
        <time>2016-05-22T11:57:15Z</time>
      </trkpt>
      <trkpt lat="43.66875" lon="3.71583">
        <ele>125.59</ele>
        <time>2016-05-22T11:57:16Z</time>
      </trkpt>
      <trkpt lat="43.66868" lon="3.71592">
        <ele>125.11</ele>
        <time>2016-05-22T11:57:17Z</time>
      </trkpt>
      <trkpt lat="43.66859" lon="3.71601">
        <ele>124.63</ele>
        <time>2016-05-22T11:57:18Z</time>
      </trkpt>
      <trkpt lat="43.66818" lon="3.71648">
        <ele>122.22</ele>
        <time>2016-05-22T11:57:23Z</time>
      </trkpt>
      <trkpt lat="43.66762" lon="3.71689">
        <ele>117.42</ele>
        <time>2016-05-22T11:57:29Z</time>
      </trkpt>
      <trkpt lat="43.66755" lon="3.71698">
        <ele>116.46</ele>
        <time>2016-05-22T11:57:30Z</time>
      </trkpt>
      <trkpt lat="43.66749" lon="3.71707">
        <ele>115.98</ele>
        <time>2016-05-22T11:57:31Z</time>
      </trkpt>
      <trkpt lat="43.66745" lon="3.71714">
        <ele>115.98</ele>
        <time>2016-05-22T11:57:32Z</time>
      </trkpt>
      <trkpt lat="43.66743" lon="3.7172">
        <ele>115.5</ele>
        <time>2016-05-22T11:57:33Z</time>
      </trkpt>
      <trkpt lat="43.66742" lon="3.71724">
        <ele>115.5</ele>
        <time>2016-05-22T11:57:34Z</time>
      </trkpt>
      <trkpt lat="43.66742" lon="3.71729">
        <ele>114.53</ele>
        <time>2016-05-22T11:57:35Z</time>
      </trkpt>
      <trkpt lat="43.66745" lon="3.71733">
        <ele>114.05</ele>
        <time>2016-05-22T11:57:36Z</time>
      </trkpt>
      <trkpt lat="43.66752" lon="3.71737">
        <ele>113.57</ele>
        <time>2016-05-22T11:57:37Z</time>
      </trkpt>
      <trkpt lat="43.66763" lon="3.71744">
        <ele>113.09</ele>
        <time>2016-05-22T11:57:38Z</time>
      </trkpt>
      <trkpt lat="43.66821" lon="3.71803">
        <ele>115.5</ele>
        <time>2016-05-22T11:57:43Z</time>
      </trkpt>
      <trkpt lat="43.66867" lon="3.71878">
        <ele>117.9</ele>
        <time>2016-05-22T11:57:50Z</time>
      </trkpt>
      <trkpt lat="43.66921" lon="3.72">
        <ele>119.34</ele>
        <time>2016-05-22T11:57:58Z</time>
      </trkpt>
      <trkpt lat="43.66936" lon="3.72035">
        <ele>120.3</ele>
        <time>2016-05-22T11:58:01Z</time>
      </trkpt>
      <trkpt lat="43.66939" lon="3.72046">
        <ele>120.3</ele>
        <time>2016-05-22T11:58:02Z</time>
      </trkpt>
      <trkpt lat="43.66939" lon="3.72057">
        <ele>120.3</ele>
        <time>2016-05-22T11:58:03Z</time>
      </trkpt>
      <trkpt lat="43.66938" lon="3.72071">
        <ele>119.82</ele>
        <time>2016-05-22T11:58:04Z</time>
      </trkpt>
      <trkpt lat="43.66935" lon="3.72085">
        <ele>119.82</ele>
        <time>2016-05-22T11:58:05Z</time>
      </trkpt>
      <trkpt lat="43.6693" lon="3.72101">
        <ele>119.34</ele>
        <time>2016-05-22T11:58:06Z</time>
      </trkpt>
      <trkpt lat="43.66923" lon="3.72115">
        <ele>119.34</ele>
        <time>2016-05-22T11:58:07Z</time>
      </trkpt>
      <trkpt lat="43.66914" lon="3.72129">
        <ele>118.86</ele>
        <time>2016-05-22T11:58:08Z</time>
      </trkpt>
      <trkpt lat="43.66903" lon="3.72141">
        <ele>117.9</ele>
        <time>2016-05-22T11:58:09Z</time>
      </trkpt>
      <trkpt lat="43.66893" lon="3.72151">
        <ele>117.42</ele>
        <time>2016-05-22T11:58:10Z</time>
      </trkpt>
      <trkpt lat="43.66883" lon="3.7216">
        <ele>116.46</ele>
        <time>2016-05-22T11:58:11Z</time>
      </trkpt>
      <trkpt lat="43.66872" lon="3.72167">
        <ele>115.98</ele>
        <time>2016-05-22T11:58:12Z</time>
      </trkpt>
      <trkpt lat="43.66861" lon="3.72172">
        <ele>115.5</ele>
        <time>2016-05-22T11:58:13Z</time>
      </trkpt>
      <trkpt lat="43.6685" lon="3.72175">
        <ele>114.53</ele>
        <time>2016-05-22T11:58:14Z</time>
      </trkpt>
      <trkpt lat="43.66838" lon="3.72177">
        <ele>114.05</ele>
        <time>2016-05-22T11:58:15Z</time>
      </trkpt>
      <trkpt lat="43.66826" lon="3.72178">
        <ele>113.09</ele>
        <time>2016-05-22T11:58:16Z</time>
      </trkpt>
      <trkpt lat="43.66814" lon="3.72178">
        <ele>112.13</ele>
        <time>2016-05-22T11:58:17Z</time>
      </trkpt>
      <trkpt lat="43.66685" lon="3.72178">
        <ele>104.44</ele>
        <time>2016-05-22T11:58:27Z</time>
      </trkpt>
      <trkpt lat="43.66608" lon="3.72178">
        <ele>100.6</ele>
        <time>2016-05-22T11:58:33Z</time>
      </trkpt>
      <trkpt lat="43.66595" lon="3.72181">
        <ele>99.63</ele>
        <time>2016-05-22T11:58:34Z</time>
      </trkpt>
      <trkpt lat="43.66584" lon="3.7219">
        <ele>99.15</ele>
        <time>2016-05-22T11:58:35Z</time>
      </trkpt>
      <trkpt lat="43.66575" lon="3.72204">
        <ele>98.19</ele>
        <time>2016-05-22T11:58:36Z</time>
      </trkpt>
      <trkpt lat="43.66569" lon="3.72221">
        <ele>97.71</ele>
        <time>2016-05-22T11:58:37Z</time>
      </trkpt>
      <trkpt lat="43.66564" lon="3.72236">
        <ele>97.23</ele>
        <time>2016-05-22T11:58:38Z</time>
      </trkpt>
      <trkpt lat="43.6656" lon="3.72253">
        <ele>96.75</ele>
        <time>2016-05-22T11:58:39Z</time>
      </trkpt>
      <trkpt lat="43.66555" lon="3.72271">
        <ele>96.27</ele>
        <time>2016-05-22T11:58:40Z</time>
      </trkpt>
      <trkpt lat="43.66549" lon="3.72286">
        <ele>95.79</ele>
        <time>2016-05-22T11:58:41Z</time>
      </trkpt>
      <trkpt lat="43.66542" lon="3.72299">
        <ele>95.31</ele>
        <time>2016-05-22T11:58:42Z</time>
      </trkpt>
      <trkpt lat="43.66534" lon="3.72311">
        <ele>95.31</ele>
        <time>2016-05-22T11:58:43Z</time>
      </trkpt>
      <trkpt lat="43.66453" lon="3.72401">
        <ele>95.79</ele>
        <time>2016-05-22T11:58:51Z</time>
      </trkpt>
      <trkpt lat="43.66441" lon="3.72407">
        <ele>95.31</ele>
        <time>2016-05-22T11:58:52Z</time>
      </trkpt>
      <trkpt lat="43.66429" lon="3.72409">
        <ele>94.83</ele>
        <time>2016-05-22T11:58:53Z</time>
      </trkpt>
      <trkpt lat="43.66416" lon="3.72404">
        <ele>94.83</ele>
        <time>2016-05-22T11:58:54Z</time>
      </trkpt>
      <trkpt lat="43.66402" lon="3.72392">
        <ele>95.79</ele>
        <time>2016-05-22T11:58:55Z</time>
      </trkpt>
      <trkpt lat="43.66389" lon="3.72379">
        <ele>96.27</ele>
        <time>2016-05-22T11:58:56Z</time>
      </trkpt>
      <trkpt lat="43.66376" lon="3.72362">
        <ele>96.75</ele>
        <time>2016-05-22T11:58:57Z</time>
      </trkpt>
      <trkpt lat="43.66363" lon="3.72342">
        <ele>97.23</ele>
        <time>2016-05-22T11:58:58Z</time>
      </trkpt>
      <trkpt lat="43.6635" lon="3.72321">
        <ele>97.71</ele>
        <time>2016-05-22T11:58:59Z</time>
      </trkpt>
      <trkpt lat="43.66271" lon="3.72198">
        <ele>103.48</ele>
        <time>2016-05-22T11:59:06Z</time>
      </trkpt>
      <trkpt lat="43.66259" lon="3.72192">
        <ele>103.96</ele>
        <time>2016-05-22T11:59:07Z</time>
      </trkpt>
      <trkpt lat="43.66244" lon="3.72197">
        <ele>104.92</ele>
        <time>2016-05-22T11:59:08Z</time>
      </trkpt>
      <trkpt lat="43.66229" lon="3.72205">
        <ele>106.36</ele>
        <time>2016-05-22T11:59:09Z</time>
      </trkpt>
      <trkpt lat="43.66214" lon="3.72217">
        <ele>107.32</ele>
        <time>2016-05-22T11:59:10Z</time>
      </trkpt>
      <trkpt lat="43.66198" lon="3.72232">
        <ele>107.81</ele>
        <time>2016-05-22T11:59:11Z</time>
      </trkpt>
      <trkpt lat="43.66182" lon="3.72248">
        <ele>108.29</ele>
        <time>2016-05-22T11:59:12Z</time>
      </trkpt>
      <trkpt lat="43.66063" lon="3.72369">
        <ele>110.69</ele>
        <time>2016-05-22T11:59:20Z</time>
      </trkpt>
      <trkpt lat="43.66051" lon="3.72388">
        <ele>111.17</ele>
        <time>2016-05-22T11:59:21Z</time>
      </trkpt>
      <trkpt lat="43.6604" lon="3.7241">
        <ele>112.13</ele>
        <time>2016-05-22T11:59:22Z</time>
      </trkpt>
      <trkpt lat="43.65943" lon="3.7261">
        <ele>119.34</ele>
        <time>2016-05-22T11:59:31Z</time>
      </trkpt>
      <trkpt lat="43.65923" lon="3.72639">
        <ele>120.78</ele>
        <time>2016-05-22T11:59:33Z</time>
      </trkpt>
      <trkpt lat="43.6591" lon="3.72647">
        <ele>120.78</ele>
        <time>2016-05-22T11:59:34Z</time>
      </trkpt>
      <trkpt lat="43.65894" lon="3.72648">
        <ele>120.78</ele>
        <time>2016-05-22T11:59:35Z</time>
      </trkpt>
      <trkpt lat="43.65873" lon="3.72644">
        <ele>122.71</ele>
        <time>2016-05-22T11:59:36Z</time>
      </trkpt>
      <trkpt lat="43.65851" lon="3.72641">
        <ele>123.67</ele>
        <time>2016-05-22T11:59:37Z</time>
      </trkpt>
      <trkpt lat="43.65831" lon="3.72639">
        <ele>124.15</ele>
        <time>2016-05-22T11:59:38Z</time>
      </trkpt>
      <trkpt lat="43.65793" lon="3.72632">
        <ele>125.59</ele>
        <time>2016-05-22T11:59:40Z</time>
      </trkpt>
      <trkpt lat="43.65775" lon="3.72622">
        <ele>126.55</ele>
        <time>2016-05-22T11:59:41Z</time>
      </trkpt>
      <trkpt lat="43.65758" lon="3.72611">
        <ele>127.03</ele>
        <time>2016-05-22T11:59:42Z</time>
      </trkpt>
      <trkpt lat="43.65741" lon="3.72602">
        <ele>127.99</ele>
        <time>2016-05-22T11:59:43Z</time>
      </trkpt>
      <trkpt lat="43.65722" lon="3.72597">
        <ele>128.47</ele>
        <time>2016-05-22T11:59:44Z</time>
      </trkpt>
      <trkpt lat="43.65702" lon="3.72599">
        <ele>129.43</ele>
        <time>2016-05-22T11:59:45Z</time>
      </trkpt>
      <trkpt lat="43.65681" lon="3.72603">
        <ele>130.4</ele>
        <time>2016-05-22T11:59:46Z</time>
      </trkpt>
      <trkpt lat="43.65662" lon="3.72607">
        <ele>131.36</ele>
        <time>2016-05-22T11:59:47Z</time>
      </trkpt>
      <trkpt lat="43.65626" lon="3.72611">
        <ele>133.76</ele>
        <time>2016-05-22T11:59:49Z</time>
      </trkpt>
      <trkpt lat="43.65608" lon="3.72606">
        <ele>134.24</ele>
        <time>2016-05-22T11:59:50Z</time>
      </trkpt>
      <trkpt lat="43.65591" lon="3.72595">
        <ele>135.2</ele>
        <time>2016-05-22T11:59:51Z</time>
      </trkpt>
      <trkpt lat="43.65575" lon="3.72584">
        <ele>136.16</ele>
        <time>2016-05-22T11:59:52Z</time>
      </trkpt>
      <trkpt lat="43.65559" lon="3.72575">
        <ele>136.64</ele>
        <time>2016-05-22T11:59:53Z</time>
      </trkpt>
      <trkpt lat="43.65542" lon="3.7257">
        <ele>137.61</ele>
        <time>2016-05-22T11:59:54Z</time>
      </trkpt>
      <trkpt lat="43.65525" lon="3.7257">
        <ele>138.57</ele>
        <time>2016-05-22T11:59:55Z</time>
      </trkpt>
      <trkpt lat="43.65507" lon="3.72571">
        <ele>139.53</ele>
        <time>2016-05-22T11:59:56Z</time>
      </trkpt>
      <trkpt lat="43.65489" lon="3.72576">
        <ele>140.49</ele>
        <time>2016-05-22T11:59:57Z</time>
      </trkpt>
      <trkpt lat="43.65472" lon="3.72589">
        <ele>141.45</ele>
        <time>2016-05-22T11:59:58Z</time>
      </trkpt>
      <trkpt lat="43.65454" lon="3.72604">
        <ele>142.89</ele>
        <time>2016-05-22T11:59:59Z</time>
      </trkpt>
      <trkpt lat="43.65437" lon="3.7262">
        <ele>143.37</ele>
        <time>2016-05-22T12:00:00Z</time>
      </trkpt>
      <trkpt lat="43.65419" lon="3.72637">
        <ele>144.34</ele>
        <time>2016-05-22T12:00:01Z</time>
      </trkpt>
      <trkpt lat="43.654" lon="3.72651">
        <ele>145.3</ele>
        <time>2016-05-22T12:00:02Z</time>
      </trkpt>
      <trkpt lat="43.6538" lon="3.72662">
        <ele>146.26</ele>
        <time>2016-05-22T12:00:03Z</time>
      </trkpt>
      <trkpt lat="43.65359" lon="3.72669">
        <ele>147.7</ele>
        <time>2016-05-22T12:00:04Z</time>
      </trkpt>
      <trkpt lat="43.65278" lon="3.72665">
        <ele>152.51</ele>
        <time>2016-05-22T12:00:09Z</time>
      </trkpt>
      <trkpt lat="43.65271" lon="3.72645">
        <ele>153.47</ele>
        <time>2016-05-22T12:00:10Z</time>
      </trkpt>
      <trkpt lat="43.65264" lon="3.72626">
        <ele>154.91</ele>
        <time>2016-05-22T12:00:11Z</time>
      </trkpt>
      <trkpt lat="43.65255" lon="3.72607">
        <ele>155.39</ele>
        <time>2016-05-22T12:00:12Z</time>
      </trkpt>
      <trkpt lat="43.65241" lon="3.72592">
        <ele>156.35</ele>
        <time>2016-05-22T12:00:13Z</time>
      </trkpt>
      <trkpt lat="43.65223" lon="3.72581">
        <ele>156.83</ele>
        <time>2016-05-22T12:00:14Z</time>
      </trkpt>
      <trkpt lat="43.65203" lon="3.72575">
        <ele>158.27</ele>
        <time>2016-05-22T12:00:15Z</time>
      </trkpt>
      <trkpt lat="43.65182" lon="3.72573">
        <ele>158.75</ele>
        <time>2016-05-22T12:00:16Z</time>
      </trkpt>
      <trkpt lat="43.65162" lon="3.72577">
        <ele>160.2</ele>
        <time>2016-05-22T12:00:17Z</time>
      </trkpt>
      <trkpt lat="43.65144" lon="3.72586">
        <ele>161.16</ele>
        <time>2016-05-22T12:00:18Z</time>
      </trkpt>
      <trkpt lat="43.65126" lon="3.726">
        <ele>161.64</ele>
        <time>2016-05-22T12:00:19Z</time>
      </trkpt>
      <trkpt lat="43.65109" lon="3.7262">
        <ele>163.08</ele>
        <time>2016-05-22T12:00:20Z</time>
      </trkpt>
      <trkpt lat="43.65093" lon="3.72641">
        <ele>164.04</ele>
        <time>2016-05-22T12:00:21Z</time>
      </trkpt>
      <trkpt lat="43.65077" lon="3.72665">
        <ele>165.96</ele>
        <time>2016-05-22T12:00:22Z</time>
      </trkpt>
      <trkpt lat="43.64984" lon="3.72806">
        <ele>174.62</ele>
        <time>2016-05-22T12:00:27Z</time>
      </trkpt>
      <trkpt lat="43.64903" lon="3.72911">
        <ele>182.31</ele>
        <time>2016-05-22T12:00:32Z</time>
      </trkpt>
      <trkpt lat="43.64884" lon="3.72926">
        <ele>183.75</ele>
        <time>2016-05-22T12:00:33Z</time>
      </trkpt>
      <trkpt lat="43.64826" lon="3.72966">
        <ele>185.67</ele>
        <time>2016-05-22T12:00:36Z</time>
      </trkpt>
      <trkpt lat="43.64808" lon="3.72987">
        <ele>185.67</ele>
        <time>2016-05-22T12:00:37Z</time>
      </trkpt>
      <trkpt lat="43.64791" lon="3.7301">
        <ele>186.15</ele>
        <time>2016-05-22T12:00:38Z</time>
      </trkpt>
      <trkpt lat="43.64699" lon="3.7315">
        <ele>185.19</ele>
        <time>2016-05-22T12:00:45Z</time>
      </trkpt>
      <trkpt lat="43.64557" lon="3.73328">
        <ele>176.54</ele>
        <time>2016-05-22T12:00:54Z</time>
      </trkpt>
      <trkpt lat="43.64465" lon="3.73444">
        <ele>166.93</ele>
        <time>2016-05-22T12:00:59Z</time>
      </trkpt>
      <trkpt lat="43.6445" lon="3.73473">
        <ele>165</ele>
        <time>2016-05-22T12:01:00Z</time>
      </trkpt>
      <trkpt lat="43.64275" lon="3.7379">
        <ele>152.03</ele>
        <time>2016-05-22T12:01:11Z</time>
      </trkpt>
      <trkpt lat="43.64263" lon="3.73825">
        <ele>152.03</ele>
        <time>2016-05-22T12:01:12Z</time>
      </trkpt>
      <trkpt lat="43.64197" lon="3.74042">
        <ele>154.43</ele>
        <time>2016-05-22T12:01:19Z</time>
      </trkpt>
      <trkpt lat="43.64157" lon="3.74188">
        <ele>153.95</ele>
        <time>2016-05-22T12:01:26Z</time>
      </trkpt>
      <trkpt lat="43.64153" lon="3.742">
        <ele>153.95</ele>
        <time>2016-05-22T12:01:27Z</time>
      </trkpt>
      <trkpt lat="43.64147" lon="3.74208">
        <ele>153.95</ele>
        <time>2016-05-22T12:01:28Z</time>
      </trkpt>
      <trkpt lat="43.6414" lon="3.74209">
        <ele>153.47</ele>
        <time>2016-05-22T12:01:29Z</time>
      </trkpt>
      <trkpt lat="43.64133" lon="3.74203">
        <ele>153.47</ele>
        <time>2016-05-22T12:01:30Z</time>
      </trkpt>
      <trkpt lat="43.64124" lon="3.74193">
        <ele>152.99</ele>
        <time>2016-05-22T12:01:31Z</time>
      </trkpt>
      <trkpt lat="43.64117" lon="3.74177">
        <ele>152.51</ele>
        <time>2016-05-22T12:01:32Z</time>
      </trkpt>
      <trkpt lat="43.64113" lon="3.74156">
        <ele>151.54</ele>
        <time>2016-05-22T12:01:33Z</time>
      </trkpt>
      <trkpt lat="43.64112" lon="3.74132">
        <ele>151.06</ele>
        <time>2016-05-22T12:01:34Z</time>
      </trkpt>
      <trkpt lat="43.64117" lon="3.74109">
        <ele>151.06</ele>
        <time>2016-05-22T12:01:35Z</time>
      </trkpt>
      <trkpt lat="43.64121" lon="3.74083">
        <ele>151.06</ele>
        <time>2016-05-22T12:01:36Z</time>
      </trkpt>
      <trkpt lat="43.64121" lon="3.74055">
        <ele>150.58</ele>
        <time>2016-05-22T12:01:37Z</time>
      </trkpt>
      <trkpt lat="43.64117" lon="3.74025">
        <ele>150.58</ele>
        <time>2016-05-22T12:01:38Z</time>
      </trkpt>
      <trkpt lat="43.64112" lon="3.73995">
        <ele>150.1</ele>
        <time>2016-05-22T12:01:39Z</time>
      </trkpt>
      <trkpt lat="43.6406" lon="3.73799">
        <ele>147.7</ele>
        <time>2016-05-22T12:01:45Z</time>
      </trkpt>
      <trkpt lat="43.64031" lon="3.73584">
        <ele>144.82</ele>
        <time>2016-05-22T12:01:51Z</time>
      </trkpt>
      <trkpt lat="43.64024" lon="3.73482">
        <ele>143.37</ele>
        <time>2016-05-22T12:01:54Z</time>
      </trkpt>
      <trkpt lat="43.64028" lon="3.73446">
        <ele>142.89</ele>
        <time>2016-05-22T12:01:55Z</time>
      </trkpt>
      <trkpt lat="43.64033" lon="3.73412">
        <ele>142.41</ele>
        <time>2016-05-22T12:01:56Z</time>
      </trkpt>
      <trkpt lat="43.64037" lon="3.73378">
        <ele>141.93</ele>
        <time>2016-05-22T12:01:57Z</time>
      </trkpt>
      <trkpt lat="43.64039" lon="3.73343">
        <ele>141.45</ele>
        <time>2016-05-22T12:01:58Z</time>
      </trkpt>
      <trkpt lat="43.64037" lon="3.73308">
        <ele>141.45</ele>
        <time>2016-05-22T12:01:59Z</time>
      </trkpt>
      <trkpt lat="43.64034" lon="3.73275">
        <ele>140.49</ele>
        <time>2016-05-22T12:02:00Z</time>
      </trkpt>
      <trkpt lat="43.64033" lon="3.73208">
        <ele>139.53</ele>
        <time>2016-05-22T12:02:02Z</time>
      </trkpt>
      <trkpt lat="43.64037" lon="3.73171">
        <ele>139.05</ele>
        <time>2016-05-22T12:02:03Z</time>
      </trkpt>
      <trkpt lat="43.64054" lon="3.73035">
        <ele>137.61</ele>
        <time>2016-05-22T12:02:07Z</time>
      </trkpt>
      <trkpt lat="43.64054" lon="3.73001">
        <ele>137.13</ele>
        <time>2016-05-22T12:02:08Z</time>
      </trkpt>
      <trkpt lat="43.64053" lon="3.72935">
        <ele>136.16</ele>
        <time>2016-05-22T12:02:10Z</time>
      </trkpt>
      <trkpt lat="43.64058" lon="3.72902">
        <ele>135.68</ele>
        <time>2016-05-22T12:02:11Z</time>
      </trkpt>
      <trkpt lat="43.64066" lon="3.72869">
        <ele>135.2</ele>
        <time>2016-05-22T12:02:12Z</time>
      </trkpt>
      <trkpt lat="43.6408" lon="3.72805">
        <ele>134.72</ele>
        <time>2016-05-22T12:02:14Z</time>
      </trkpt>
      <trkpt lat="43.64084" lon="3.72772">
        <ele>134.24</ele>
        <time>2016-05-22T12:02:15Z</time>
      </trkpt>
      <trkpt lat="43.64126" lon="3.72535">
        <ele>131.84</ele>
        <time>2016-05-22T12:02:22Z</time>
      </trkpt>
      <trkpt lat="43.64197" lon="3.72251">
        <ele>129.92</ele>
        <time>2016-05-22T12:02:30Z</time>
      </trkpt>
      <trkpt lat="43.64287" lon="3.71809">
        <ele>132.32</ele>
        <time>2016-05-22T12:02:43Z</time>
      </trkpt>
      <trkpt lat="43.64319" lon="3.71665">
        <ele>133.28</ele>
        <time>2016-05-22T12:02:48Z</time>
      </trkpt>
      <trkpt lat="43.6433" lon="3.71641">
        <ele>133.28</ele>
        <time>2016-05-22T12:02:49Z</time>
      </trkpt>
      <trkpt lat="43.64343" lon="3.71619">
        <ele>133.28</ele>
        <time>2016-05-22T12:02:50Z</time>
      </trkpt>
      <trkpt lat="43.64358" lon="3.71601">
        <ele>132.8</ele>
        <time>2016-05-22T12:02:51Z</time>
      </trkpt>
      <trkpt lat="43.64374" lon="3.71585">
        <ele>132.8</ele>
        <time>2016-05-22T12:02:52Z</time>
      </trkpt>
      <trkpt lat="43.64403" lon="3.7155">
        <ele>132.8</ele>
        <time>2016-05-22T12:02:54Z</time>
      </trkpt>
      <trkpt lat="43.64415" lon="3.71529">
        <ele>132.8</ele>
        <time>2016-05-22T12:02:55Z</time>
      </trkpt>
      <trkpt lat="43.64423" lon="3.71505">
        <ele>132.32</ele>
        <time>2016-05-22T12:02:56Z</time>
      </trkpt>
      <trkpt lat="43.64426" lon="3.71478">
        <ele>131.84</ele>
        <time>2016-05-22T12:02:57Z</time>
      </trkpt>
      <trkpt lat="43.64425" lon="3.7145">
        <ele>131.36</ele>
        <time>2016-05-22T12:02:58Z</time>
      </trkpt>
      <trkpt lat="43.64419" lon="3.71423">
        <ele>131.36</ele>
        <time>2016-05-22T12:02:59Z</time>
      </trkpt>
      <trkpt lat="43.64408" lon="3.71397">
        <ele>131.36</ele>
        <time>2016-05-22T12:03:00Z</time>
      </trkpt>
      <trkpt lat="43.64398" lon="3.71372">
        <ele>131.36</ele>
        <time>2016-05-22T12:03:01Z</time>
      </trkpt>
      <trkpt lat="43.64382" lon="3.71322">
        <ele>130.4</ele>
        <time>2016-05-22T12:03:03Z</time>
      </trkpt>
      <trkpt lat="43.64379" lon="3.71295">
        <ele>130.4</ele>
        <time>2016-05-22T12:03:04Z</time>
      </trkpt>
      <trkpt lat="43.64378" lon="3.71265">
        <ele>129.92</ele>
        <time>2016-05-22T12:03:05Z</time>
      </trkpt>
      <trkpt lat="43.64379" lon="3.71233">
        <ele>129.43</ele>
        <time>2016-05-22T12:03:06Z</time>
      </trkpt>
      <trkpt lat="43.64382" lon="3.71202">
        <ele>128.47</ele>
        <time>2016-05-22T12:03:07Z</time>
      </trkpt>
      <trkpt lat="43.64386" lon="3.71171">
        <ele>127.51</ele>
        <time>2016-05-22T12:03:08Z</time>
      </trkpt>
      <trkpt lat="43.64402" lon="3.7103">
        <ele>124.15</ele>
        <time>2016-05-22T12:03:13Z</time>
      </trkpt>
      <trkpt lat="43.64408" lon="3.71007">
        <ele>123.19</ele>
        <time>2016-05-22T12:03:14Z</time>
      </trkpt>
      <trkpt lat="43.64418" lon="3.70986">
        <ele>122.22</ele>
        <time>2016-05-22T12:03:15Z</time>
      </trkpt>
      <trkpt lat="43.64432" lon="3.70967">
        <ele>122.22</ele>
        <time>2016-05-22T12:03:16Z</time>
      </trkpt>
      <trkpt lat="43.64446" lon="3.70948">
        <ele>121.74</ele>
        <time>2016-05-22T12:03:17Z</time>
      </trkpt>
      <trkpt lat="43.6446" lon="3.7093">
        <ele>120.78</ele>
        <time>2016-05-22T12:03:18Z</time>
      </trkpt>
      <trkpt lat="43.64474" lon="3.70911">
        <ele>120.3</ele>
        <time>2016-05-22T12:03:19Z</time>
      </trkpt>
      <trkpt lat="43.64488" lon="3.70889">
        <ele>119.34</ele>
        <time>2016-05-22T12:03:20Z</time>
      </trkpt>
      <trkpt lat="43.64501" lon="3.70866">
        <ele>118.38</ele>
        <time>2016-05-22T12:03:21Z</time>
      </trkpt>
      <trkpt lat="43.64576" lon="3.70657">
        <ele>110.21</ele>
        <time>2016-05-22T12:03:29Z</time>
      </trkpt>
      <trkpt lat="43.64615" lon="3.70534">
        <ele>109.73</ele>
        <time>2016-05-22T12:03:35Z</time>
      </trkpt>
      <trkpt lat="43.64664" lon="3.70435">
        <ele>110.21</ele>
        <time>2016-05-22T12:03:43Z</time>
      </trkpt>
      <trkpt lat="43.64705" lon="3.7035">
        <ele>112.61</ele>
        <time>2016-05-22T12:03:50Z</time>
      </trkpt>
      <trkpt lat="43.6474" lon="3.70278">
        <ele>114.53</ele>
        <time>2016-05-22T12:03:57Z</time>
      </trkpt>
      <trkpt lat="43.64737" lon="3.70271">
        <ele>114.53</ele>
        <time>2016-05-22T12:03:58Z</time>
      </trkpt>
      <trkpt lat="43.64732" lon="3.70264">
        <ele>114.53</ele>
        <time>2016-05-22T12:03:59Z</time>
      </trkpt>
      <trkpt lat="43.64724" lon="3.70255">
        <ele>115.01</ele>
        <time>2016-05-22T12:04:00Z</time>
      </trkpt>
      <trkpt lat="43.64717" lon="3.70244">
        <ele>116.46</ele>
        <time>2016-05-22T12:04:01Z</time>
      </trkpt>
      <trkpt lat="43.64711" lon="3.70231">
        <ele>117.42</ele>
        <time>2016-05-22T12:04:02Z</time>
      </trkpt>
      <trkpt lat="43.64707" lon="3.70217">
        <ele>117.42</ele>
        <time>2016-05-22T12:04:03Z</time>
      </trkpt>
      <trkpt lat="43.64704" lon="3.70203">
        <ele>117.42</ele>
        <time>2016-05-22T12:04:04Z</time>
      </trkpt>
      <trkpt lat="43.64701" lon="3.70189">
        <ele>116.94</ele>
        <time>2016-05-22T12:04:05Z</time>
      </trkpt>
      <trkpt lat="43.647" lon="3.70176">
        <ele>116.94</ele>
        <time>2016-05-22T12:04:06Z</time>
      </trkpt>
      <trkpt lat="43.64699" lon="3.70163">
        <ele>116.94</ele>
        <time>2016-05-22T12:04:07Z</time>
      </trkpt>
      <trkpt lat="43.6469" lon="3.70059">
        <ele>117.42</ele>
        <time>2016-05-22T12:04:16Z</time>
      </trkpt>
      <trkpt lat="43.64685" lon="3.69944">
        <ele>118.86</ele>
        <time>2016-05-22T12:04:24Z</time>
      </trkpt>
      <trkpt lat="43.6468" lon="3.69905">
        <ele>117.42</ele>
        <time>2016-05-22T12:04:30Z</time>
      </trkpt>
      <trkpt lat="43.6468" lon="3.69885">
        <ele>116.94</ele>
        <time>2016-05-22T12:04:35Z</time>
      </trkpt>
      <trkpt lat="43.64682" lon="3.69871">
        <ele>116.94</ele>
        <time>2016-05-22T12:04:36Z</time>
      </trkpt>
      <trkpt lat="43.64685" lon="3.69856">
        <ele>116.94</ele>
        <time>2016-05-22T12:04:37Z</time>
      </trkpt>
      <trkpt lat="43.64712" lon="3.69748">
        <ele>119.82</ele>
        <time>2016-05-22T12:04:46Z</time>
      </trkpt>
      <trkpt lat="43.64716" lon="3.69734">
        <ele>120.78</ele>
        <time>2016-05-22T12:04:50Z</time>
      </trkpt>
      <trkpt lat="43.64715" lon="3.6973">
        <ele>120.78</ele>
        <time>2016-05-22T12:04:51Z</time>
      </trkpt>
      <trkpt lat="43.64711" lon="3.69728">
        <ele>120.78</ele>
        <time>2016-05-22T12:04:52Z</time>
      </trkpt>
      <trkpt lat="43.64702" lon="3.69723">
        <ele>121.26</ele>
        <time>2016-05-22T12:04:53Z</time>
      </trkpt>
      <trkpt lat="43.64692" lon="3.69719">
        <ele>120.78</ele>
        <time>2016-05-22T12:04:54Z</time>
      </trkpt>
      <trkpt lat="43.64682" lon="3.69714">
        <ele>120.78</ele>
        <time>2016-05-22T12:04:55Z</time>
      </trkpt>
      <trkpt lat="43.6467" lon="3.69711">
        <ele>120.78</ele>
        <time>2016-05-22T12:04:56Z</time>
      </trkpt>
      <trkpt lat="43.64658" lon="3.69707">
        <ele>120.78</ele>
        <time>2016-05-22T12:04:57Z</time>
      </trkpt>
      <trkpt lat="43.64576" lon="3.69688">
        <ele>120.78</ele>
        <time>2016-05-22T12:05:05Z</time>
      </trkpt>
      <trkpt lat="43.64473" lon="3.69648">
        <ele>120.78</ele>
        <time>2016-05-22T12:05:14Z</time>
      </trkpt>
      <trkpt lat="43.64364" lon="3.69614">
        <ele>118.86</ele>
        <time>2016-05-22T12:05:24Z</time>
      </trkpt>
      <trkpt lat="43.64305" lon="3.69593">
        <ele>119.34</ele>
        <time>2016-05-22T12:05:30Z</time>
      </trkpt>
      <trkpt lat="43.64294" lon="3.69589">
        <ele>119.34</ele>
        <time>2016-05-22T12:05:31Z</time>
      </trkpt>
      <trkpt lat="43.64281" lon="3.69587">
        <ele>119.82</ele>
        <time>2016-05-22T12:05:32Z</time>
      </trkpt>
      <trkpt lat="43.64153" lon="3.69545">
        <ele>124.15</ele>
        <time>2016-05-22T12:05:41Z</time>
      </trkpt>
      <trkpt lat="43.6412" lon="3.69531">
        <ele>125.11</ele>
        <time>2016-05-22T12:05:44Z</time>
      </trkpt>
      <trkpt lat="43.64112" lon="3.69525">
        <ele>125.59</ele>
        <time>2016-05-22T12:05:45Z</time>
      </trkpt>
      <trkpt lat="43.64103" lon="3.69519">
        <ele>125.59</ele>
        <time>2016-05-22T12:05:46Z</time>
      </trkpt>
      <trkpt lat="43.64093" lon="3.69519">
        <ele>126.07</ele>
        <time>2016-05-22T12:05:47Z</time>
      </trkpt>
      <trkpt lat="43.64082" lon="3.69521">
        <ele>126.07</ele>
        <time>2016-05-22T12:05:48Z</time>
      </trkpt>
      <trkpt lat="43.6407" lon="3.69523">
        <ele>126.07</ele>
        <time>2016-05-22T12:05:49Z</time>
      </trkpt>
      <trkpt lat="43.64057" lon="3.69522">
        <ele>126.07</ele>
        <time>2016-05-22T12:05:50Z</time>
      </trkpt>
      <trkpt lat="43.64044" lon="3.69521">
        <ele>126.07</ele>
        <time>2016-05-22T12:05:51Z</time>
      </trkpt>
      <trkpt lat="43.64029" lon="3.69521">
        <ele>125.59</ele>
        <time>2016-05-22T12:05:52Z</time>
      </trkpt>
      <trkpt lat="43.63942" lon="3.69525">
        <ele>124.63</ele>
        <time>2016-05-22T12:05:57Z</time>
      </trkpt>
      <trkpt lat="43.63923" lon="3.69521">
        <ele>124.63</ele>
        <time>2016-05-22T12:05:58Z</time>
      </trkpt>
      <trkpt lat="43.63746" lon="3.69452">
        <ele>123.67</ele>
        <time>2016-05-22T12:06:07Z</time>
      </trkpt>
      <trkpt lat="43.63629" lon="3.69413">
        <ele>124.15</ele>
        <time>2016-05-22T12:06:14Z</time>
      </trkpt>
      <trkpt lat="43.63496" lon="3.69316">
        <ele>128.47</ele>
        <time>2016-05-22T12:06:24Z</time>
      </trkpt>
      <trkpt lat="43.63483" lon="3.69306">
        <ele>128.47</ele>
        <time>2016-05-22T12:06:25Z</time>
      </trkpt>
      <trkpt lat="43.63469" lon="3.69298">
        <ele>128.47</ele>
        <time>2016-05-22T12:06:26Z</time>
      </trkpt>
      <trkpt lat="43.63455" lon="3.69292">
        <ele>127.99</ele>
        <time>2016-05-22T12:06:27Z</time>
      </trkpt>
      <trkpt lat="43.6344" lon="3.69288">
        <ele>127.99</ele>
        <time>2016-05-22T12:06:28Z</time>
      </trkpt>
      <trkpt lat="43.63424" lon="3.69286">
        <ele>127.99</ele>
        <time>2016-05-22T12:06:29Z</time>
      </trkpt>
      <trkpt lat="43.63405" lon="3.6929">
        <ele>127.99</ele>
        <time>2016-05-22T12:06:30Z</time>
      </trkpt>
      <trkpt lat="43.63382" lon="3.69296">
        <ele>127.99</ele>
        <time>2016-05-22T12:06:31Z</time>
      </trkpt>
      <trkpt lat="43.63359" lon="3.69302">
        <ele>127.99</ele>
        <time>2016-05-22T12:06:32Z</time>
      </trkpt>
      <trkpt lat="43.63183" lon="3.69337">
        <ele>128.95</ele>
        <time>2016-05-22T12:06:40Z</time>
      </trkpt>
      <trkpt lat="43.63077" lon="3.69349">
        <ele>129.92</ele>
        <time>2016-05-22T12:06:47Z</time>
      </trkpt>
      <trkpt lat="43.63058" lon="3.69347">
        <ele>130.4</ele>
        <time>2016-05-22T12:06:49Z</time>
      </trkpt>
      <trkpt lat="43.6305" lon="3.69338">
        <ele>130.4</ele>
        <time>2016-05-22T12:06:50Z</time>
      </trkpt>
      <trkpt lat="43.63041" lon="3.69329">
        <ele>130.88</ele>
        <time>2016-05-22T12:06:51Z</time>
      </trkpt>
      <trkpt lat="43.63032" lon="3.69323">
        <ele>130.88</ele>
        <time>2016-05-22T12:06:52Z</time>
      </trkpt>
      <trkpt lat="43.6302" lon="3.69321">
        <ele>131.36</ele>
        <time>2016-05-22T12:06:53Z</time>
      </trkpt>
      <trkpt lat="43.63009" lon="3.69326">
        <ele>131.84</ele>
        <time>2016-05-22T12:06:54Z</time>
      </trkpt>
      <trkpt lat="43.63001" lon="3.69337">
        <ele>131.84</ele>
        <time>2016-05-22T12:06:55Z</time>
      </trkpt>
      <trkpt lat="43.62995" lon="3.69352">
        <ele>131.84</ele>
        <time>2016-05-22T12:06:56Z</time>
      </trkpt>
      <trkpt lat="43.62993" lon="3.69368">
        <ele>130.88</ele>
        <time>2016-05-22T12:06:57Z</time>
      </trkpt>
      <trkpt lat="43.63001" lon="3.69385">
        <ele>130.88</ele>
        <time>2016-05-22T12:06:58Z</time>
      </trkpt>
      <trkpt lat="43.63008" lon="3.69397">
        <ele>130.4</ele>
        <time>2016-05-22T12:06:59Z</time>
      </trkpt>
      <trkpt lat="43.63017" lon="3.69408">
        <ele>129.92</ele>
        <time>2016-05-22T12:07:00Z</time>
      </trkpt>
      <trkpt lat="43.63026" lon="3.69422">
        <ele>128.47</ele>
        <time>2016-05-22T12:07:01Z</time>
      </trkpt>
      <trkpt lat="43.63031" lon="3.69441">
        <ele>127.99</ele>
        <time>2016-05-22T12:07:02Z</time>
      </trkpt>
      <trkpt lat="43.63031" lon="3.69466">
        <ele>128.47</ele>
        <time>2016-05-22T12:07:03Z</time>
      </trkpt>
      <trkpt lat="43.63027" lon="3.69494">
        <ele>128.47</ele>
        <time>2016-05-22T12:07:04Z</time>
      </trkpt>
      <trkpt lat="43.6302" lon="3.69522">
        <ele>128.95</ele>
        <time>2016-05-22T12:07:05Z</time>
      </trkpt>
      <trkpt lat="43.63012" lon="3.69549">
        <ele>129.92</ele>
        <time>2016-05-22T12:07:06Z</time>
      </trkpt>
      <trkpt lat="43.63004" lon="3.69576">
        <ele>130.88</ele>
        <time>2016-05-22T12:07:07Z</time>
      </trkpt>
      <trkpt lat="43.62984" lon="3.69697">
        <ele>132.32</ele>
        <time>2016-05-22T12:07:11Z</time>
      </trkpt>
      <trkpt lat="43.62988" lon="3.6973">
        <ele>132.8</ele>
        <time>2016-05-22T12:07:12Z</time>
      </trkpt>
      <trkpt lat="43.62993" lon="3.69764">
        <ele>133.28</ele>
        <time>2016-05-22T12:07:13Z</time>
      </trkpt>
      <trkpt lat="43.63001" lon="3.69797">
        <ele>133.28</ele>
        <time>2016-05-22T12:07:14Z</time>
      </trkpt>
      <trkpt lat="43.63009" lon="3.6983">
        <ele>133.28</ele>
        <time>2016-05-22T12:07:15Z</time>
      </trkpt>
      <trkpt lat="43.63067" lon="3.70068">
        <ele>133.76</ele>
        <time>2016-05-22T12:07:23Z</time>
      </trkpt>
      <trkpt lat="43.63112" lon="3.70255">
        <ele>134.72</ele>
        <time>2016-05-22T12:07:31Z</time>
      </trkpt>
      <trkpt lat="43.63118" lon="3.70283">
        <ele>134.24</ele>
        <time>2016-05-22T12:07:33Z</time>
      </trkpt>
      <trkpt lat="43.63118" lon="3.70292">
        <ele>134.24</ele>
        <time>2016-05-22T12:07:34Z</time>
      </trkpt>
      <trkpt lat="43.63115" lon="3.70302">
        <ele>134.24</ele>
        <time>2016-05-22T12:07:35Z</time>
      </trkpt>
      <trkpt lat="43.63106" lon="3.70308">
        <ele>133.76</ele>
        <time>2016-05-22T12:07:36Z</time>
      </trkpt>
      <trkpt lat="43.63097" lon="3.70312">
        <ele>133.76</ele>
        <time>2016-05-22T12:07:37Z</time>
      </trkpt>
      <trkpt lat="43.63086" lon="3.70312">
        <ele>134.24</ele>
        <time>2016-05-22T12:07:38Z</time>
      </trkpt>
      <trkpt lat="43.63076" lon="3.70311">
        <ele>135.2</ele>
        <time>2016-05-22T12:07:39Z</time>
      </trkpt>
      <trkpt lat="43.63068" lon="3.7031">
        <ele>135.68</ele>
        <time>2016-05-22T12:07:40Z</time>
      </trkpt>
      <trkpt lat="43.63062" lon="3.70309">
        <ele>135.68</ele>
        <time>2016-05-22T12:07:41Z</time>
      </trkpt>
      <trkpt lat="43.63049" lon="3.70306">
        <ele>136.64</ele>
        <time>2016-05-22T12:07:44Z</time>
      </trkpt>
      <trkpt lat="43.63033" lon="3.703">
        <ele>137.13</ele>
        <time>2016-05-22T12:07:48Z</time>
      </trkpt>
      <trkpt lat="43.63031" lon="3.70302">
        <ele>137.61</ele>
        <time>2016-05-22T12:07:49Z</time>
      </trkpt>
      <trkpt lat="43.6303" lon="3.70304">
        <ele>137.61</ele>
        <time>2016-05-22T12:07:50Z</time>
      </trkpt>
      <trkpt lat="43.63031" lon="3.70305">
        <ele>138.09</ele>
        <time>2016-05-22T12:08:04Z</time>
      </trkpt>
      <trkpt lat="43.63033" lon="3.70304">
        <ele>138.57</ele>
        <time>2016-05-22T12:11:36Z</time>
      </trkpt>
      <trkpt lat="43.63033" lon="3.70303">
        <ele>137.13</ele>
        <time>2016-05-22T12:17:21Z</time>
      </trkpt>
      <trkpt lat="43.63034" lon="3.70303">
        <ele>137.13</ele>
        <time>2016-05-22T12:18:21Z</time>
      </trkpt>
      <trkpt lat="43.63032" lon="3.70305">
        <ele>138.57</ele>
        <time>2016-05-22T12:21:31Z</time>
      </trkpt>
      <trkpt lat="43.6303" lon="3.70306">
        <ele>138.57</ele>
        <time>2016-05-22T12:21:32Z</time>
      </trkpt>
      <trkpt lat="43.63021" lon="3.70309">
        <ele>138.57</ele>
        <time>2016-05-22T12:21:33Z</time>
      </trkpt>
      <trkpt lat="43.6301" lon="3.70309">
        <ele>139.05</ele>
        <time>2016-05-22T12:21:34Z</time>
      </trkpt>
      <trkpt lat="43.62997" lon="3.70308">
        <ele>139.53</ele>
        <time>2016-05-22T12:21:35Z</time>
      </trkpt>
      <trkpt lat="43.62903" lon="3.70328">
        <ele>145.3</ele>
        <time>2016-05-22T12:21:41Z</time>
      </trkpt>
      <trkpt lat="43.62764" lon="3.70408">
        <ele>152.99</ele>
        <time>2016-05-22T12:21:49Z</time>
      </trkpt>
      <trkpt lat="43.62574" lon="3.70518">
        <ele>153.95</ele>
        <time>2016-05-22T12:21:58Z</time>
      </trkpt>
      <trkpt lat="43.62554" lon="3.70523">
        <ele>154.43</ele>
        <time>2016-05-22T12:21:59Z</time>
      </trkpt>
      <trkpt lat="43.62326" lon="3.70576">
        <ele>157.31</ele>
        <time>2016-05-22T12:22:10Z</time>
      </trkpt>
      <trkpt lat="43.62308" lon="3.7059">
        <ele>157.79</ele>
        <time>2016-05-22T12:22:11Z</time>
      </trkpt>
      <trkpt lat="43.62294" lon="3.70608">
        <ele>158.27</ele>
        <time>2016-05-22T12:22:12Z</time>
      </trkpt>
      <trkpt lat="43.6228" lon="3.70629">
        <ele>158.27</ele>
        <time>2016-05-22T12:22:13Z</time>
      </trkpt>
      <trkpt lat="43.62266" lon="3.70651">
        <ele>158.75</ele>
        <time>2016-05-22T12:22:14Z</time>
      </trkpt>
      <trkpt lat="43.62128" lon="3.70872">
        <ele>164.52</ele>
        <time>2016-05-22T12:22:24Z</time>
      </trkpt>
      <trkpt lat="43.6211" lon="3.70884">
        <ele>165</ele>
        <time>2016-05-22T12:22:25Z</time>
      </trkpt>
      <trkpt lat="43.62092" lon="3.70894">
        <ele>165.96</ele>
        <time>2016-05-22T12:22:26Z</time>
      </trkpt>
      <trkpt lat="43.61945" lon="3.70936">
        <ele>172.21</ele>
        <time>2016-05-22T12:22:33Z</time>
      </trkpt>
      <trkpt lat="43.61902" lon="3.70942">
        <ele>174.14</ele>
        <time>2016-05-22T12:22:35Z</time>
      </trkpt>
      <trkpt lat="43.61879" lon="3.70941">
        <ele>174.62</ele>
        <time>2016-05-22T12:22:36Z</time>
      </trkpt>
      <trkpt lat="43.61711" lon="3.70913">
        <ele>181.83</ele>
        <time>2016-05-22T12:22:44Z</time>
      </trkpt>
      <trkpt lat="43.61691" lon="3.70916">
        <ele>182.31</ele>
        <time>2016-05-22T12:22:45Z</time>
      </trkpt>
      <trkpt lat="43.61671" lon="3.70926">
        <ele>182.79</ele>
        <time>2016-05-22T12:22:46Z</time>
      </trkpt>
      <trkpt lat="43.61467" lon="3.7104">
        <ele>191.92</ele>
        <time>2016-05-22T12:22:56Z</time>
      </trkpt>
      <trkpt lat="43.61384" lon="3.7109">
        <ele>192.88</ele>
        <time>2016-05-22T12:23:00Z</time>
      </trkpt>
      <trkpt lat="43.61365" lon="3.71106">
        <ele>192.88</ele>
        <time>2016-05-22T12:23:01Z</time>
      </trkpt>
      <trkpt lat="43.61198" lon="3.71295">
        <ele>197.69</ele>
        <time>2016-05-22T12:23:11Z</time>
      </trkpt>
      <trkpt lat="43.61188" lon="3.7132">
        <ele>198.17</ele>
        <time>2016-05-22T12:23:12Z</time>
      </trkpt>
      <trkpt lat="43.6118" lon="3.71348">
        <ele>198.17</ele>
        <time>2016-05-22T12:23:13Z</time>
      </trkpt>
      <trkpt lat="43.61108" lon="3.71591">
        <ele>200.09</ele>
        <time>2016-05-22T12:23:22Z</time>
      </trkpt>
      <trkpt lat="43.61099" lon="3.71609">
        <ele>200.09</ele>
        <time>2016-05-22T12:23:23Z</time>
      </trkpt>
      <trkpt lat="43.61087" lon="3.71624">
        <ele>200.09</ele>
        <time>2016-05-22T12:23:24Z</time>
      </trkpt>
      <trkpt lat="43.61074" lon="3.71633">
        <ele>200.09</ele>
        <time>2016-05-22T12:23:25Z</time>
      </trkpt>
      <trkpt lat="43.61059" lon="3.71639">
        <ele>200.09</ele>
        <time>2016-05-22T12:23:26Z</time>
      </trkpt>
      <trkpt lat="43.61045" lon="3.71647">
        <ele>200.09</ele>
        <time>2016-05-22T12:23:27Z</time>
      </trkpt>
      <trkpt lat="43.61033" lon="3.71659">
        <ele>200.09</ele>
        <time>2016-05-22T12:23:28Z</time>
      </trkpt>
      <trkpt lat="43.61026" lon="3.71678">
        <ele>200.09</ele>
        <time>2016-05-22T12:23:29Z</time>
      </trkpt>
      <trkpt lat="43.6102" lon="3.717">
        <ele>200.57</ele>
        <time>2016-05-22T12:23:30Z</time>
      </trkpt>
      <trkpt lat="43.61015" lon="3.71725">
        <ele>200.57</ele>
        <time>2016-05-22T12:23:31Z</time>
      </trkpt>
      <trkpt lat="43.61009" lon="3.71751">
        <ele>201.53</ele>
        <time>2016-05-22T12:23:32Z</time>
      </trkpt>
      <trkpt lat="43.61004" lon="3.71802">
        <ele>202.01</ele>
        <time>2016-05-22T12:23:34Z</time>
      </trkpt>
      <trkpt lat="43.61005" lon="3.71828">
        <ele>202.01</ele>
        <time>2016-05-22T12:23:35Z</time>
      </trkpt>
      <trkpt lat="43.61007" lon="3.71854">
        <ele>201.53</ele>
        <time>2016-05-22T12:23:36Z</time>
      </trkpt>
      <trkpt lat="43.6101" lon="3.7188">
        <ele>201.05</ele>
        <time>2016-05-22T12:23:37Z</time>
      </trkpt>
      <trkpt lat="43.61011" lon="3.71908">
        <ele>201.05</ele>
        <time>2016-05-22T12:23:38Z</time>
      </trkpt>
      <trkpt lat="43.61011" lon="3.71937">
        <ele>200.57</ele>
        <time>2016-05-22T12:23:39Z</time>
      </trkpt>
      <trkpt lat="43.60983" lon="3.72132">
        <ele>198.65</ele>
        <time>2016-05-22T12:23:46Z</time>
      </trkpt>
      <trkpt lat="43.60962" lon="3.72228">
        <ele>196.73</ele>
        <time>2016-05-22T12:23:50Z</time>
      </trkpt>
      <trkpt lat="43.60955" lon="3.72248">
        <ele>196.25</ele>
        <time>2016-05-22T12:23:51Z</time>
      </trkpt>
      <trkpt lat="43.60946" lon="3.72261">
        <ele>195.28</ele>
        <time>2016-05-22T12:23:52Z</time>
      </trkpt>
      <trkpt lat="43.6092" lon="3.72278">
        <ele>193.84</ele>
        <time>2016-05-22T12:23:54Z</time>
      </trkpt>
      <trkpt lat="43.60903" lon="3.72277">
        <ele>192.88</ele>
        <time>2016-05-22T12:23:55Z</time>
      </trkpt>
      <trkpt lat="43.60886" lon="3.72271">
        <ele>192.4</ele>
        <time>2016-05-22T12:23:56Z</time>
      </trkpt>
      <trkpt lat="43.60872" lon="3.72262">
        <ele>191.92</ele>
        <time>2016-05-22T12:23:57Z</time>
      </trkpt>
      <trkpt lat="43.60859" lon="3.72252">
        <ele>190.96</ele>
        <time>2016-05-22T12:23:58Z</time>
      </trkpt>
      <trkpt lat="43.60847" lon="3.72237">
        <ele>190.48</ele>
        <time>2016-05-22T12:23:59Z</time>
      </trkpt>
      <trkpt lat="43.60836" lon="3.72222">
        <ele>189.52</ele>
        <time>2016-05-22T12:24:00Z</time>
      </trkpt>
      <trkpt lat="43.60823" lon="3.7221">
        <ele>189.04</ele>
        <time>2016-05-22T12:24:01Z</time>
      </trkpt>
      <trkpt lat="43.60809" lon="3.72202">
        <ele>188.08</ele>
        <time>2016-05-22T12:24:02Z</time>
      </trkpt>
      <trkpt lat="43.60793" lon="3.72202">
        <ele>187.59</ele>
        <time>2016-05-22T12:24:03Z</time>
      </trkpt>
      <trkpt lat="43.60776" lon="3.72206">
        <ele>186.63</ele>
        <time>2016-05-22T12:24:04Z</time>
      </trkpt>
      <trkpt lat="43.60758" lon="3.72215">
        <ele>187.11</ele>
        <time>2016-05-22T12:24:05Z</time>
      </trkpt>
      <trkpt lat="43.60743" lon="3.72226">
        <ele>186.15</ele>
        <time>2016-05-22T12:24:06Z</time>
      </trkpt>
      <trkpt lat="43.60727" lon="3.72239">
        <ele>183.75</ele>
        <time>2016-05-22T12:24:07Z</time>
      </trkpt>
      <trkpt lat="43.60719" lon="3.72261">
        <ele>181.83</ele>
        <time>2016-05-22T12:24:08Z</time>
      </trkpt>
      <trkpt lat="43.6071" lon="3.72282">
        <ele>179.42</ele>
        <time>2016-05-22T12:24:09Z</time>
      </trkpt>
      <trkpt lat="43.60703" lon="3.72305">
        <ele>177.98</ele>
        <time>2016-05-22T12:24:10Z</time>
      </trkpt>
      <trkpt lat="43.60699" lon="3.72329">
        <ele>177.98</ele>
        <time>2016-05-22T12:24:11Z</time>
      </trkpt>
      <trkpt lat="43.60698" lon="3.72354">
        <ele>176.06</ele>
        <time>2016-05-22T12:24:12Z</time>
      </trkpt>
      <trkpt lat="43.60699" lon="3.7238">
        <ele>174.14</ele>
        <time>2016-05-22T12:24:13Z</time>
      </trkpt>
      <trkpt lat="43.60704" lon="3.7241">
        <ele>173.66</ele>
        <time>2016-05-22T12:24:14Z</time>
      </trkpt>
      <trkpt lat="43.6071" lon="3.72438">
        <ele>173.17</ele>
        <time>2016-05-22T12:24:15Z</time>
      </trkpt>
      <trkpt lat="43.60717" lon="3.72465">
        <ele>172.21</ele>
        <time>2016-05-22T12:24:16Z</time>
      </trkpt>
      <trkpt lat="43.60764" lon="3.72606">
        <ele>166.93</ele>
        <time>2016-05-22T12:24:22Z</time>
      </trkpt>
      <trkpt lat="43.60768" lon="3.7263">
        <ele>166.45</ele>
        <time>2016-05-22T12:24:23Z</time>
      </trkpt>
      <trkpt lat="43.6077" lon="3.72655">
        <ele>165.48</ele>
        <time>2016-05-22T12:24:24Z</time>
      </trkpt>
      <trkpt lat="43.6077" lon="3.72681">
        <ele>164.52</ele>
        <time>2016-05-22T12:24:25Z</time>
      </trkpt>
      <trkpt lat="43.60768" lon="3.72708">
        <ele>164.04</ele>
        <time>2016-05-22T12:24:26Z</time>
      </trkpt>
      <trkpt lat="43.60766" lon="3.72733">
        <ele>163.08</ele>
        <time>2016-05-22T12:24:27Z</time>
      </trkpt>
      <trkpt lat="43.60726" lon="3.72923">
        <ele>157.31</ele>
        <time>2016-05-22T12:24:34Z</time>
      </trkpt>
      <trkpt lat="43.60722" lon="3.72953">
        <ele>156.35</ele>
        <time>2016-05-22T12:24:35Z</time>
      </trkpt>
      <trkpt lat="43.60704" lon="3.73154">
        <ele>148.66</ele>
        <time>2016-05-22T12:24:43Z</time>
      </trkpt>
      <trkpt lat="43.6066" lon="3.73341">
        <ele>142.41</ele>
        <time>2016-05-22T12:24:52Z</time>
      </trkpt>
      <trkpt lat="43.60636" lon="3.73434">
        <ele>140.01</ele>
        <time>2016-05-22T12:24:59Z</time>
      </trkpt>
      <trkpt lat="43.60631" lon="3.73446">
        <ele>139.53</ele>
        <time>2016-05-22T12:25:00Z</time>
      </trkpt>
      <trkpt lat="43.60626" lon="3.73457">
        <ele>139.53</ele>
        <time>2016-05-22T12:25:01Z</time>
      </trkpt>
      <trkpt lat="43.60617" lon="3.73462">
        <ele>139.05</ele>
        <time>2016-05-22T12:25:02Z</time>
      </trkpt>
      <trkpt lat="43.60607" lon="3.73461">
        <ele>138.57</ele>
        <time>2016-05-22T12:25:03Z</time>
      </trkpt>
      <trkpt lat="43.60596" lon="3.73459">
        <ele>138.09</ele>
        <time>2016-05-22T12:25:04Z</time>
      </trkpt>
      <trkpt lat="43.60584" lon="3.73455">
        <ele>138.09</ele>
        <time>2016-05-22T12:25:05Z</time>
      </trkpt>
      <trkpt lat="43.60572" lon="3.73452">
        <ele>138.09</ele>
        <time>2016-05-22T12:25:06Z</time>
      </trkpt>
      <trkpt lat="43.6054" lon="3.73446">
        <ele>137.13</ele>
        <time>2016-05-22T12:25:09Z</time>
      </trkpt>
      <trkpt lat="43.60531" lon="3.73447">
        <ele>137.13</ele>
        <time>2016-05-22T12:25:10Z</time>
      </trkpt>
      <trkpt lat="43.60524" lon="3.73453">
        <ele>137.13</ele>
        <time>2016-05-22T12:25:11Z</time>
      </trkpt>
      <trkpt lat="43.60518" lon="3.73463">
        <ele>136.16</ele>
        <time>2016-05-22T12:25:12Z</time>
      </trkpt>
      <trkpt lat="43.60512" lon="3.73472">
        <ele>136.16</ele>
        <time>2016-05-22T12:25:13Z</time>
      </trkpt>
      <trkpt lat="43.60508" lon="3.73483">
        <ele>135.68</ele>
        <time>2016-05-22T12:25:14Z</time>
      </trkpt>
      <trkpt lat="43.60505" lon="3.73494">
        <ele>134.72</ele>
        <time>2016-05-22T12:25:15Z</time>
      </trkpt>
      <trkpt lat="43.60504" lon="3.73506">
        <ele>134.24</ele>
        <time>2016-05-22T12:25:16Z</time>
      </trkpt>
      <trkpt lat="43.60502" lon="3.73518">
        <ele>134.24</ele>
        <time>2016-05-22T12:25:17Z</time>
      </trkpt>
      <trkpt lat="43.60501" lon="3.73526">
        <ele>134.24</ele>
        <time>2016-05-22T12:25:18Z</time>
      </trkpt>
      <trkpt lat="43.605" lon="3.73544">
        <ele>137.13</ele>
        <time>2016-05-22T12:25:24Z</time>
      </trkpt>
      <trkpt lat="43.605" lon="3.73608">
        <ele>136.64</ele>
        <time>2016-05-22T12:25:30Z</time>
      </trkpt>
      <trkpt lat="43.605" lon="3.73663">
        <ele>136.16</ele>
        <time>2016-05-22T12:25:37Z</time>
      </trkpt>
      <trkpt lat="43.60499" lon="3.73692">
        <ele>134.24</ele>
        <time>2016-05-22T12:25:42Z</time>
      </trkpt>
      <trkpt lat="43.60497" lon="3.73707">
        <ele>133.76</ele>
        <time>2016-05-22T12:25:43Z</time>
      </trkpt>
      <trkpt lat="43.60475" lon="3.73889">
        <ele>123.19</ele>
        <time>2016-05-22T12:25:55Z</time>
      </trkpt>
      <trkpt lat="43.60472" lon="3.73901">
        <ele>122.22</ele>
        <time>2016-05-22T12:25:56Z</time>
      </trkpt>
      <trkpt lat="43.60467" lon="3.73913">
        <ele>121.26</ele>
        <time>2016-05-22T12:25:57Z</time>
      </trkpt>
      <trkpt lat="43.60461" lon="3.73923">
        <ele>120.78</ele>
        <time>2016-05-22T12:25:58Z</time>
      </trkpt>
      <trkpt lat="43.60453" lon="3.73931">
        <ele>119.82</ele>
        <time>2016-05-22T12:25:59Z</time>
      </trkpt>
      <trkpt lat="43.60445" lon="3.73938">
        <ele>119.82</ele>
        <time>2016-05-22T12:26:00Z</time>
      </trkpt>
      <trkpt lat="43.60435" lon="3.73941">
        <ele>120.3</ele>
        <time>2016-05-22T12:26:01Z</time>
      </trkpt>
      <trkpt lat="43.60424" lon="3.73943">
        <ele>119.82</ele>
        <time>2016-05-22T12:26:02Z</time>
      </trkpt>
      <trkpt lat="43.60412" lon="3.73945">
        <ele>120.3</ele>
        <time>2016-05-22T12:26:03Z</time>
      </trkpt>
      <trkpt lat="43.60398" lon="3.73948">
        <ele>119.82</ele>
        <time>2016-05-22T12:26:04Z</time>
      </trkpt>
      <trkpt lat="43.60346" lon="3.73957">
        <ele>117.9</ele>
        <time>2016-05-22T12:26:08Z</time>
      </trkpt>
      <trkpt lat="43.60335" lon="3.73956">
        <ele>117.42</ele>
        <time>2016-05-22T12:26:09Z</time>
      </trkpt>
      <trkpt lat="43.60323" lon="3.73952">
        <ele>116.94</ele>
        <time>2016-05-22T12:26:10Z</time>
      </trkpt>
      <trkpt lat="43.60312" lon="3.73945">
        <ele>116.46</ele>
        <time>2016-05-22T12:26:11Z</time>
      </trkpt>
      <trkpt lat="43.60302" lon="3.73939">
        <ele>115.5</ele>
        <time>2016-05-22T12:26:12Z</time>
      </trkpt>
      <trkpt lat="43.60218" lon="3.73904">
        <ele>110.21</ele>
        <time>2016-05-22T12:26:20Z</time>
      </trkpt>
      <trkpt lat="43.60206" lon="3.73905">
        <ele>110.69</ele>
        <time>2016-05-22T12:26:21Z</time>
      </trkpt>
      <trkpt lat="43.60196" lon="3.73908">
        <ele>111.17</ele>
        <time>2016-05-22T12:26:22Z</time>
      </trkpt>
      <trkpt lat="43.60099" lon="3.73948">
        <ele>115.98</ele>
        <time>2016-05-22T12:26:30Z</time>
      </trkpt>
      <trkpt lat="43.6009" lon="3.73952">
        <ele>116.46</ele>
        <time>2016-05-22T12:26:31Z</time>
      </trkpt>
      <trkpt lat="43.60082" lon="3.73953">
        <ele>117.42</ele>
        <time>2016-05-22T12:26:32Z</time>
      </trkpt>
      <trkpt lat="43.60074" lon="3.73952">
        <ele>117.9</ele>
        <time>2016-05-22T12:26:33Z</time>
      </trkpt>
      <trkpt lat="43.60067" lon="3.73953">
        <ele>118.38</ele>
        <time>2016-05-22T12:26:34Z</time>
      </trkpt>
      <trkpt lat="43.60062" lon="3.73959">
        <ele>118.86</ele>
        <time>2016-05-22T12:26:35Z</time>
      </trkpt>
      <trkpt lat="43.60055" lon="3.7397">
        <ele>119.34</ele>
        <time>2016-05-22T12:26:36Z</time>
      </trkpt>
      <trkpt lat="43.60047" lon="3.73983">
        <ele>119.82</ele>
        <time>2016-05-22T12:26:37Z</time>
      </trkpt>
      <trkpt lat="43.60038" lon="3.73995">
        <ele>120.78</ele>
        <time>2016-05-22T12:26:38Z</time>
      </trkpt>
      <trkpt lat="43.60028" lon="3.7401">
        <ele>121.26</ele>
        <time>2016-05-22T12:26:39Z</time>
      </trkpt>
      <trkpt lat="43.60019" lon="3.7403">
        <ele>122.22</ele>
        <time>2016-05-22T12:26:40Z</time>
      </trkpt>
      <trkpt lat="43.60012" lon="3.74051">
        <ele>122.71</ele>
        <time>2016-05-22T12:26:41Z</time>
      </trkpt>
      <trkpt lat="43.59937" lon="3.74244">
        <ele>124.15</ele>
        <time>2016-05-22T12:26:50Z</time>
      </trkpt>
      <trkpt lat="43.59846" lon="3.74385">
        <ele>120.78</ele>
        <time>2016-05-22T12:26:58Z</time>
      </trkpt>
      <trkpt lat="43.59687" lon="3.74539">
        <ele>115.01</ele>
        <time>2016-05-22T12:27:08Z</time>
      </trkpt>
      <trkpt lat="43.59641" lon="3.74588">
        <ele>114.53</ele>
        <time>2016-05-22T12:27:11Z</time>
      </trkpt>
      <trkpt lat="43.59629" lon="3.74608">
        <ele>114.05</ele>
        <time>2016-05-22T12:27:12Z</time>
      </trkpt>
      <trkpt lat="43.59619" lon="3.74629">
        <ele>114.53</ele>
        <time>2016-05-22T12:27:13Z</time>
      </trkpt>
      <trkpt lat="43.59557" lon="3.7473">
        <ele>113.09</ele>
        <time>2016-05-22T12:27:18Z</time>
      </trkpt>
      <trkpt lat="43.59354" lon="3.74975">
        <ele>105.4</ele>
        <time>2016-05-22T12:27:30Z</time>
      </trkpt>
      <trkpt lat="43.59295" lon="3.75045">
        <ele>102.04</ele>
        <time>2016-05-22T12:27:34Z</time>
      </trkpt>
      <trkpt lat="43.59278" lon="3.75059">
        <ele>101.08</ele>
        <time>2016-05-22T12:27:35Z</time>
      </trkpt>
      <trkpt lat="43.59259" lon="3.75072">
        <ele>100.11</ele>
        <time>2016-05-22T12:27:36Z</time>
      </trkpt>
      <trkpt lat="43.59239" lon="3.75083">
        <ele>99.15</ele>
        <time>2016-05-22T12:27:37Z</time>
      </trkpt>
      <trkpt lat="43.59218" lon="3.75094">
        <ele>98.19</ele>
        <time>2016-05-22T12:27:38Z</time>
      </trkpt>
      <trkpt lat="43.59094" lon="3.75166">
        <ele>98.19</ele>
        <time>2016-05-22T12:27:44Z</time>
      </trkpt>
      <trkpt lat="43.59076" lon="3.75187">
        <ele>98.19</ele>
        <time>2016-05-22T12:27:45Z</time>
      </trkpt>
      <trkpt lat="43.59059" lon="3.75208">
        <ele>98.67</ele>
        <time>2016-05-22T12:27:46Z</time>
      </trkpt>
      <trkpt lat="43.58956" lon="3.75346">
        <ele>96.75</ele>
        <time>2016-05-22T12:27:53Z</time>
      </trkpt>
      <trkpt lat="43.58945" lon="3.75354">
        <ele>96.27</ele>
        <time>2016-05-22T12:27:54Z</time>
      </trkpt>
      <trkpt lat="43.58933" lon="3.75355">
        <ele>95.79</ele>
        <time>2016-05-22T12:27:55Z</time>
      </trkpt>
      <trkpt lat="43.58922" lon="3.7535">
        <ele>94.35</ele>
        <time>2016-05-22T12:27:56Z</time>
      </trkpt>
      <trkpt lat="43.5891" lon="3.75337">
        <ele>93.87</ele>
        <time>2016-05-22T12:27:57Z</time>
      </trkpt>
      <trkpt lat="43.58896" lon="3.75321">
        <ele>93.87</ele>
        <time>2016-05-22T12:27:58Z</time>
      </trkpt>
      <trkpt lat="43.58883" lon="3.75303">
        <ele>92.42</ele>
        <time>2016-05-22T12:27:59Z</time>
      </trkpt>
      <trkpt lat="43.58871" lon="3.75287">
        <ele>91.46</ele>
        <time>2016-05-22T12:28:00Z</time>
      </trkpt>
      <trkpt lat="43.58845" lon="3.75261">
        <ele>90.02</ele>
        <time>2016-05-22T12:28:02Z</time>
      </trkpt>
      <trkpt lat="43.58831" lon="3.75256">
        <ele>88.58</ele>
        <time>2016-05-22T12:28:03Z</time>
      </trkpt>
      <trkpt lat="43.58816" lon="3.75255">
        <ele>88.1</ele>
        <time>2016-05-22T12:28:04Z</time>
      </trkpt>
      <trkpt lat="43.58799" lon="3.7526">
        <ele>87.14</ele>
        <time>2016-05-22T12:28:05Z</time>
      </trkpt>
      <trkpt lat="43.58783" lon="3.75267">
        <ele>86.18</ele>
        <time>2016-05-22T12:28:06Z</time>
      </trkpt>
      <trkpt lat="43.58767" lon="3.75275">
        <ele>85.21</ele>
        <time>2016-05-22T12:28:07Z</time>
      </trkpt>
      <trkpt lat="43.5875" lon="3.75284">
        <ele>84.25</ele>
        <time>2016-05-22T12:28:08Z</time>
      </trkpt>
      <trkpt lat="43.58722" lon="3.75305">
        <ele>82.33</ele>
        <time>2016-05-22T12:28:10Z</time>
      </trkpt>
      <trkpt lat="43.58712" lon="3.75321">
        <ele>81.37</ele>
        <time>2016-05-22T12:28:11Z</time>
      </trkpt>
      <trkpt lat="43.58706" lon="3.75342">
        <ele>79.93</ele>
        <time>2016-05-22T12:28:12Z</time>
      </trkpt>
      <trkpt lat="43.58703" lon="3.75365">
        <ele>79.45</ele>
        <time>2016-05-22T12:28:13Z</time>
      </trkpt>
      <trkpt lat="43.58701" lon="3.75388">
        <ele>78</ele>
        <time>2016-05-22T12:28:14Z</time>
      </trkpt>
      <trkpt lat="43.58698" lon="3.75413">
        <ele>77.04</ele>
        <time>2016-05-22T12:28:15Z</time>
      </trkpt>
      <trkpt lat="43.58694" lon="3.75438">
        <ele>75.6</ele>
        <time>2016-05-22T12:28:16Z</time>
      </trkpt>
      <trkpt lat="43.58687" lon="3.75462">
        <ele>74.64</ele>
        <time>2016-05-22T12:28:17Z</time>
      </trkpt>
      <trkpt lat="43.58678" lon="3.75484">
        <ele>73.2</ele>
        <time>2016-05-22T12:28:18Z</time>
      </trkpt>
      <trkpt lat="43.58667" lon="3.75504">
        <ele>72.24</ele>
        <time>2016-05-22T12:28:19Z</time>
      </trkpt>
      <trkpt lat="43.58655" lon="3.75522">
        <ele>71.27</ele>
        <time>2016-05-22T12:28:20Z</time>
      </trkpt>
      <trkpt lat="43.58642" lon="3.75537">
        <ele>70.31</ele>
        <time>2016-05-22T12:28:21Z</time>
      </trkpt>
      <trkpt lat="43.58629" lon="3.75548">
        <ele>69.35</ele>
        <time>2016-05-22T12:28:22Z</time>
      </trkpt>
      <trkpt lat="43.58615" lon="3.75558">
        <ele>67.43</ele>
        <time>2016-05-22T12:28:23Z</time>
      </trkpt>
      <trkpt lat="43.58602" lon="3.75565">
        <ele>65.99</ele>
        <time>2016-05-22T12:28:24Z</time>
      </trkpt>
      <trkpt lat="43.5852" lon="3.7562">
        <ele>58.78</ele>
        <time>2016-05-22T12:28:31Z</time>
      </trkpt>
      <trkpt lat="43.58511" lon="3.75634">
        <ele>58.3</ele>
        <time>2016-05-22T12:28:32Z</time>
      </trkpt>
      <trkpt lat="43.58505" lon="3.7565">
        <ele>57.82</ele>
        <time>2016-05-22T12:28:33Z</time>
      </trkpt>
      <trkpt lat="43.58501" lon="3.75666">
        <ele>56.86</ele>
        <time>2016-05-22T12:28:34Z</time>
      </trkpt>
      <trkpt lat="43.58497" lon="3.75683">
        <ele>56.37</ele>
        <time>2016-05-22T12:28:35Z</time>
      </trkpt>
      <trkpt lat="43.58475" lon="3.75757">
        <ele>53.97</ele>
        <time>2016-05-22T12:28:41Z</time>
      </trkpt>
      <trkpt lat="43.58471" lon="3.75762">
        <ele>53.49</ele>
        <time>2016-05-22T12:28:42Z</time>
      </trkpt>
      <trkpt lat="43.58465" lon="3.75762">
        <ele>53.49</ele>
        <time>2016-05-22T12:28:43Z</time>
      </trkpt>
      <trkpt lat="43.58459" lon="3.75758">
        <ele>53.49</ele>
        <time>2016-05-22T12:28:44Z</time>
      </trkpt>
      <trkpt lat="43.58454" lon="3.75751">
        <ele>53.49</ele>
        <time>2016-05-22T12:28:45Z</time>
      </trkpt>
      <trkpt lat="43.58449" lon="3.7574">
        <ele>53.01</ele>
        <time>2016-05-22T12:28:46Z</time>
      </trkpt>
      <trkpt lat="43.58444" lon="3.75728">
        <ele>53.01</ele>
        <time>2016-05-22T12:28:47Z</time>
      </trkpt>
      <trkpt lat="43.58439" lon="3.75715">
        <ele>53.01</ele>
        <time>2016-05-22T12:28:48Z</time>
      </trkpt>
      <trkpt lat="43.58369" lon="3.75552">
        <ele>54.45</ele>
        <time>2016-05-22T12:29:00Z</time>
      </trkpt>
      <trkpt lat="43.58313" lon="3.75429">
        <ele>55.41</ele>
        <time>2016-05-22T12:29:08Z</time>
      </trkpt>
      <trkpt lat="43.58249" lon="3.75285">
        <ele>56.86</ele>
        <time>2016-05-22T12:29:18Z</time>
      </trkpt>
      <trkpt lat="43.58216" lon="3.7521">
        <ele>58.3</ele>
        <time>2016-05-22T12:29:25Z</time>
      </trkpt>
      <trkpt lat="43.58185" lon="3.75138">
        <ele>59.26</ele>
        <time>2016-05-22T12:29:32Z</time>
      </trkpt>
      <trkpt lat="43.58149" lon="3.75053">
        <ele>60.7</ele>
        <time>2016-05-22T12:29:40Z</time>
      </trkpt>
      <trkpt lat="43.58144" lon="3.75045">
        <ele>60.7</ele>
        <time>2016-05-22T12:29:44Z</time>
      </trkpt>
      <trkpt lat="43.58142" lon="3.75048">
        <ele>60.7</ele>
        <time>2016-05-22T12:29:45Z</time>
      </trkpt>
      <trkpt lat="43.58139" lon="3.75053">
        <ele>60.7</ele>
        <time>2016-05-22T12:29:46Z</time>
      </trkpt>
      <trkpt lat="43.58134" lon="3.75059">
        <ele>60.7</ele>
        <time>2016-05-22T12:29:47Z</time>
      </trkpt>
      <trkpt lat="43.58129" lon="3.75066">
        <ele>60.7</ele>
        <time>2016-05-22T12:29:48Z</time>
      </trkpt>
      <trkpt lat="43.58125" lon="3.75073">
        <ele>60.22</ele>
        <time>2016-05-22T12:29:49Z</time>
      </trkpt>
      <trkpt lat="43.58121" lon="3.75081">
        <ele>60.22</ele>
        <time>2016-05-22T12:29:50Z</time>
      </trkpt>
      <trkpt lat="43.58076" lon="3.75172">
        <ele>58.3</ele>
        <time>2016-05-22T12:30:01Z</time>
      </trkpt>
      <trkpt lat="43.58032" lon="3.75248">
        <ele>56.86</ele>
        <time>2016-05-22T12:30:11Z</time>
      </trkpt>
      <trkpt lat="43.58027" lon="3.75252">
        <ele>56.37</ele>
        <time>2016-05-22T12:30:12Z</time>
      </trkpt>
      <trkpt lat="43.58015" lon="3.75256">
        <ele>55.89</ele>
        <time>2016-05-22T12:30:14Z</time>
      </trkpt>
      <trkpt lat="43.58012" lon="3.75264">
        <ele>55.41</ele>
        <time>2016-05-22T12:30:15Z</time>
      </trkpt>
      <trkpt lat="43.58011" lon="3.75273">
        <ele>54.93</ele>
        <time>2016-05-22T12:30:16Z</time>
      </trkpt>
      <trkpt lat="43.58009" lon="3.75285">
        <ele>54.45</ele>
        <time>2016-05-22T12:30:17Z</time>
      </trkpt>
      <trkpt lat="43.58005" lon="3.75296">
        <ele>54.45</ele>
        <time>2016-05-22T12:30:18Z</time>
      </trkpt>
      <trkpt lat="43.57998" lon="3.75307">
        <ele>53.97</ele>
        <time>2016-05-22T12:30:19Z</time>
      </trkpt>
      <trkpt lat="43.57992" lon="3.75318">
        <ele>53.97</ele>
        <time>2016-05-22T12:30:20Z</time>
      </trkpt>
      <trkpt lat="43.57943" lon="3.7541">
        <ele>52.05</ele>
        <time>2016-05-22T12:30:30Z</time>
      </trkpt>
      <trkpt lat="43.57918" lon="3.75459">
        <ele>52.05</ele>
        <time>2016-05-22T12:30:39Z</time>
      </trkpt>
      <trkpt lat="43.57916" lon="3.75465">
        <ele>52.05</ele>
        <time>2016-05-22T12:30:40Z</time>
      </trkpt>
      <trkpt lat="43.57908" lon="3.75487">
        <ele>50.61</ele>
        <time>2016-05-22T12:30:49Z</time>
      </trkpt>
      <trkpt lat="43.57907" lon="3.75491">
        <ele>50.61</ele>
        <time>2016-05-22T12:30:50Z</time>
      </trkpt>
      <trkpt lat="43.57906" lon="3.755">
        <ele>50.61</ele>
        <time>2016-05-22T12:30:51Z</time>
      </trkpt>
      <trkpt lat="43.57898" lon="3.75527">
        <ele>50.13</ele>
        <time>2016-05-22T12:30:53Z</time>
      </trkpt>
      <trkpt lat="43.57893" lon="3.7554">
        <ele>49.65</ele>
        <time>2016-05-22T12:30:54Z</time>
      </trkpt>
      <trkpt lat="43.57887" lon="3.75551">
        <ele>49.65</ele>
        <time>2016-05-22T12:30:55Z</time>
      </trkpt>
      <trkpt lat="43.57863" lon="3.75596">
        <ele>49.16</ele>
        <time>2016-05-22T12:31:00Z</time>
      </trkpt>
      <trkpt lat="43.57857" lon="3.75603">
        <ele>48.68</ele>
        <time>2016-05-22T12:31:01Z</time>
      </trkpt>
      <trkpt lat="43.57849" lon="3.75604">
        <ele>48.68</ele>
        <time>2016-05-22T12:31:02Z</time>
      </trkpt>
      <trkpt lat="43.5784" lon="3.75606">
        <ele>48.2</ele>
        <time>2016-05-22T12:31:03Z</time>
      </trkpt>
      <trkpt lat="43.57831" lon="3.75609">
        <ele>47.72</ele>
        <time>2016-05-22T12:31:04Z</time>
      </trkpt>
      <trkpt lat="43.57825" lon="3.75617">
        <ele>47.72</ele>
        <time>2016-05-22T12:31:05Z</time>
      </trkpt>
      <trkpt lat="43.57822" lon="3.75626">
        <ele>47.24</ele>
        <time>2016-05-22T12:31:06Z</time>
      </trkpt>
      <trkpt lat="43.57823" lon="3.75637">
        <ele>47.24</ele>
        <time>2016-05-22T12:31:07Z</time>
      </trkpt>
      <trkpt lat="43.57826" lon="3.75646">
        <ele>46.76</ele>
        <time>2016-05-22T12:31:08Z</time>
      </trkpt>
      <trkpt lat="43.57831" lon="3.75656">
        <ele>46.76</ele>
        <time>2016-05-22T12:31:09Z</time>
      </trkpt>
      <trkpt lat="43.57836" lon="3.75668">
        <ele>46.76</ele>
        <time>2016-05-22T12:31:10Z</time>
      </trkpt>
      <trkpt lat="43.57839" lon="3.75682">
        <ele>46.76</ele>
        <time>2016-05-22T12:31:11Z</time>
      </trkpt>
      <trkpt lat="43.5784" lon="3.75699">
        <ele>46.76</ele>
        <time>2016-05-22T12:31:12Z</time>
      </trkpt>
      <trkpt lat="43.57841" lon="3.75718">
        <ele>46.76</ele>
        <time>2016-05-22T12:31:13Z</time>
      </trkpt>
      <trkpt lat="43.5784" lon="3.75738">
        <ele>46.76</ele>
        <time>2016-05-22T12:31:14Z</time>
      </trkpt>
      <trkpt lat="43.57839" lon="3.75759">
        <ele>46.76</ele>
        <time>2016-05-22T12:31:15Z</time>
      </trkpt>
      <trkpt lat="43.57816" lon="3.75945">
        <ele>44.84</ele>
        <time>2016-05-22T12:31:23Z</time>
      </trkpt>
      <trkpt lat="43.57795" lon="3.76242">
        <ele>40.99</ele>
        <time>2016-05-22T12:31:35Z</time>
      </trkpt>
      <trkpt lat="43.5783" lon="3.76465">
        <ele>39.07</ele>
        <time>2016-05-22T12:31:44Z</time>
      </trkpt>
      <trkpt lat="43.57914" lon="3.76672">
        <ele>38.59</ele>
        <time>2016-05-22T12:31:54Z</time>
      </trkpt>
      <trkpt lat="43.57955" lon="3.76765">
        <ele>38.59</ele>
        <time>2016-05-22T12:32:00Z</time>
      </trkpt>
      <trkpt lat="43.57956" lon="3.76778">
        <ele>38.59</ele>
        <time>2016-05-22T12:32:01Z</time>
      </trkpt>
      <trkpt lat="43.57952" lon="3.76788">
        <ele>38.59</ele>
        <time>2016-05-22T12:32:02Z</time>
      </trkpt>
      <trkpt lat="43.57944" lon="3.76797">
        <ele>38.59</ele>
        <time>2016-05-22T12:32:03Z</time>
      </trkpt>
      <trkpt lat="43.57932" lon="3.76804">
        <ele>38.11</ele>
        <time>2016-05-22T12:32:04Z</time>
      </trkpt>
      <trkpt lat="43.57917" lon="3.76807">
        <ele>38.11</ele>
        <time>2016-05-22T12:32:05Z</time>
      </trkpt>
      <trkpt lat="43.57902" lon="3.76808">
        <ele>37.63</ele>
        <time>2016-05-22T12:32:06Z</time>
      </trkpt>
      <trkpt lat="43.57887" lon="3.76807">
        <ele>37.15</ele>
        <time>2016-05-22T12:32:07Z</time>
      </trkpt>
      <trkpt lat="43.57873" lon="3.76806">
        <ele>36.19</ele>
        <time>2016-05-22T12:32:08Z</time>
      </trkpt>
      <trkpt lat="43.5786" lon="3.76806">
        <ele>35.71</ele>
        <time>2016-05-22T12:32:09Z</time>
      </trkpt>
      <trkpt lat="43.57846" lon="3.76811">
        <ele>35.71</ele>
        <time>2016-05-22T12:32:10Z</time>
      </trkpt>
      <trkpt lat="43.57834" lon="3.76821">
        <ele>35.23</ele>
        <time>2016-05-22T12:32:11Z</time>
      </trkpt>
      <trkpt lat="43.57822" lon="3.76833">
        <ele>34.74</ele>
        <time>2016-05-22T12:32:12Z</time>
      </trkpt>
      <trkpt lat="43.57811" lon="3.76848">
        <ele>34.74</ele>
        <time>2016-05-22T12:32:13Z</time>
      </trkpt>
      <trkpt lat="43.57801" lon="3.76863">
        <ele>34.26</ele>
        <time>2016-05-22T12:32:14Z</time>
      </trkpt>
      <trkpt lat="43.57743" lon="3.76946">
        <ele>32.82</ele>
        <time>2016-05-22T12:32:21Z</time>
      </trkpt>
      <trkpt lat="43.57702" lon="3.76994">
        <ele>32.82</ele>
        <time>2016-05-22T12:32:28Z</time>
      </trkpt>
      <trkpt lat="43.57595" lon="3.77087">
        <ele>31.38</ele>
        <time>2016-05-22T12:32:37Z</time>
      </trkpt>
      <trkpt lat="43.57459" lon="3.77151">
        <ele>32.82</ele>
        <time>2016-05-22T12:32:46Z</time>
      </trkpt>
      <trkpt lat="43.57325" lon="3.77205">
        <ele>36.67</ele>
        <time>2016-05-22T12:32:56Z</time>
      </trkpt>
      <trkpt lat="43.57285" lon="3.77224">
        <ele>39.07</ele>
        <time>2016-05-22T12:33:00Z</time>
      </trkpt>
      <trkpt lat="43.57277" lon="3.77231">
        <ele>39.55</ele>
        <time>2016-05-22T12:33:01Z</time>
      </trkpt>
      <trkpt lat="43.57271" lon="3.7724">
        <ele>40.03</ele>
        <time>2016-05-22T12:33:02Z</time>
      </trkpt>
      <trkpt lat="43.57266" lon="3.77248">
        <ele>40.51</ele>
        <time>2016-05-22T12:33:03Z</time>
      </trkpt>
      <trkpt lat="43.57262" lon="3.77257">
        <ele>40.99</ele>
        <time>2016-05-22T12:33:04Z</time>
      </trkpt>
      <trkpt lat="43.57235" lon="3.77314">
        <ele>44.84</ele>
        <time>2016-05-22T12:33:12Z</time>
      </trkpt>
      <trkpt lat="43.57229" lon="3.77321">
        <ele>45.8</ele>
        <time>2016-05-22T12:33:13Z</time>
      </trkpt>
      <trkpt lat="43.57222" lon="3.77328">
        <ele>47.72</ele>
        <time>2016-05-22T12:33:15Z</time>
      </trkpt>
      <trkpt lat="43.5721" lon="3.77336">
        <ele>46.76</ele>
        <time>2016-05-22T12:33:22Z</time>
      </trkpt>
      <trkpt lat="43.57194" lon="3.77339">
        <ele>47.72</ele>
        <time>2016-05-22T12:33:24Z</time>
      </trkpt>
      <trkpt lat="43.57184" lon="3.77344">
        <ele>47.24</ele>
        <time>2016-05-22T12:33:25Z</time>
      </trkpt>
      <trkpt lat="43.57095" lon="3.77369">
        <ele>41.95</ele>
        <time>2016-05-22T12:33:35Z</time>
      </trkpt>
      <trkpt lat="43.57086" lon="3.77372">
        <ele>40.03</ele>
        <time>2016-05-22T12:33:37Z</time>
      </trkpt>
      <trkpt lat="43.57072" lon="3.77378">
        <ele>39.55</ele>
        <time>2016-05-22T12:33:45Z</time>
      </trkpt>
      <trkpt lat="43.57069" lon="3.77379">
        <ele>39.07</ele>
        <time>2016-05-22T12:33:46Z</time>
      </trkpt>
      <trkpt lat="43.57062" lon="3.77381">
        <ele>38.59</ele>
        <time>2016-05-22T12:33:47Z</time>
      </trkpt>
      <trkpt lat="43.57008" lon="3.77398">
        <ele>33.3</ele>
        <time>2016-05-22T12:33:55Z</time>
      </trkpt>
      <trkpt lat="43.57004" lon="3.77403">
        <ele>32.82</ele>
        <time>2016-05-22T12:33:56Z</time>
      </trkpt>
      <trkpt lat="43.57005" lon="3.77411">
        <ele>32.34</ele>
        <time>2016-05-22T12:33:57Z</time>
      </trkpt>
      <trkpt lat="43.57009" lon="3.7742">
        <ele>31.86</ele>
        <time>2016-05-22T12:33:58Z</time>
      </trkpt>
      <trkpt lat="43.57016" lon="3.77432">
        <ele>31.38</ele>
        <time>2016-05-22T12:33:59Z</time>
      </trkpt>
      <trkpt lat="43.57022" lon="3.77444">
        <ele>31.38</ele>
        <time>2016-05-22T12:34:00Z</time>
      </trkpt>
      <trkpt lat="43.57035" lon="3.77465">
        <ele>31.38</ele>
        <time>2016-05-22T12:34:02Z</time>
      </trkpt>
      <trkpt lat="43.57041" lon="3.77471">
        <ele>31.38</ele>
        <time>2016-05-22T12:34:03Z</time>
      </trkpt>
      <trkpt lat="43.57048" lon="3.77478">
        <ele>30.9</ele>
        <time>2016-05-22T12:34:04Z</time>
      </trkpt>
      <trkpt lat="43.57054" lon="3.77488">
        <ele>30.42</ele>
        <time>2016-05-22T12:34:05Z</time>
      </trkpt>
      <trkpt lat="43.57059" lon="3.77499">
        <ele>30.42</ele>
        <time>2016-05-22T12:34:06Z</time>
      </trkpt>
      <trkpt lat="43.57079" lon="3.77511">
        <ele>30.9</ele>
        <time>2016-05-22T12:34:09Z</time>
      </trkpt>
      <trkpt lat="43.57085" lon="3.77511">
        <ele>31.38</ele>
        <time>2016-05-22T12:34:10Z</time>
      </trkpt>
      <trkpt lat="43.57089" lon="3.77511">
        <ele>31.38</ele>
        <time>2016-05-22T12:34:11Z</time>
      </trkpt>
      <trkpt lat="43.57091" lon="3.77511">
        <ele>31.38</ele>
        <time>2016-05-22T12:34:12Z</time>
      </trkpt>
      <trkpt lat="43.57092" lon="3.77511">
        <ele>31.38</ele>
        <time>2016-05-22T12:34:13Z</time>
      </trkpt>
      <trkpt lat="43.57094" lon="3.77514">
        <ele>31.38</ele>
        <time>2016-05-22T12:34:14Z</time>
      </trkpt>
      <trkpt lat="43.57097" lon="3.77522">
        <ele>30.9</ele>
        <time>2016-05-22T12:34:15Z</time>
      </trkpt>
      <trkpt lat="43.57099" lon="3.77533">
        <ele>30.9</ele>
        <time>2016-05-22T12:34:16Z</time>
      </trkpt>
      <trkpt lat="43.57101" lon="3.77543">
        <ele>30.42</ele>
        <time>2016-05-22T12:34:17Z</time>
      </trkpt>
      <trkpt lat="43.57103" lon="3.77566">
        <ele>29.46</ele>
        <time>2016-05-22T12:34:19Z</time>
      </trkpt>
      <trkpt lat="43.57101" lon="3.77577">
        <ele>28.98</ele>
        <time>2016-05-22T12:34:20Z</time>
      </trkpt>
      <trkpt lat="43.57096" lon="3.77589">
        <ele>28.5</ele>
        <time>2016-05-22T12:34:21Z</time>
      </trkpt>
      <trkpt lat="43.5709" lon="3.776">
        <ele>28.02</ele>
        <time>2016-05-22T12:34:22Z</time>
      </trkpt>
      <trkpt lat="43.57084" lon="3.77611">
        <ele>27.53</ele>
        <time>2016-05-22T12:34:23Z</time>
      </trkpt>
      <trkpt lat="43.57057" lon="3.77667">
        <ele>26.09</ele>
        <time>2016-05-22T12:34:28Z</time>
      </trkpt>
      <trkpt lat="43.57053" lon="3.77684">
        <ele>26.09</ele>
        <time>2016-05-22T12:34:29Z</time>
      </trkpt>
      <trkpt lat="43.57049" lon="3.777">
        <ele>26.09</ele>
        <time>2016-05-22T12:34:30Z</time>
      </trkpt>
      <trkpt lat="43.57026" lon="3.77819">
        <ele>25.61</ele>
        <time>2016-05-22T12:34:38Z</time>
      </trkpt>
      <trkpt lat="43.56989" lon="3.7793">
        <ele>25.61</ele>
        <time>2016-05-22T12:34:45Z</time>
      </trkpt>
      <trkpt lat="43.56935" lon="3.78135">
        <ele>25.13</ele>
        <time>2016-05-22T12:34:53Z</time>
      </trkpt>
      <trkpt lat="43.56885" lon="3.78312">
        <ele>24.65</ele>
        <time>2016-05-22T12:35:01Z</time>
      </trkpt>
      <trkpt lat="43.56876" lon="3.78336">
        <ele>24.65</ele>
        <time>2016-05-22T12:35:03Z</time>
      </trkpt>
      <trkpt lat="43.56872" lon="3.78343">
        <ele>25.13</ele>
        <time>2016-05-22T12:35:04Z</time>
      </trkpt>
      <trkpt lat="43.56867" lon="3.78354">
        <ele>25.61</ele>
        <time>2016-05-22T12:35:10Z</time>
      </trkpt>
      <trkpt lat="43.56868" lon="3.78362">
        <ele>25.13</ele>
        <time>2016-05-22T12:35:11Z</time>
      </trkpt>
      <trkpt lat="43.56871" lon="3.78374">
        <ele>25.13</ele>
        <time>2016-05-22T12:35:12Z</time>
      </trkpt>
      <trkpt lat="43.56874" lon="3.78387">
        <ele>24.65</ele>
        <time>2016-05-22T12:35:13Z</time>
      </trkpt>
      <trkpt lat="43.56874" lon="3.784">
        <ele>24.65</ele>
        <time>2016-05-22T12:35:14Z</time>
      </trkpt>
      <trkpt lat="43.56871" lon="3.78415">
        <ele>24.65</ele>
        <time>2016-05-22T12:35:15Z</time>
      </trkpt>
      <trkpt lat="43.56864" lon="3.78432">
        <ele>24.65</ele>
        <time>2016-05-22T12:35:16Z</time>
      </trkpt>
      <trkpt lat="43.56854" lon="3.78451">
        <ele>24.17</ele>
        <time>2016-05-22T12:35:17Z</time>
      </trkpt>
      <trkpt lat="43.56777" lon="3.78597">
        <ele>23.69</ele>
        <time>2016-05-22T12:35:23Z</time>
      </trkpt>
      <trkpt lat="43.56597" lon="3.7884">
        <ele>23.69</ele>
        <time>2016-05-22T12:35:33Z</time>
      </trkpt>
      <trkpt lat="43.56424" lon="3.79042">
        <ele>23.21</ele>
        <time>2016-05-22T12:35:42Z</time>
      </trkpt>
      <trkpt lat="43.56223" lon="3.7936">
        <ele>23.21</ele>
        <time>2016-05-22T12:35:54Z</time>
      </trkpt>
      <trkpt lat="43.56079" lon="3.79578">
        <ele>27.53</ele>
        <time>2016-05-22T12:36:04Z</time>
      </trkpt>
      <trkpt lat="43.56068" lon="3.79593">
        <ele>28.02</ele>
        <time>2016-05-22T12:36:05Z</time>
      </trkpt>
      <trkpt lat="43.56057" lon="3.796">
        <ele>28.5</ele>
        <time>2016-05-22T12:36:06Z</time>
      </trkpt>
      <trkpt lat="43.56044" lon="3.79604">
        <ele>28.98</ele>
        <time>2016-05-22T12:36:07Z</time>
      </trkpt>
      <trkpt lat="43.56031" lon="3.79606">
        <ele>29.46</ele>
        <time>2016-05-22T12:36:08Z</time>
      </trkpt>
      <trkpt lat="43.56021" lon="3.79613">
        <ele>29.94</ele>
        <time>2016-05-22T12:36:09Z</time>
      </trkpt>
      <trkpt lat="43.56014" lon="3.79624">
        <ele>29.94</ele>
        <time>2016-05-22T12:36:10Z</time>
      </trkpt>
      <trkpt lat="43.56009" lon="3.79638">
        <ele>29.94</ele>
        <time>2016-05-22T12:36:11Z</time>
      </trkpt>
      <trkpt lat="43.5601" lon="3.79655">
        <ele>30.42</ele>
        <time>2016-05-22T12:36:12Z</time>
      </trkpt>
      <trkpt lat="43.56009" lon="3.79673">
        <ele>30.42</ele>
        <time>2016-05-22T12:36:13Z</time>
      </trkpt>
      <trkpt lat="43.56006" lon="3.79692">
        <ele>30.9</ele>
        <time>2016-05-22T12:36:14Z</time>
      </trkpt>
      <trkpt lat="43.55998" lon="3.79709">
        <ele>30.9</ele>
        <time>2016-05-22T12:36:15Z</time>
      </trkpt>
      <trkpt lat="43.55988" lon="3.79725">
        <ele>31.38</ele>
        <time>2016-05-22T12:36:16Z</time>
      </trkpt>
      <trkpt lat="43.55936" lon="3.79808">
        <ele>32.34</ele>
        <time>2016-05-22T12:36:22Z</time>
      </trkpt>
      <trkpt lat="43.55925" lon="3.79813">
        <ele>32.34</ele>
        <time>2016-05-22T12:36:23Z</time>
      </trkpt>
      <trkpt lat="43.55911" lon="3.79814">
        <ele>32.34</ele>
        <time>2016-05-22T12:36:24Z</time>
      </trkpt>
      <trkpt lat="43.55898" lon="3.79816">
        <ele>31.38</ele>
        <time>2016-05-22T12:36:25Z</time>
      </trkpt>
      <trkpt lat="43.55886" lon="3.79821">
        <ele>30.42</ele>
        <time>2016-05-22T12:36:26Z</time>
      </trkpt>
      <trkpt lat="43.55874" lon="3.79828">
        <ele>29.94</ele>
        <time>2016-05-22T12:36:27Z</time>
      </trkpt>
      <trkpt lat="43.55865" lon="3.79837">
        <ele>28.98</ele>
        <time>2016-05-22T12:36:28Z</time>
      </trkpt>
      <trkpt lat="43.55856" lon="3.79845">
        <ele>28.5</ele>
        <time>2016-05-22T12:36:29Z</time>
      </trkpt>
      <trkpt lat="43.55847" lon="3.79846">
        <ele>28.02</ele>
        <time>2016-05-22T12:36:30Z</time>
      </trkpt>
      <trkpt lat="43.55839" lon="3.79842">
        <ele>28.02</ele>
        <time>2016-05-22T12:36:31Z</time>
      </trkpt>
      <trkpt lat="43.55832" lon="3.79834">
        <ele>27.53</ele>
        <time>2016-05-22T12:36:32Z</time>
      </trkpt>
      <trkpt lat="43.55823" lon="3.79829">
        <ele>27.05</ele>
        <time>2016-05-22T12:36:33Z</time>
      </trkpt>
      <trkpt lat="43.55813" lon="3.7983">
        <ele>26.57</ele>
        <time>2016-05-22T12:36:34Z</time>
      </trkpt>
      <trkpt lat="43.55806" lon="3.79838">
        <ele>25.61</ele>
        <time>2016-05-22T12:36:35Z</time>
      </trkpt>
      <trkpt lat="43.55801" lon="3.79849">
        <ele>25.13</ele>
        <time>2016-05-22T12:36:36Z</time>
      </trkpt>
      <trkpt lat="43.55798" lon="3.79861">
        <ele>24.65</ele>
        <time>2016-05-22T12:36:37Z</time>
      </trkpt>
      <trkpt lat="43.55792" lon="3.79873">
        <ele>24.17</ele>
        <time>2016-05-22T12:36:38Z</time>
      </trkpt>
      <trkpt lat="43.55784" lon="3.79878">
        <ele>23.69</ele>
        <time>2016-05-22T12:36:39Z</time>
      </trkpt>
      <trkpt lat="43.55771" lon="3.79877">
        <ele>22.73</ele>
        <time>2016-05-22T12:36:40Z</time>
      </trkpt>
      <trkpt lat="43.55756" lon="3.79876">
        <ele>22.73</ele>
        <time>2016-05-22T12:36:41Z</time>
      </trkpt>
      <trkpt lat="43.55737" lon="3.79873">
        <ele>22.25</ele>
        <time>2016-05-22T12:36:42Z</time>
      </trkpt>
      <trkpt lat="43.55717" lon="3.79874">
        <ele>21.77</ele>
        <time>2016-05-22T12:36:43Z</time>
      </trkpt>
      <trkpt lat="43.55696" lon="3.79881">
        <ele>20.81</ele>
        <time>2016-05-22T12:36:44Z</time>
      </trkpt>
      <trkpt lat="43.55673" lon="3.79893">
        <ele>20.32</ele>
        <time>2016-05-22T12:36:45Z</time>
      </trkpt>
      <trkpt lat="43.55651" lon="3.79906">
        <ele>19.36</ele>
        <time>2016-05-22T12:36:46Z</time>
      </trkpt>
      <trkpt lat="43.5563" lon="3.7992">
        <ele>18.88</ele>
        <time>2016-05-22T12:36:47Z</time>
      </trkpt>
      <trkpt lat="43.55514" lon="3.79998">
        <ele>19.84</ele>
        <time>2016-05-22T12:36:53Z</time>
      </trkpt>
      <trkpt lat="43.55497" lon="3.80005">
        <ele>20.32</ele>
        <time>2016-05-22T12:36:54Z</time>
      </trkpt>
      <trkpt lat="43.55479" lon="3.80009">
        <ele>21.29</ele>
        <time>2016-05-22T12:36:55Z</time>
      </trkpt>
      <trkpt lat="43.55461" lon="3.80011">
        <ele>22.25</ele>
        <time>2016-05-22T12:36:56Z</time>
      </trkpt>
      <trkpt lat="43.55443" lon="3.8001">
        <ele>23.21</ele>
        <time>2016-05-22T12:36:57Z</time>
      </trkpt>
      <trkpt lat="43.55425" lon="3.80007">
        <ele>24.17</ele>
        <time>2016-05-22T12:36:58Z</time>
      </trkpt>
      <trkpt lat="43.55406" lon="3.80002">
        <ele>25.13</ele>
        <time>2016-05-22T12:36:59Z</time>
      </trkpt>
      <trkpt lat="43.55298" lon="3.79978">
        <ele>32.82</ele>
        <time>2016-05-22T12:37:04Z</time>
      </trkpt>
      <trkpt lat="43.55273" lon="3.79979">
        <ele>34.26</ele>
        <time>2016-05-22T12:37:05Z</time>
      </trkpt>
      <trkpt lat="43.5525" lon="3.79985">
        <ele>35.23</ele>
        <time>2016-05-22T12:37:06Z</time>
      </trkpt>
      <trkpt lat="43.55228" lon="3.79995">
        <ele>36.19</ele>
        <time>2016-05-22T12:37:07Z</time>
      </trkpt>
      <trkpt lat="43.55209" lon="3.80007">
        <ele>37.15</ele>
        <time>2016-05-22T12:37:08Z</time>
      </trkpt>
      <trkpt lat="43.55191" lon="3.80021">
        <ele>37.63</ele>
        <time>2016-05-22T12:37:09Z</time>
      </trkpt>
      <trkpt lat="43.55176" lon="3.80037">
        <ele>38.11</ele>
        <time>2016-05-22T12:37:10Z</time>
      </trkpt>
      <trkpt lat="43.55163" lon="3.80055">
        <ele>38.11</ele>
        <time>2016-05-22T12:37:11Z</time>
      </trkpt>
      <trkpt lat="43.5515" lon="3.80075">
        <ele>38.11</ele>
        <time>2016-05-22T12:37:12Z</time>
      </trkpt>
      <trkpt lat="43.55138" lon="3.80096">
        <ele>37.63</ele>
        <time>2016-05-22T12:37:13Z</time>
      </trkpt>
      <trkpt lat="43.55029" lon="3.80256">
        <ele>38.11</ele>
        <time>2016-05-22T12:37:20Z</time>
      </trkpt>
      <trkpt lat="43.54985" lon="3.80325">
        <ele>40.51</ele>
        <time>2016-05-22T12:37:23Z</time>
      </trkpt>
      <trkpt lat="43.54974" lon="3.80351">
        <ele>41.47</ele>
        <time>2016-05-22T12:37:24Z</time>
      </trkpt>
      <trkpt lat="43.54852" lon="3.80631">
        <ele>50.61</ele>
        <time>2016-05-22T12:37:35Z</time>
      </trkpt>
      <trkpt lat="43.54774" lon="3.80805">
        <ele>46.28</ele>
        <time>2016-05-22T12:37:45Z</time>
      </trkpt>
      <trkpt lat="43.54763" lon="3.8084">
        <ele>44.36</ele>
        <time>2016-05-22T12:37:47Z</time>
      </trkpt>
      <trkpt lat="43.54761" lon="3.80858">
        <ele>43.4</ele>
        <time>2016-05-22T12:37:48Z</time>
      </trkpt>
      <trkpt lat="43.54767" lon="3.80876">
        <ele>42.92</ele>
        <time>2016-05-22T12:37:49Z</time>
      </trkpt>
      <trkpt lat="43.54774" lon="3.80894">
        <ele>42.92</ele>
        <time>2016-05-22T12:37:50Z</time>
      </trkpt>
      <trkpt lat="43.54781" lon="3.80912">
        <ele>42.92</ele>
        <time>2016-05-22T12:37:51Z</time>
      </trkpt>
      <trkpt lat="43.54787" lon="3.80931">
        <ele>42.92</ele>
        <time>2016-05-22T12:37:52Z</time>
      </trkpt>
      <trkpt lat="43.54789" lon="3.80955">
        <ele>42.92</ele>
        <time>2016-05-22T12:37:53Z</time>
      </trkpt>
      <trkpt lat="43.54789" lon="3.80981">
        <ele>43.4</ele>
        <time>2016-05-22T12:37:54Z</time>
      </trkpt>
      <trkpt lat="43.5479" lon="3.81145">
        <ele>47.24</ele>
        <time>2016-05-22T12:38:00Z</time>
      </trkpt>
      <trkpt lat="43.54788" lon="3.81172">
        <ele>47.72</ele>
        <time>2016-05-22T12:38:01Z</time>
      </trkpt>
      <trkpt lat="43.54769" lon="3.81358">
        <ele>45.8</ele>
        <time>2016-05-22T12:38:07Z</time>
      </trkpt>
      <trkpt lat="43.54753" lon="3.81508">
        <ele>47.24</ele>
        <time>2016-05-22T12:38:12Z</time>
      </trkpt>
      <trkpt lat="43.54746" lon="3.81535">
        <ele>47.72</ele>
        <time>2016-05-22T12:38:13Z</time>
      </trkpt>
      <trkpt lat="43.54738" lon="3.81561">
        <ele>48.2</ele>
        <time>2016-05-22T12:38:14Z</time>
      </trkpt>
      <trkpt lat="43.54684" lon="3.81686">
        <ele>46.76</ele>
        <time>2016-05-22T12:38:19Z</time>
      </trkpt>
      <trkpt lat="43.54648" lon="3.81749">
        <ele>45.8</ele>
        <time>2016-05-22T12:38:22Z</time>
      </trkpt>
      <trkpt lat="43.54639" lon="3.81775">
        <ele>44.84</ele>
        <time>2016-05-22T12:38:23Z</time>
      </trkpt>
      <trkpt lat="43.54554" lon="3.82056">
        <ele>41.95</ele>
        <time>2016-05-22T12:38:33Z</time>
      </trkpt>
      <trkpt lat="43.54513" lon="3.82299">
        <ele>48.68</ele>
        <time>2016-05-22T12:38:41Z</time>
      </trkpt>
      <trkpt lat="43.54484" lon="3.8259">
        <ele>42.44</ele>
        <time>2016-05-22T12:38:50Z</time>
      </trkpt>
      <trkpt lat="43.54481" lon="3.82897">
        <ele>27.05</ele>
        <time>2016-05-22T12:38:58Z</time>
      </trkpt>
      <trkpt lat="43.54465" lon="3.83128">
        <ele>18.4</ele>
        <time>2016-05-22T12:39:04Z</time>
      </trkpt>
      <trkpt lat="43.54398" lon="3.83502">
        <ele>10.71</ele>
        <time>2016-05-22T12:39:14Z</time>
      </trkpt>
      <trkpt lat="43.54357" lon="3.83816">
        <ele>9.27</ele>
        <time>2016-05-22T12:39:23Z</time>
      </trkpt>
      <trkpt lat="43.54366" lon="3.84038">
        <ele>9.75</ele>
        <time>2016-05-22T12:39:29Z</time>
      </trkpt>
      <trkpt lat="43.54375" lon="3.84249">
        <ele>13.12</ele>
        <time>2016-05-22T12:39:36Z</time>
      </trkpt>
      <trkpt lat="43.54363" lon="3.84446">
        <ele>16.96</ele>
        <time>2016-05-22T12:39:44Z</time>
      </trkpt>
      <trkpt lat="43.5429" lon="3.84667">
        <ele>16.96</ele>
        <time>2016-05-22T12:39:54Z</time>
      </trkpt>
      <trkpt lat="43.5418" lon="3.84899">
        <ele>15.04</ele>
        <time>2016-05-22T12:40:05Z</time>
      </trkpt>
      <trkpt lat="43.53974" lon="3.85286">
        <ele>16.48</ele>
        <time>2016-05-22T12:40:24Z</time>
      </trkpt>
      <trkpt lat="43.53885" lon="3.85464">
        <ele>16.96</ele>
        <time>2016-05-22T12:40:34Z</time>
      </trkpt>
      <trkpt lat="43.53847" lon="3.85574">
        <ele>16</ele>
        <time>2016-05-22T12:40:42Z</time>
      </trkpt>
      <trkpt lat="43.53842" lon="3.85582">
        <ele>16</ele>
        <time>2016-05-22T12:40:43Z</time>
      </trkpt>
      <trkpt lat="43.53836" lon="3.85589">
        <ele>16</ele>
        <time>2016-05-22T12:40:44Z</time>
      </trkpt>
      <trkpt lat="43.53829" lon="3.85594">
        <ele>15.52</ele>
        <time>2016-05-22T12:40:45Z</time>
      </trkpt>
      <trkpt lat="43.53823" lon="3.85599">
        <ele>15.52</ele>
        <time>2016-05-22T12:40:46Z</time>
      </trkpt>
      <trkpt lat="43.53817" lon="3.85606">
        <ele>15.52</ele>
        <time>2016-05-22T12:40:47Z</time>
      </trkpt>
      <trkpt lat="43.53814" lon="3.85614">
        <ele>15.52</ele>
        <time>2016-05-22T12:40:48Z</time>
      </trkpt>
      <trkpt lat="43.53813" lon="3.85623">
        <ele>15.52</ele>
        <time>2016-05-22T12:40:49Z</time>
      </trkpt>
      <trkpt lat="43.53814" lon="3.85632">
        <ele>15.52</ele>
        <time>2016-05-22T12:40:50Z</time>
      </trkpt>
      <trkpt lat="43.53817" lon="3.85642">
        <ele>15.52</ele>
        <time>2016-05-22T12:40:51Z</time>
      </trkpt>
      <trkpt lat="43.53821" lon="3.85651">
        <ele>15.04</ele>
        <time>2016-05-22T12:40:52Z</time>
      </trkpt>
      <trkpt lat="43.53823" lon="3.85662">
        <ele>14.56</ele>
        <time>2016-05-22T12:40:53Z</time>
      </trkpt>
      <trkpt lat="43.53824" lon="3.85676">
        <ele>14.56</ele>
        <time>2016-05-22T12:40:54Z</time>
      </trkpt>
      <trkpt lat="43.53823" lon="3.8569">
        <ele>14.08</ele>
        <time>2016-05-22T12:40:55Z</time>
      </trkpt>
      <trkpt lat="43.5382" lon="3.85704">
        <ele>14.08</ele>
        <time>2016-05-22T12:40:56Z</time>
      </trkpt>
      <trkpt lat="43.53776" lon="3.85905">
        <ele>11.67</ele>
        <time>2016-05-22T12:41:08Z</time>
      </trkpt>
      <trkpt lat="43.53756" lon="3.86111">
        <ele>10.23</ele>
        <time>2016-05-22T12:41:18Z</time>
      </trkpt>
      <trkpt lat="43.53774" lon="3.86317">
        <ele>7.83</ele>
        <time>2016-05-22T12:41:27Z</time>
      </trkpt>
      <trkpt lat="43.53813" lon="3.86648">
        <ele>5.91</ele>
        <time>2016-05-22T12:41:42Z</time>
      </trkpt>
      <trkpt lat="43.53839" lon="3.86879">
        <ele>5.42</ele>
        <time>2016-05-22T12:41:54Z</time>
      </trkpt>
      <trkpt lat="43.53842" lon="3.86917">
        <ele>5.42</ele>
        <time>2016-05-22T12:41:57Z</time>
      </trkpt>
      <trkpt lat="43.53842" lon="3.86925">
        <ele>4.94</ele>
        <time>2016-05-22T12:41:58Z</time>
      </trkpt>
      <trkpt lat="43.5384" lon="3.86933">
        <ele>4.94</ele>
        <time>2016-05-22T12:41:59Z</time>
      </trkpt>
      <trkpt lat="43.53838" lon="3.8694">
        <ele>4.94</ele>
        <time>2016-05-22T12:42:00Z</time>
      </trkpt>
      <trkpt lat="43.53834" lon="3.86947">
        <ele>4.94</ele>
        <time>2016-05-22T12:42:01Z</time>
      </trkpt>
      <trkpt lat="43.53832" lon="3.86956">
        <ele>4.46</ele>
        <time>2016-05-22T12:42:02Z</time>
      </trkpt>
      <trkpt lat="43.53831" lon="3.86965">
        <ele>4.46</ele>
        <time>2016-05-22T12:42:03Z</time>
      </trkpt>
      <trkpt lat="43.53833" lon="3.86973">
        <ele>4.46</ele>
        <time>2016-05-22T12:42:04Z</time>
      </trkpt>
      <trkpt lat="43.53836" lon="3.86981">
        <ele>4.46</ele>
        <time>2016-05-22T12:42:05Z</time>
      </trkpt>
      <trkpt lat="43.53841" lon="3.86987">
        <ele>4.46</ele>
        <time>2016-05-22T12:42:06Z</time>
      </trkpt>
      <trkpt lat="43.53846" lon="3.86995">
        <ele>4.46</ele>
        <time>2016-05-22T12:42:07Z</time>
      </trkpt>
      <trkpt lat="43.53849" lon="3.87004">
        <ele>4.46</ele>
        <time>2016-05-22T12:42:08Z</time>
      </trkpt>
      <trkpt lat="43.53852" lon="3.87015">
        <ele>4.46</ele>
        <time>2016-05-22T12:42:09Z</time>
      </trkpt>
      <trkpt lat="43.53853" lon="3.87028">
        <ele>4.46</ele>
        <time>2016-05-22T12:42:10Z</time>
      </trkpt>
      <trkpt lat="43.53855" lon="3.87041">
        <ele>4.46</ele>
        <time>2016-05-22T12:42:11Z</time>
      </trkpt>
      <trkpt lat="43.53868" lon="3.87183">
        <ele>3.98</ele>
        <time>2016-05-22T12:42:19Z</time>
      </trkpt>
      <trkpt lat="43.53886" lon="3.87458">
        <ele>4.46</ele>
        <time>2016-05-22T12:42:31Z</time>
      </trkpt>
      <trkpt lat="43.53895" lon="3.87756">
        <ele>4.46</ele>
        <time>2016-05-22T12:42:43Z</time>
      </trkpt>
      <trkpt lat="43.53906" lon="3.88017">
        <ele>4.94</ele>
        <time>2016-05-22T12:42:54Z</time>
      </trkpt>
      <trkpt lat="43.53924" lon="3.88235">
        <ele>4.46</ele>
        <time>2016-05-22T12:43:02Z</time>
      </trkpt>
      <trkpt lat="43.53934" lon="3.88527">
        <ele>3.98</ele>
        <time>2016-05-22T12:43:10Z</time>
      </trkpt>
      <trkpt lat="43.53945" lon="3.88778">
        <ele>3.5</ele>
        <time>2016-05-22T12:43:18Z</time>
      </trkpt>
      <trkpt lat="43.53958" lon="3.89035">
        <ele>3.5</ele>
        <time>2016-05-22T12:43:28Z</time>
      </trkpt>
      <trkpt lat="43.53974" lon="3.89381">
        <ele>3.5</ele>
        <time>2016-05-22T12:43:43Z</time>
      </trkpt>
      <trkpt lat="43.53979" lon="3.89581">
        <ele>3.5</ele>
        <time>2016-05-22T12:43:54Z</time>
      </trkpt>
      <trkpt lat="43.53958" lon="3.89673">
        <ele>3.98</ele>
        <time>2016-05-22T12:44:01Z</time>
      </trkpt>
      <trkpt lat="43.53957" lon="3.89686">
        <ele>3.98</ele>
        <time>2016-05-22T12:44:02Z</time>
      </trkpt>
      <trkpt lat="43.53958" lon="3.89698">
        <ele>3.98</ele>
        <time>2016-05-22T12:44:03Z</time>
      </trkpt>
      <trkpt lat="43.53961" lon="3.89709">
        <ele>3.98</ele>
        <time>2016-05-22T12:44:04Z</time>
      </trkpt>
      <trkpt lat="43.53963" lon="3.89718">
        <ele>3.98</ele>
        <time>2016-05-22T12:44:05Z</time>
      </trkpt>
      <trkpt lat="43.53964" lon="3.89729">
        <ele>3.98</ele>
        <time>2016-05-22T12:44:06Z</time>
      </trkpt>
      <trkpt lat="43.53963" lon="3.89739">
        <ele>3.5</ele>
        <time>2016-05-22T12:44:07Z</time>
      </trkpt>
      <trkpt lat="43.5396" lon="3.89751">
        <ele>3.5</ele>
        <time>2016-05-22T12:44:08Z</time>
      </trkpt>
      <trkpt lat="43.53957" lon="3.89764">
        <ele>3.5</ele>
        <time>2016-05-22T12:44:09Z</time>
      </trkpt>
      <trkpt lat="43.53956" lon="3.89778">
        <ele>3.5</ele>
        <time>2016-05-22T12:44:10Z</time>
      </trkpt>
      <trkpt lat="43.53956" lon="3.89792">
        <ele>3.5</ele>
        <time>2016-05-22T12:44:11Z</time>
      </trkpt>
      <trkpt lat="43.53958" lon="3.89807">
        <ele>3.02</ele>
        <time>2016-05-22T12:44:12Z</time>
      </trkpt>
      <trkpt lat="43.53957" lon="3.89823">
        <ele>3.02</ele>
        <time>2016-05-22T12:44:13Z</time>
      </trkpt>
      <trkpt lat="43.53951" lon="3.89838">
        <ele>3.02</ele>
        <time>2016-05-22T12:44:14Z</time>
      </trkpt>
      <trkpt lat="43.53942" lon="3.89855">
        <ele>3.02</ele>
        <time>2016-05-22T12:44:15Z</time>
      </trkpt>
      <trkpt lat="43.53931" lon="3.89873">
        <ele>3.02</ele>
        <time>2016-05-22T12:44:16Z</time>
      </trkpt>
      <trkpt lat="43.53917" lon="3.89894">
        <ele>3.02</ele>
        <time>2016-05-22T12:44:17Z</time>
      </trkpt>
      <trkpt lat="43.53791" lon="3.90089">
        <ele>2.54</ele>
        <time>2016-05-22T12:44:25Z</time>
      </trkpt>
      <trkpt lat="43.53562" lon="3.90438">
        <ele>3.02</ele>
        <time>2016-05-22T12:44:39Z</time>
      </trkpt>
      <trkpt lat="43.53456" lon="3.90611">
        <ele>3.02</ele>
        <time>2016-05-22T12:44:45Z</time>
      </trkpt>
      <trkpt lat="43.53445" lon="3.90649">
        <ele>3.02</ele>
        <time>2016-05-22T12:44:46Z</time>
      </trkpt>
      <trkpt lat="43.53437" lon="3.90686">
        <ele>3.02</ele>
        <time>2016-05-22T12:44:47Z</time>
      </trkpt>
      <trkpt lat="43.53435" lon="3.90728">
        <ele>2.54</ele>
        <time>2016-05-22T12:44:48Z</time>
      </trkpt>
      <trkpt lat="43.53437" lon="3.9077">
        <ele>2.54</ele>
        <time>2016-05-22T12:44:49Z</time>
      </trkpt>
      <trkpt lat="43.53442" lon="3.90814">
        <ele>2.06</ele>
        <time>2016-05-22T12:44:50Z</time>
      </trkpt>
      <trkpt lat="43.53447" lon="3.90858">
        <ele>2.06</ele>
        <time>2016-05-22T12:44:51Z</time>
      </trkpt>
      <trkpt lat="43.53478" lon="3.91172">
        <ele>1.1</ele>
        <time>2016-05-22T12:44:59Z</time>
      </trkpt>
      <trkpt lat="43.53464" lon="3.91429">
        <ele>1.1</ele>
        <time>2016-05-22T12:45:06Z</time>
      </trkpt>
      <trkpt lat="43.53398" lon="3.9166">
        <ele>6.87</ele>
        <time>2016-05-22T12:45:13Z</time>
      </trkpt>
      <trkpt lat="43.53278" lon="3.91883">
        <ele>4.94</ele>
        <time>2016-05-22T12:45:21Z</time>
      </trkpt>
      <trkpt lat="43.53152" lon="3.92068">
        <ele>3.5</ele>
        <time>2016-05-22T12:45:29Z</time>
      </trkpt>
      <trkpt lat="43.53042" lon="3.92228">
        <ele>2.54</ele>
        <time>2016-05-22T12:45:38Z</time>
      </trkpt>
      <trkpt lat="43.53016" lon="3.92262">
        <ele>2.06</ele>
        <time>2016-05-22T12:45:41Z</time>
      </trkpt>
      <trkpt lat="43.53007" lon="3.92262">
        <ele>1.58</ele>
        <time>2016-05-22T12:45:42Z</time>
      </trkpt>
      <trkpt lat="43.52997" lon="3.92256">
        <ele>1.58</ele>
        <time>2016-05-22T12:45:43Z</time>
      </trkpt>
      <trkpt lat="43.52972" lon="3.92257">
        <ele>1.58</ele>
        <time>2016-05-22T12:45:45Z</time>
      </trkpt>
      <trkpt lat="43.5296" lon="3.92267">
        <ele>2.06</ele>
        <time>2016-05-22T12:45:46Z</time>
      </trkpt>
      <trkpt lat="43.52952" lon="3.92281">
        <ele>2.06</ele>
        <time>2016-05-22T12:45:47Z</time>
      </trkpt>
      <trkpt lat="43.52947" lon="3.92297">
        <ele>2.06</ele>
        <time>2016-05-22T12:45:48Z</time>
      </trkpt>
      <trkpt lat="43.5295" lon="3.92316">
        <ele>1.58</ele>
        <time>2016-05-22T12:45:49Z</time>
      </trkpt>
      <trkpt lat="43.52958" lon="3.92333">
        <ele>1.58</ele>
        <time>2016-05-22T12:45:50Z</time>
      </trkpt>
      <trkpt lat="43.52966" lon="3.92343">
        <ele>1.1</ele>
        <time>2016-05-22T12:45:51Z</time>
      </trkpt>
      <trkpt lat="43.52976" lon="3.92348">
        <ele>1.1</ele>
        <time>2016-05-22T12:45:52Z</time>
      </trkpt>
      <trkpt lat="43.52989" lon="3.9235">
        <ele>1.1</ele>
        <time>2016-05-22T12:45:53Z</time>
      </trkpt>
      <trkpt lat="43.53003" lon="3.92353">
        <ele>1.58</ele>
        <time>2016-05-22T12:45:54Z</time>
      </trkpt>
      <trkpt lat="43.53019" lon="3.92361">
        <ele>1.58</ele>
        <time>2016-05-22T12:45:55Z</time>
      </trkpt>
      <trkpt lat="43.53033" lon="3.92372">
        <ele>1.58</ele>
        <time>2016-05-22T12:45:56Z</time>
      </trkpt>
      <trkpt lat="43.53045" lon="3.92385">
        <ele>2.54</ele>
        <time>2016-05-22T12:45:57Z</time>
      </trkpt>
      <trkpt lat="43.53057" lon="3.92397">
        <ele>3.98</ele>
        <time>2016-05-22T12:45:58Z</time>
      </trkpt>
      <trkpt lat="43.53153" lon="3.92496">
        <ele>7.35</ele>
        <time>2016-05-22T12:46:08Z</time>
      </trkpt>
      <trkpt lat="43.53219" lon="3.92584">
        <ele>2.06</ele>
        <time>2016-05-22T12:46:17Z</time>
      </trkpt>
      <trkpt lat="43.5322" lon="3.92591">
        <ele>2.06</ele>
        <time>2016-05-22T12:46:18Z</time>
      </trkpt>
      <trkpt lat="43.53219" lon="3.92599">
        <ele>1.58</ele>
        <time>2016-05-22T12:46:19Z</time>
      </trkpt>
      <trkpt lat="43.53217" lon="3.92622">
        <ele>1.1</ele>
        <time>2016-05-22T12:46:21Z</time>
      </trkpt>
      <trkpt lat="43.53216" lon="3.92636">
        <ele>1.1</ele>
        <time>2016-05-22T12:46:22Z</time>
      </trkpt>
      <trkpt lat="43.53214" lon="3.92647">
        <ele>0.62</ele>
        <time>2016-05-22T12:46:23Z</time>
      </trkpt>
      <trkpt lat="43.53211" lon="3.92658">
        <ele>0.62</ele>
        <time>2016-05-22T12:46:24Z</time>
      </trkpt>
      <trkpt lat="43.53206" lon="3.92666">
        <ele>0.62</ele>
        <time>2016-05-22T12:46:25Z</time>
      </trkpt>
      <trkpt lat="43.53202" lon="3.92673">
        <ele>0.62</ele>
        <time>2016-05-22T12:46:26Z</time>
      </trkpt>
      <trkpt lat="43.532" lon="3.9268">
        <ele>0.62</ele>
        <time>2016-05-22T12:46:27Z</time>
      </trkpt>
      <trkpt lat="43.53201" lon="3.92686">
        <ele>0.62</ele>
        <time>2016-05-22T12:46:28Z</time>
      </trkpt>
      <trkpt lat="43.53205" lon="3.92691">
        <ele>0.62</ele>
        <time>2016-05-22T12:46:29Z</time>
      </trkpt>
      <trkpt lat="43.5321" lon="3.92695">
        <ele>0.62</ele>
        <time>2016-05-22T12:46:30Z</time>
      </trkpt>
      <trkpt lat="43.53216" lon="3.92699">
        <ele>0.62</ele>
        <time>2016-05-22T12:46:31Z</time>
      </trkpt>
      <trkpt lat="43.53224" lon="3.92707">
        <ele>0.62</ele>
        <time>2016-05-22T12:46:33Z</time>
      </trkpt>
      <trkpt lat="43.53226" lon="3.92712">
        <ele>0.62</ele>
        <time>2016-05-22T12:46:34Z</time>
      </trkpt>
      <trkpt lat="43.53226" lon="3.92716">
        <ele>0.62</ele>
        <time>2016-05-22T12:46:35Z</time>
      </trkpt>
      <trkpt lat="43.53225" lon="3.92719">
        <ele>0.62</ele>
        <time>2016-05-22T12:46:36Z</time>
      </trkpt>
      <trkpt lat="43.53223" lon="3.92723">
        <ele>0.14</ele>
        <time>2016-05-22T12:46:37Z</time>
      </trkpt>
      <trkpt lat="43.53221" lon="3.92726">
        <ele>0.14</ele>
        <time>2016-05-22T12:46:38Z</time>
      </trkpt>
      <trkpt lat="43.53212" lon="3.92743">
        <ele>0.62</ele>
        <time>2016-05-22T12:46:42Z</time>
      </trkpt>
      <trkpt lat="43.53208" lon="3.92746">
        <ele>0.62</ele>
        <time>2016-05-22T12:46:43Z</time>
      </trkpt>
      <trkpt lat="43.53192" lon="3.9274">
        <ele>1.58</ele>
        <time>2016-05-22T12:46:49Z</time>
      </trkpt>
      <trkpt lat="43.53192" lon="3.92742">
        <ele>5.42</ele>
        <time>2016-05-22T12:47:07Z</time>
      </trkpt>
      <trkpt lat="43.53268" lon="3.92621">
        <ele>0.14</ele>
        <time>2016-05-22T16:46:31Z</time>
      </trkpt>
      <trkpt lat="43.53265" lon="3.92599">
        <ele>-1.3</ele>
        <time>2016-05-22T16:46:33Z</time>
      </trkpt>
      <trkpt lat="43.53262" lon="3.92591">
        <ele>-0.82</ele>
        <time>2016-05-22T16:46:34Z</time>
      </trkpt>
      <trkpt lat="43.53256" lon="3.92582">
        <ele>-0.34</ele>
        <time>2016-05-22T16:46:35Z</time>
      </trkpt>
      <trkpt lat="43.53248" lon="3.92576">
        <ele>-0.34</ele>
        <time>2016-05-22T16:46:36Z</time>
      </trkpt>
      <trkpt lat="43.53238" lon="3.92572">
        <ele>0.14</ele>
        <time>2016-05-22T16:46:37Z</time>
      </trkpt>
      <trkpt lat="43.53228" lon="3.92566">
        <ele>0.62</ele>
        <time>2016-05-22T16:46:38Z</time>
      </trkpt>
      <trkpt lat="43.53217" lon="3.92558">
        <ele>1.1</ele>
        <time>2016-05-22T16:46:39Z</time>
      </trkpt>
      <trkpt lat="43.53207" lon="3.92548">
        <ele>1.58</ele>
        <time>2016-05-22T16:46:40Z</time>
      </trkpt>
      <trkpt lat="43.53197" lon="3.92536">
        <ele>2.54</ele>
        <time>2016-05-22T16:46:41Z</time>
      </trkpt>
      <trkpt lat="43.53071" lon="3.92407">
        <ele>6.39</ele>
        <time>2016-05-22T16:46:52Z</time>
      </trkpt>
      <trkpt lat="43.53053" lon="3.92386">
        <ele>5.42</ele>
        <time>2016-05-22T16:46:54Z</time>
      </trkpt>
      <trkpt lat="43.53045" lon="3.92373">
        <ele>5.42</ele>
        <time>2016-05-22T16:46:55Z</time>
      </trkpt>
      <trkpt lat="43.53039" lon="3.92359">
        <ele>4.94</ele>
        <time>2016-05-22T16:46:56Z</time>
      </trkpt>
      <trkpt lat="43.53034" lon="3.92342">
        <ele>3.98</ele>
        <time>2016-05-22T16:46:57Z</time>
      </trkpt>
      <trkpt lat="43.53031" lon="3.92322">
        <ele>3.02</ele>
        <time>2016-05-22T16:46:58Z</time>
      </trkpt>
      <trkpt lat="43.5303" lon="3.92302">
        <ele>2.54</ele>
        <time>2016-05-22T16:46:59Z</time>
      </trkpt>
      <trkpt lat="43.5303" lon="3.92282">
        <ele>1.58</ele>
        <time>2016-05-22T16:47:00Z</time>
      </trkpt>
      <trkpt lat="43.53033" lon="3.92264">
        <ele>1.1</ele>
        <time>2016-05-22T16:47:01Z</time>
      </trkpt>
      <trkpt lat="43.53038" lon="3.92247">
        <ele>0.62</ele>
        <time>2016-05-22T16:47:02Z</time>
      </trkpt>
      <trkpt lat="43.53044" lon="3.92232">
        <ele>0.62</ele>
        <time>2016-05-22T16:47:03Z</time>
      </trkpt>
      <trkpt lat="43.53051" lon="3.92219">
        <ele>1.1</ele>
        <time>2016-05-22T16:47:04Z</time>
      </trkpt>
      <trkpt lat="43.53059" lon="3.92207">
        <ele>1.1</ele>
        <time>2016-05-22T16:47:05Z</time>
      </trkpt>
      <trkpt lat="43.53069" lon="3.92193">
        <ele>1.1</ele>
        <time>2016-05-22T16:47:06Z</time>
      </trkpt>
      <trkpt lat="43.5308" lon="3.92179">
        <ele>1.58</ele>
        <time>2016-05-22T16:47:07Z</time>
      </trkpt>
    </trkseg>
  </trk>
</gpx>